Site Date LOGGERID PROGID AIRTEMP_MEAN_150_0_04 AIRTEMP_MEAN_250_0_03 AIRTEMP_MEAN_350_0_02 AIRTEMP_MEAN_450_0_01 AIRTEMP_MEAN_350_0_08 RELHUM_MEAN_150_0_04 RELHUM_MEAN_450_0_01 DEWPT_MEAN_150_0_04 DEWPT_MEAN_450_0_01 SOILTEMP_MEAN_0_10_01 SOILTEMP_MEAN_0_20_02 SOILTEMP_MEAN_0_50_03 SOILTEMP_MEAN_0_100_04 SOILWC_MEAN_0_10_01 SOILWC_MEAN_0_20_02 SOILWC_MEAN_0_50_03 SOILWC_MEAN_0_100_04 WINDSPEED_Avg WIND_DIR PRECIP_INST_455_0_01 PRECIP_TOT_455_0_01 AIRTEMP_150_DIAG AIRTEMP_250_DIAG AIRTEMP_MAX_150_0_04 AIRTEMP_MAX_250_0_03 AIRTEMP_MAX_350_0_02 AIRTEMP_MAX_350_0_08 AIRTEMP_MAX_450_0_01 DEWPT_MAX_150_0_04 DEWPT_MAX_450_0_01 WSPD_PRO_MAX_1000_0_01 AIRTEMP_MIN_150_0_04 AIRTEMP_MIN_250_0_03 AIRTEMP_MIN_350_0_02 AIRTEMP_MIN_350_0_08 AIRTEMP_MIN_450_0_01 DEWPT_MIN_150_0_04 DEWPT_MIN_450_0_01 WSPD_PRO_MEAN_1000_0_01 WDIR_PRO_MEAN_1000_0_01 WDIR_PRO_STDDEV_1000_0_01 WDIAG_SNC_NS_1000_0_02 WDIAG_SNC_NSG_1000_0_02 diag_Max WUX_SNC_MEAN_1000_0_02 WUY_SNC_MEAN_1000_0_02 WAIR_SNC_MEAN_1000_0_02 WUX_SNC_STDEV_1000_0_02 WUY_SNC_STDEV_1000_0_02 WAIR_SNC_STDDEV_1000_0_02 WSPD_SNC_MEAN_1000_0_02 WDIR_SNC_MEAN_1000_0_02 WDIR_SNC_STDDEV_1000_0_02 WSPD_SNC_MAX_1000_0_02 BATTERY_V_CHECK PUMPVOLTS_Avg PUMPVOLTS_CHECK SATVP_MEAN_150_0_04 VAP_MEAN_150_0_04 VPD_MEAN_150_0_04 SATVP_MEAN_450_0_01 VAP_MEAN_450_0_01 VPD_MEAN_450_0_01
UPLMET_235 2018-01-18 12:25:00 235 46891.0   0.156 0.135 -0.043 -0.264   100.000   -0.043 0.077 0.576 1.074 4.650 0.449 0.321 0.506 0.611     161.100 0.00 0 1   0.194 0.171 -0.221 -0.011   -0.011 0.0000   0.090 0.072 -0.365 -0.078   -0.078 0.0000 0.00 0.00 20 0                         127.10         6.089 6.089 0.000
UPLMET_235 2018-01-18 12:20:00 235 46891.0   0.094 0.061 -0.130 -0.425   100.000   -0.130 0.077 0.576 1.074 4.650 0.449 0.322 0.506 0.611     161.100 0.10 0 1   0.129 0.102 -0.380 -0.104   -0.104 0.0000   0.064 0.024 -0.462 -0.167   -0.167 0.0000 0.00 0.00 20 0                         127.00         6.050 6.050 0.000
UPLMET_235 2018-01-18 12:15:00 235 46891.0   0.155 0.151 -0.074 -0.338   100.000   -0.074 0.077 0.576 1.074 4.650 0.449 0.322 0.507 0.611     161.000 0.10 0 1   0.187 0.180 -0.285 -0.031   -0.031 0.0000   0.117 0.107 -0.396 -0.097   -0.097 0.0000 0.00 0.00 20 0                         126.70         6.075 6.075 0.000
UPLMET_235 2018-01-18 12:10:00 235 46891.0   0.109 0.124 -0.119 -0.286   100.000   -0.119 0.076 0.576 1.074 4.650 0.449 0.322 0.507 0.611     160.900 0.10 0 1   0.135 0.147 -0.262 -0.094   -0.094 0.0000   0.085 0.082 -0.318 -0.137   -0.137 0.0000 0.00 0.00 20 0                         126.40         6.055 6.055 0.000
UPLMET_235 2018-01-18 12:05:00 235 46891.0   0.074 0.068 -0.138 -0.326   100.000   -0.138 0.076 0.576 1.075 4.650 0.450 0.322 0.508 0.611     160.800 0.20 0 1   0.121 0.118 -0.270 -0.084   -0.084 0.0000   0.014 0.006 -0.405 -0.202   -0.203 0.0000 0.00 0.00 20 0                         126.30         6.047 6.047 0.000
UPLMET_235 2018-01-18 12:00:00 235 46891.0   0.024 0.022 -0.201 -0.345   100.000   -0.201 0.076 0.576 1.075 4.650 0.450 0.322 0.508 0.611     160.600 0.10 0 1   0.055 0.053 -0.272 -0.176   -0.176 0.0000   0.006 0.007 -0.413 -0.226   -0.226 0.0000 0.00 0.00 20 0                         127.20         6.019 6.019 0.000
UPLMET_235 2018-01-18 11:55:00 235 46891.0   -0.102 -0.107 -0.315 -0.561   100.000   -0.315 0.075 0.576 1.075 4.651 0.450 0.322 0.509 0.611     160.400 0.00 0 1   0.020 0.009 -0.304 -0.226   -0.226 0.0000   -0.198 -0.177 -0.779 -0.378   -0.378 0.0000 0.00 0.00 20 0                         127.10         5.969 5.969 -0.000
UPLMET_235 2018-01-18 11:50:00 235 46891.0   0.005 -0.006 -0.191 -0.586   100.000   -0.191 0.075 0.576 1.075 4.651 0.450 0.323 0.509 0.611     160.500 0.20 0 1   0.134 0.127 -0.399 -0.077   -0.077 0.0000   -0.177 -0.168 -0.760 -0.348   -0.348 0.0000 0.00 0.00 20 0                         126.90         6.023 6.023 0.000
UPLMET_235 2018-01-18 11:45:00 235 46891.0   0.155 0.138 -0.048 -0.370   100.000   -0.048 0.075 0.576 1.075 4.651 0.451 0.323 0.510 0.611     160.300 0.10 0 1   0.193 0.160 -0.293 -0.014   -0.014 0.0000   0.121 0.112 -0.449 -0.086   -0.086 0.0000 0.00 0.00 20 0                         126.70         6.086 6.086 0.000
UPLMET_235 2018-01-18 11:40:00 235 46891.0   0.140 0.121 -0.094 -0.339   100.000   -0.094 0.075 0.576 1.075 4.651 0.451 0.323 0.510 0.611     160.200 0.10 0 1   0.160 0.161 -0.288 -0.053   -0.053 0.0000   0.114 0.081 -0.390 -0.126   -0.126 0.0000 0.00 0.00 20 0                         126.40         6.066 6.066 -0.000
UPLMET_235 2018-01-18 11:35:00 235 46891.0   0.168 0.163 -0.044 -0.311   100.000   -0.044 0.074 0.577 1.076 4.651 0.451 0.323 0.511 0.611     160.100 0.30 0 1   0.202 0.198 -0.262 -0.013   -0.013 0.0000   0.127 0.114 -0.357 -0.099   -0.099 0.0000 0.00 0.00 20 0                         126.10         6.088 6.088 0.000
UPLMET_235 2018-01-18 11:30:00 235 46891.0   0.173 0.146 -0.028 -0.342   100.000   -0.028 0.074 0.576 1.077 4.651 0.451 0.323 0.511 0.611     159.800 0.20 0 1   0.255 0.235 -0.273 0.070   0.070 0.0000   0.119 0.102 -0.394 -0.092   -0.092 0.0000 0.00 0.00 20 0                         127.20         6.095 6.095 0.000
UPLMET_235 2018-01-18 11:25:00 235 46891.0   0.293 0.235 0.047 -0.302   100.000   0.047 0.074 0.576 1.077 4.651 0.452 0.324 0.512 0.611     159.600 0.10 0 1   0.328 0.269 -0.249 0.090   0.090 0.0000   0.247 0.208 -0.332 0.020   0.020 0.0000 0.00 0.00 20 0                         127.00         6.129 6.129 0.000
UPLMET_235 2018-01-18 11:20:00 235 46891.0   0.269 0.224 0.061 -0.288   100.000   0.061 0.073 0.576 1.077 4.651 0.452 0.324 0.512 0.611     159.500 0.00 0 1   0.389 0.321 -0.221 0.126   0.127 0.0000   0.197 0.157 -0.319 -0.013   -0.013 0.0000 0.00 0.00 20 0                         126.90         6.135 6.135 0.000
UPLMET_235 2018-01-18 11:15:00 235 46891.0   0.311 0.256 0.087 -0.304   100.000   0.087 0.073 0.576 1.077 4.651 0.452 0.324 0.512 0.611     159.500 0.10 0 1   0.387 0.322 -0.219 0.103   0.103 0.0000   0.283 0.229 -0.444 0.060   0.060 0.0000 0.00 0.00 20 0                         126.70         6.147 6.147 0.000
UPLMET_235 2018-01-18 11:10:00 235 46891.0   0.282 0.248 0.081 -0.369   100.000   0.081 0.072 0.576 1.077 4.651 0.453 0.324 0.513 0.611     159.400 0.00 0 1   0.303 0.270 -0.311 0.116   0.116 0.0000   0.234 0.212 -0.460 0.007   0.007 0.0000 0.00 0.00 20 0                         126.50         6.144 6.144 0.000
UPLMET_235 2018-01-18 11:05:00 235 46891.0   0.099 0.105 -0.059 -0.378   100.000   -0.059 0.072 0.576 1.077 4.652 0.453 0.324 0.513 0.611     159.300 0.00 0 1   0.219 0.197 -0.322 0.000   0.000 0.0000   0.046 0.066 -0.405 -0.092   -0.092 0.0000 0.00 0.00 20 0                         126.10         6.082 6.082 -0.000
UPLMET_235 2018-01-18 11:00:00 235 46891.0   0.127 0.143 -0.046 -0.314   100.000   -0.046 0.072 0.576 1.078 4.652 0.453 0.324 0.514 0.611     159.400 0.60 0 1   0.152 0.167 -0.298 0.004   0.004 0.0000   0.100 0.112 -0.339 -0.105   -0.105 0.0000 0.00 0.00 20 0                         126.10         6.087 6.087 0.000
UPLMET_235 2018-01-18 10:55:00 235 46891.0   0.119 0.126 -0.044 -0.295   100.000   -0.044 0.072 0.576 1.078 4.652 0.453 0.325 0.514 0.611     158.800 0.10 0 1   0.149 0.160 -0.255 -0.012   -0.012 0.0000   0.079 0.092 -0.347 -0.085   -0.085 0.0000 0.00 0.00 20 0                         127.00         6.088 6.088 0.000
UPLMET_235 2018-01-18 10:50:00 235 46891.0   0.036 0.051 -0.109 -0.342   100.000   -0.109 0.071 0.576 1.079 4.652 0.454 0.325 0.515 0.611     158.700 0.20 0 1   0.078 0.087 -0.269 -0.079   -0.079 0.0000   0.006 0.018 -0.424 -0.132   -0.132 0.0000 0.00 0.00 20 0                         126.90         6.060 6.060 0.000
UPLMET_235 2018-01-18 10:45:00 235 46891.0   0.042 0.063 -0.100 -0.326   100.000   -0.100 0.071 0.576 1.079 4.652 0.454 0.325 0.515 0.611     158.500 0.00 0 1   0.071 0.100 -0.266 -0.069   -0.069 0.0000   -0.017 0.006 -0.426 -0.135   -0.135 0.0000 0.00 0.00 20 0                         126.80         6.063 6.063 0.000
UPLMET_235 2018-01-18 10:40:00 235 46891.0   0.037 0.056 -0.143 -0.273   100.000   -0.143 0.071 0.576 1.079 4.652 0.454 0.325 0.516 0.612     158.400 0.00 0 1   0.054 0.076 -0.241 -0.112   -0.112 0.0000   -0.007 0.012 -0.330 -0.185   -0.185 0.0000 0.00 0.00 20 0                         126.60         6.045 6.045 0.000
UPLMET_235 2018-01-18 10:35:00 235 46891.0   -0.021 0.000 -0.185 -0.408   100.000   -0.185 0.070 0.576 1.079 4.652 0.455 0.326 0.516 0.612     158.400 0.00 0 1   -0.012 0.012 -0.340 -0.175   -0.175 0.0000   -0.037 -0.011 -0.467 -0.198   -0.198 0.0000 0.00 0.00 20 0                         126.30         6.026 6.026 0.000
UPLMET_235 2018-01-18 10:30:00 235 46891.0   0.022 0.028 -0.161 -0.318   100.000   -0.161 0.070 0.576 1.080 4.653 0.455 0.326 0.517 0.610     158.400 0.00 0 1   0.056 0.067 -0.236 -0.119   -0.119 0.0000   -0.023 -0.012 -0.428 -0.195   -0.195 0.0000 0.00 0.00 20 0                         125.90         6.037 6.037 -0.000
UPLMET_235 2018-01-18 10:25:00 235 46891.0   0.035 0.055 -0.164 -0.245   100.000   -0.164 0.070 0.576 1.080 4.652 0.455 0.326 0.517 0.606     158.500 0.50 0 1   0.057 0.071 -0.218 -0.136   -0.136 1.0960   0.013 0.036 -0.269 -0.195   -0.195 0.2250 230.30 26.16 20 0                         125.80         6.035 6.035 0.000
UPLMET_235 2018-01-18 10:20:00 235 46891.0   0.024 0.044 -0.158 -0.242   100.000   -0.158 0.070 0.577 1.080 4.653 0.456 0.326 0.518 0.606     158.000 0.40 0 1   0.039 0.061 -0.220 -0.142   -0.142 1.3190   0.014 0.027 -0.273 -0.175   -0.176 0.7630 3.56 34.51 20 0                         126.60         6.038 6.038 0.000
UPLMET_235 2018-01-18 10:15:00 235 46891.0   -0.001 0.014 -0.177 -0.259   100.000   -0.177 0.069 0.577 1.080 4.653 0.456 0.327 0.519 0.606     157.600 0.20 0 1   0.016 0.033 -0.233 -0.129   -0.129 1.5150   -0.020 -0.007 -0.288 -0.202   -0.202 0.3310 84.90 24.65 20 0                         126.40         6.030 6.030 0.000
UPLMET_235 2018-01-18 10:10:00 235 46891.0   0.028 0.048 -0.132 -0.233   100.000   -0.133 0.069 0.577 1.081 4.653 0.456 0.327 0.519 0.606     157.400 0.10 0 1   0.048 0.067 -0.186 -0.112   -0.112 1.8350   0.013 0.030 -0.265 -0.159   -0.159 0.8130 32.81 50.41 20 0                         126.00         6.049 6.049 0.000
UPLMET_235 2018-01-18 10:05:00 235 46891.0   0.054 0.077 -0.110 -0.203   100.000   -0.110 0.069 0.577 1.082 4.653 0.457 0.327 0.520 0.606     157.300 0.70 0 1   0.070 0.090 -0.180 -0.092   -0.092 1.2920   0.017 0.050 -0.248 -0.139   -0.139 0.6610 78.38 34.48 20 0                         125.80         6.059 6.059 0.000
UPLMET_235 2018-01-18 10:00:00 235 46891.0   0.062 0.081 -0.115 -0.191   100.000   -0.115 0.069 0.577 1.082 4.653 0.457 0.327 0.521 0.606     156.600 0.10 0 1   0.073 0.090 -0.171 -0.096   -0.096 1.1050   0.051 0.070 -0.213 -0.132   -0.132 0.4700 121.00 33.42 20 0                         126.50         6.057 6.057 0.000
UPLMET_235 2018-01-18 09:55:00 235 46891.0   0.052 0.077 -0.119 -0.185   100.000   -0.119 0.069 0.577 1.082 4.653 0.457 0.327 0.521 0.606     156.500 0.30 0 1   0.058 0.085 -0.160 -0.100   -0.100 1.4430   0.047 0.072 -0.204 -0.139   -0.139 0.5000 63.49 58.55 20 0                         126.20         6.055 6.055 0.000
UPLMET_235 2018-01-18 09:50:00 235 46891.0   0.052 0.080 -0.115 -0.164   100.000   -0.115 0.068 0.577 1.083 4.654 0.458 0.328 0.522 0.606     156.200 0.20 0 1   0.057 0.087 -0.156 -0.103   -0.103 1.6130   0.049 0.076 -0.174 -0.129   -0.129 0.9340 93.40 31.37 20 0                         125.70         6.057 6.057 0.000
UPLMET_235 2018-01-18 09:45:00 235 46891.0   0.075 0.105 -0.082 -0.138   100.000   -0.084 0.068 0.577 1.083 4.654 0.458 0.328 0.523 0.606     156.000 0.40 0 1   0.087 0.120 -0.117 -0.053   -0.058 2.2900   0.055 0.084 -0.171 -0.120   -0.120 1.2330 85.40 35.79 20 0                         126.50         6.071 6.071 0.000
UPLMET_235 2018-01-18 09:40:00 235 46891.0   0.124 0.157 -0.012 -0.089   99.800   -0.038 0.068 0.577 1.084 4.654 0.458 0.328 0.524 0.606     155.600 0.30 0 1   0.184 0.216 0.009 0.033   0.014 1.6660   0.087 0.120 -0.132 -0.057   -0.071 0.7490 88.00 44.95 20 0                         126.50         6.102 6.091 0.012
UPLMET_235 2018-01-18 09:35:00 235 46891.0   0.225 0.259 0.067 0.026   100.000   0.061 0.068 0.577 1.084 4.654 0.459 0.329 0.525 0.606     155.200 0.00 0 1   0.324 0.354 0.088 0.155   0.155 3.0380   0.187 0.220 -0.020 0.016   0.000 1.1430 40.14 42.49 20 0                         126.10         6.138 6.135 0.000
UPLMET_235 2018-01-18 09:30:00 235 46891.0   0.355 0.409 0.130 0.121   100.000   0.130 0.067 0.578 1.085 4.655 0.459 0.329 0.526 0.606     155.300 0.60 0 1   0.414 0.461 0.152 0.178   0.178 3.5460   0.245 0.324 0.048 0.062   0.062 2.3250 162.20 46.19 20 0                         126.00         6.166 6.166 0.000
UPLMET_235 2018-01-18 09:25:00 235 46891.0   0.264 0.310 0.128 0.067   100.000   0.129 0.067 0.578 1.085 4.655 0.459 0.329 0.527 0.606     154.700 0.00 0 1   0.315 0.369 0.118 0.211   0.211 3.5100   0.222 0.267 0.033 0.055   0.055 2.2280 115.70 52.67 20 0                         126.80         6.165 6.165 0.000
UPLMET_235 2018-01-18 09:20:00 235 46891.0   0.438 0.477 0.291 0.221   100.000   0.291 0.067 0.578 1.086 4.655 0.460 0.329 0.528 0.606     154.700 0.00 0 1   0.529 0.568 0.300 0.360   0.360 3.3320   0.325 0.376 0.125 0.211   0.211 1.7330 86.20 71.78 20 0                         126.60         6.238 6.238 0.000
UPLMET_235 2018-01-18 09:15:00 235 46891.0   0.597 0.623 0.373 0.348   100.000   0.373 0.067 0.578 1.086 4.655 0.460 0.330 0.530 0.606     154.700 0.00 0 1   0.654 0.666 0.388 0.406   0.406 3.5370   0.534 0.571 0.306 0.343   0.344 1.2620 56.62 88.20 20 0                         126.30         6.276 6.276 0.000
UPLMET_235 2018-01-18 09:10:00 235 46891.0   0.511 0.549 0.300 0.269   100.000   0.301 0.066 0.578 1.086 4.655 0.460 0.330 0.530 0.606     154.700 0.00 0 1   0.583 0.605 0.336 0.330   0.330 4.3480   0.441 0.506 0.196 0.267   0.267 1.3680 243.70 62.07 20 0                         126.40         6.242 6.243 0.000
UPLMET_235 2018-01-18 09:05:00 235 46891.0   0.496 0.538 0.304 0.296   100.000   0.304 0.066 0.578 1.087 4.655 0.461 0.330 0.531 0.606     154.600 0.00 0 1   0.534 0.570 0.338 0.330   0.330 5.8710   0.422 0.491 0.185 0.257   0.258 2.0990 184.90 72.72 20 0                         127.20         6.244 6.244 0.000
UPLMET_235 2018-01-18 09:00:00 235 46891.0   0.510 0.545 0.304 0.327   100.000   0.304 0.066 0.579 1.087 4.656 0.461 0.330 0.532 0.606     154.600 0.00 0 1   0.544 0.575 0.370 0.330   0.330 2.0310   0.477 0.517 0.274 0.280   0.280 1.1870 104.30 57.33 20 0                         127.10         6.244 6.244 0.000
UPLMET_235 2018-01-18 08:55:00 235 46891.0   0.485 0.519 0.289 0.295   100.000   0.289 0.066 0.579 1.088 4.656 0.462 0.331 0.532 0.607     154.500 0.00 0 1   0.494 0.530 0.307 0.303   0.303 2.4140   0.471 0.507 0.274 0.274   0.274 1.3840 160.70 42.63 20 0                         127.00         6.237 6.237 0.000
UPLMET_235 2018-01-18 08:50:00 235 46891.0   0.448 0.482 0.257 0.286   100.000   0.257 0.066 0.579 1.088 4.656 0.462 0.331 0.533 0.607     154.500 0.00 0 1   0.484 0.520 0.307 0.284   0.284 2.5120   0.401 0.438 0.259 0.221   0.221 0.6860 118.50 58.81 20 0                         126.90         6.223 6.223 0.000
UPLMET_235 2018-01-18 08:45:00 235 46891.0   0.386 0.424 0.209 0.198   100.000   0.209 0.066 0.580 1.089 4.656 0.462 0.331 0.534 0.607     154.600 0.00 0 1   0.391 0.434 0.243 0.227   0.227 1.4970   0.381 0.418 0.186 0.184   0.184 0.8490 128.00 19.63 20 0                         126.70         6.201 6.201 0.000
UPLMET_235 2018-01-18 08:40:00 235 46891.0   0.367 0.407 0.174 0.202   100.000   0.174 0.066 0.580 1.089 4.657 0.463 0.332 0.534 0.607     154.500 0.00 0 1   0.389 0.429 0.224 0.200   0.201 1.5680   0.353 0.391 0.166 0.147   0.147 0.9260 69.56 50.04 20 0                         126.50         6.186 6.186 0.000
UPLMET_235 2018-01-18 08:35:00 235 46891.0   0.315 0.351 0.104 0.143   100.000   0.104 0.066 0.580 1.090 4.657 0.463 0.332 0.535 0.607     154.700 0.10 0 1   0.355 0.394 0.210 0.144   0.144 2.2990   0.289 0.328 0.118 0.074   0.074 1.2320 109.40 45.40 20 0                         126.20         6.154 6.154 0.000
UPLMET_235 2018-01-18 08:30:00 235 46891.0   0.206 0.243 0.010 0.027   100.000   0.010 0.066 0.580 1.090 4.657 0.463 0.332 0.535 0.607     154.600 0.30 0 1   0.289 0.324 0.117 0.058   0.058 3.5010   0.180 0.214 -0.006 -0.012   -0.012 1.1520 97.00 79.86 20 0                         125.90         6.112 6.112 0.000
UPLMET_235 2018-01-18 08:25:00 235 46891.0   0.164 0.196 0.002 -0.029   100.000   0.002 0.066 0.580 1.091 4.657 0.464 0.333 0.536 0.607     154.300 0.10 0 1   0.198 0.228 0.013 0.044   0.044 2.8420   0.145 0.177 -0.055 -0.038   -0.038 1.2680 149.60 55.19 20 0                         126.80         6.109 6.109 0.000
UPLMET_235 2018-01-18 08:20:00 235 46891.0   0.219 0.253 0.075 0.013   100.000   0.075 0.065 0.580 1.091 4.657 0.464 0.333 0.536 0.607     154.200 0.00 0 1   0.265 0.299 0.047 0.130   0.130 2.0850   0.187 0.222 -0.019 0.034   0.034 0.6470 105.80 50.14 20 0                         126.60         6.141 6.141 0.000
UPLMET_235 2018-01-18 08:15:00 235 46891.0   0.307 0.348 0.150 0.122   100.000   0.150 0.065 0.581 1.092 4.658 0.465 0.333 0.537 0.607     154.200 0.00 0 1   0.338 0.379 0.173 0.169   0.169 2.0050   0.270 0.304 0.057 0.113   0.113 0.9360 69.91 82.60 20 0                         126.40         6.175 6.175 0.000
UPLMET_235 2018-01-18 08:10:00 235 46891.0   0.383 0.419 0.223 0.184   100.000   0.224 0.065 0.581 1.093 4.658 0.465 0.333 0.537 0.607     154.100 0.00 0 1   0.480 0.511 0.282 0.278   0.278 2.8420   0.316 0.354 0.115 0.166   0.166 1.5370 67.20 69.39 20 0                         126.00         6.208 6.208 0.000
UPLMET_235 2018-01-18 08:05:00 235 46891.0   0.433 0.480 0.223 0.215   100.000   0.223 0.065 0.581 1.093 4.658 0.465 0.334 0.538 0.607     154.200 0.40 0 1   0.505 0.550 0.283 0.285   0.285 4.6060   0.316 0.368 0.122 0.166   0.166 2.3450 95.00 63.27 20 0                         126.10         6.208 6.208 0.000
UPLMET_235 2018-01-18 08:00:00 235 46891.0   0.364 0.405 0.225 0.162   100.000   0.225 0.065 0.581 1.094 4.658 0.466 0.334 0.538 0.607     153.600 0.00 0 1   0.422 0.459 0.193 0.278   0.278 5.5240   0.307 0.353 0.110 0.169   0.169 1.7930 44.59 63.29 20 0                         126.70         6.209 6.209 0.000
UPLMET_235 2018-01-18 07:55:00 235 46891.0   0.480 0.518 0.282 0.283   100.000   0.282 0.066 0.582 1.095 4.659 0.466 0.334 0.539 0.607     153.800 0.00 0 1   0.539 0.577 0.346 0.317   0.318 3.4390   0.414 0.451 0.205 0.235   0.235 1.2250 105.30 44.14 20 0                         126.60         6.234 6.234 0.000
UPLMET_235 2018-01-18 07:50:00 235 46891.0   0.446 0.485 0.298 0.248   100.000   0.298 0.065 0.582 1.095 4.659 0.466 0.335 0.540 0.607     153.600 0.00 0 1   0.508 0.551 0.310 0.354   0.354 4.1070   0.403 0.444 0.210 0.248   0.248 1.5000 70.20 91.80 20 0                         126.30         6.242 6.242 0.000
UPLMET_235 2018-01-18 07:45:00 235 46891.0   0.595 0.631 0.409 0.379   100.000   0.410 0.066 0.582 1.095 4.660 0.467 0.335 0.540 0.607     153.600 0.00 0 1   0.660 0.693 0.438 0.443   0.443 2.9490   0.508 0.550 0.296 0.340   0.340 1.4130 4.36 86.70 20 0                         126.00         6.292 6.292 0.000
UPLMET_235 2018-01-18 07:40:00 235 46891.0   0.606 0.645 0.435 0.408   100.000   0.435 0.065 0.582 1.096 4.659 0.467 0.335 0.541 0.607     153.800 0.50 0 1   0.641 0.679 0.476 0.475   0.476 3.9110   0.577 0.617 0.376 0.403   0.403 1.4440 54.08 67.70 20 0                         126.30         6.304 6.304 -0.000
UPLMET_235 2018-01-18 07:35:00 235 46891.0   0.657 0.698 0.472 0.475   100.000   0.472 0.065 0.583 1.097 4.660 0.467 0.335 0.541 0.607     153.300 0.00 0 1   0.686 0.718 0.510 0.492   0.492 4.3300   0.635 0.674 0.442 0.455   0.456 2.0370 83.20 43.33 20 0                         126.80         6.321 6.321 0.000
UPLMET_235 2018-01-18 07:30:00 235 46891.0   0.651 0.690 0.487 0.476   99.900   0.478 0.066 0.583 1.097 4.660 0.467 0.335 0.541 0.607     153.300 0.00 0 1   0.691 0.725 0.528 0.518   0.514 3.2430   0.592 0.641 0.392 0.452   0.452 1.5940 10.46 82.90 20 0                         126.60         6.328 6.324 0.006
UPLMET_235 2018-01-18 07:25:00 235 46891.0   0.692 0.747 0.538 0.495   99.800   0.505 0.066 0.583 1.098 4.661 0.467 0.335 0.541 0.607     153.200 0.00 0 1   0.716 0.779 0.525 0.568   0.542 3.5990   0.666 0.713 0.455 0.502   0.465 1.5210 110.10 33.90 20 0                         126.40         6.351 6.336 0.013
UPLMET_235 2018-01-18 07:20:00 235 46891.0   0.740 0.797 0.590 0.530   99.800   0.569 0.066 0.584 1.099 4.661 0.468 0.336 0.541 0.607     153.300 0.00 0 1   0.777 0.831 0.550 0.637   0.611 3.7510   0.705 0.769 0.505 0.561   0.533 2.0970 124.60 35.17 20 0                         126.10         6.375 6.365 0.013
UPLMET_235 2018-01-18 07:15:00 235 46891.0   0.847 0.909 0.710 0.630   100.000   0.706 0.066 0.584 1.099 4.662 0.468 0.336 0.542 0.607     153.300 0.30 0 1   0.919 0.980 0.701 0.762   0.763 6.3430   0.749 0.797 0.548 0.637   0.609 2.2820 81.80 40.88 20 0                         125.80         6.431 6.429 0.000
UPLMET_235 2018-01-18 07:10:00 235 46891.0   0.998 1.051 0.789 0.757   100.000   0.790 0.066 0.584 1.100 4.661 0.468 0.336 0.542 0.607     153.000 0.10 0 1   1.091 1.132 0.829 0.812   0.812 2.4140   0.887 0.954 0.622 0.749   0.750 1.2160 152.30 44.07 20 0                         126.70         6.468 6.468 0.000
UPLMET_235 2018-01-18 07:05:00 235 46891.0   0.920 0.975 0.689 0.715   100.000   0.690 0.066 0.584 1.100 4.662 0.468 0.336 0.542 0.607     152.900 0.40 0 1   1.086 1.130 0.818 0.792   0.793 3.7330   0.711 0.765 0.514 0.560   0.561 1.8730 165.80 64.16 20 0                         126.60         6.421 6.421 0.000
UPLMET_235 2018-01-18 07:00:00 235 46891.0   0.780 0.832 0.651 0.554   100.000   0.651 0.066 0.585 1.101 4.662 0.468 0.336 0.543 0.607     152.500 0.00 0 1   0.876 0.922 0.637 0.745   0.746 2.9760   0.698 0.758 0.464 0.577   0.577 1.2310 145.90 59.09 20 0                         126.30         6.403 6.403 0.000
UPLMET_235 2018-01-18 06:55:00 235 46891.0   0.947 0.989 0.774 0.767   100.000   0.774 0.066 0.585 1.102 4.663 0.468 0.336 0.543 0.607     152.500 0.00 0 1   0.991 1.029 0.857 0.801   0.802 1.9240   0.892 0.936 0.659 0.749   0.749 1.0300 92.60 32.36 20 0                         125.90         6.461 6.461 0.000
UPLMET_235 2018-01-18 06:50:00 235 46891.0   0.961 1.009 0.793 0.784   100.000   0.794 0.067 0.586 1.102 4.663 0.468 0.336 0.543 0.607     152.500 0.50 0 1   0.991 1.043 0.863 0.828   0.828 1.7190   0.928 0.976 0.735 0.745   0.746 1.0040 101.00 54.50 20 0                         126.30         6.469 6.470 0.000
UPLMET_235 2018-01-18 06:45:00 235 46891.0   0.971 1.015 0.810 0.792   100.000   0.811 0.067 0.586 1.103 4.663 0.468 0.336 0.544 0.607     152.000 0.10 0 1   1.006 1.055 0.892 0.824   0.825 2.3610   0.945 0.990 0.728 0.795   0.795 1.2610 6.37 62.42 20 0                         126.80         6.477 6.478 0.000
UPLMET_235 2018-01-18 06:40:00 235 46891.0   1.087 1.118 0.910 0.847   100.000   0.910 0.067 0.587 1.104 4.664 0.468 0.336 0.544 0.607     151.900 0.20 0 1   1.142 1.176 0.899 0.986   0.987 3.9380   0.981 1.022 0.757 0.828   0.828 1.5000 88.40 60.45 20 0                         126.60         6.524 6.524 0.000
UPLMET_235 2018-01-18 06:35:00 235 46891.0   1.218 1.254 1.015 1.024   100.000   1.016 0.067 0.588 1.104 4.664 0.468 0.336 0.545 0.607     151.700 0.00 0 1   1.270 1.301 1.108 1.053   1.053 2.6730   1.153 1.196 0.913 0.983   0.984 1.4500 28.65 44.76 20 0                         126.40         6.574 6.574 0.000
UPLMET_235 2018-01-18 06:30:00 235 46891.0   1.211 1.243 0.992 0.995   100.000   0.992 0.067 0.588 1.104 4.664 0.468 0.336 0.545 0.607     151.600 0.00 0 1   1.238 1.268 1.021 1.016   1.017 3.1450   1.174 1.213 0.964 0.970   0.970 1.7050 110.70 61.23 20 0                         126.10         6.563 6.563 0.000
UPLMET_235 2018-01-18 06:25:00 235 46891.0   1.205 1.243 1.005 1.022   100.000   1.006 0.068 0.588 1.106 4.665 0.468 0.336 0.546 0.607     151.700 0.40 0 1   1.222 1.256 1.050 1.036   1.037 4.2320   1.184 1.226 1.001 0.993   0.993 1.8380 95.40 40.27 20 0                         126.00         6.569 6.570 0.000
UPLMET_235 2018-01-18 06:20:00 235 46891.0   1.250 1.286 1.048 1.055   100.000   1.049 0.068 0.589 1.106 4.665 0.468 0.336 0.547 0.607     151.300 0.20 0 1   1.320 1.345 1.146 1.088   1.089 2.5840   1.172 1.213 0.952 0.993   0.993 1.6810 97.80 62.41 20 0                         126.90         6.590 6.590 0.000
UPLMET_235 2018-01-18 06:15:00 235 46891.0   1.293 1.336 1.096 1.084   100.000   1.097 0.068 0.589 1.107 4.666 0.468 0.336 0.548 0.607     151.100 0.10 0 1   1.325 1.371 1.121 1.128   1.128 3.1540   1.249 1.290 1.032 1.072   1.072 1.7290 73.28 59.58 20 0                         126.80         6.612 6.613 0.000
UPLMET_235 2018-01-18 06:10:00 235 46891.0   1.349 1.380 1.152 1.155   100.000   1.153 0.068 0.589 1.107 4.666 0.468 0.336 0.549 0.607     151.000 0.10 0 1   1.386 1.414 1.184 1.200   1.201 3.7600   1.312 1.352 1.119 1.118   1.118 2.2080 115.80 45.44 20 0                         126.60         6.639 6.640 0.000
UPLMET_235 2018-01-18 06:05:00 235 46891.0   1.435 1.466 1.230 1.239   100.000   1.231 0.068 0.589 1.108 4.666 0.468 0.336 0.549 0.607     150.800 0.00 0 1   1.490 1.517 1.313 1.270   1.270 4.1870   1.389 1.419 1.186 1.190   1.191 1.9500 99.30 28.11 20 0                         126.40         6.677 6.677 -0.000
UPLMET_235 2018-01-18 06:00:00 235 46891.0   1.430 1.465 1.238 1.252   100.000   1.239 0.068 0.590 1.108 4.666 0.468 0.336 0.550 0.607     150.800 0.00 0 1   1.472 1.500 1.332 1.263   1.264 4.1430   1.383 1.427 1.172 1.217   1.217 1.1790 98.30 62.63 20 0                         126.10         6.680 6.681 0.000
UPLMET_235 2018-01-18 05:55:00 235 46891.0   1.478 1.509 1.268 1.287   100.000   1.269 0.069 0.591 1.110 4.667 0.468 0.336 0.552 0.607     150.900 0.40 0 1   1.521 1.554 1.363 1.292   1.293 3.2870   1.419 1.454 1.185 1.236   1.237 1.6130 90.90 37.19 20 0                         126.00         6.695 6.695 0.000
UPLMET_235 2018-01-18 05:50:00 235 46891.0   1.472 1.504 1.288 1.271   100.000   1.288 0.068 0.591 1.110 4.667 0.468 0.336 0.553 0.607     150.500 0.20 0 1   1.500 1.536 1.312 1.322   1.323 1.7020   1.456 1.489 1.245 1.269   1.270 0.8130 106.20 58.79 20 0                         126.90         6.705 6.705 0.000
UPLMET_235 2018-01-18 05:45:00 235 46891.0   1.527 1.563 1.318 1.350   100.000   1.319 0.069 0.591 1.110 4.668 0.468 0.336 0.555 0.607     150.200 0.00 0 1   1.561 1.592 1.438 1.338   1.339 1.9070   1.497 1.531 1.293 1.285   1.286 0.7800 112.80 28.31 20 0                         126.80         6.719 6.720 0.000
UPLMET_235 2018-01-18 05:40:00 235 46891.0   1.477 1.515 1.268 1.282   100.000   1.269 0.069 0.591 1.111 4.668 0.468 0.336 0.556 0.607     150.300 0.10 0 1   1.500 1.527 1.320 1.289   1.290 3.3680   1.468 1.507 1.267 1.246   1.247 1.9720 102.70 40.76 20 0                         126.70         6.695 6.695 0.000
UPLMET_235 2018-01-18 05:35:00 235 46891.0   1.516 1.551 1.316 1.326   100.000   1.317 0.069 0.592 1.112 4.669 0.468 0.336 0.557 0.607     150.200 0.00 0 1   1.556 1.580 1.369 1.345   1.346 3.3320   1.459 1.510 1.262 1.275   1.276 2.0580 167.40 58.58 20 0                         126.60         6.718 6.719 0.000
UPLMET_235 2018-01-18 05:30:00 235 46891.0   1.575 1.607 1.375 1.377   100.000   1.376 0.069 0.592 1.112 4.669 0.468 0.337 0.558 0.607     150.200 0.00 0 1   1.608 1.637 1.449 1.404   1.405 3.7150   1.514 1.553 1.289 1.321   1.322 1.7940 111.30 45.43 20 0                         126.30         6.747 6.747 -0.000
UPLMET_235 2018-01-18 05:25:00 235 46891.0   1.631 1.659 1.422 1.425   100.000   1.423 0.069 0.593 1.113 4.669 0.469 0.337 0.559 0.607     150.200 0.10 0 1   1.649 1.676 1.451 1.450   1.451 5.4430   1.602 1.637 1.398 1.381   1.382 2.2740 87.80 66.32 20 0                         126.00         6.770 6.770 0.000
UPLMET_235 2018-01-18 05:20:00 235 46891.0   1.689 1.715 1.477 1.478   100.000   1.478 0.070 0.593 1.113 4.670 0.469 0.337 0.560 0.607     150.100 0.40 0 1   1.720 1.748 1.528 1.500   1.501 3.5370   1.650 1.680 1.435 1.440   1.441 2.1380 70.75 33.74 20 0                         126.20         6.796 6.797 0.000
UPLMET_235 2018-01-18 05:15:00 235 46891.0   1.722 1.754 1.527 1.521   100.000   1.528 0.070 0.593 1.114 4.670 0.469 0.337 0.561 0.607     149.700 0.00 0 1   1.744 1.774 1.553 1.552   1.553 3.5280   1.696 1.725 1.479 1.496   1.497 1.6380 5.68 52.09 20 0                         126.90         6.821 6.821 0.000
UPLMET_235 2018-01-18 05:10:00 235 46891.0   1.767 1.797 1.587 1.557   100.000   1.588 0.071 0.594 1.115 4.671 0.468 0.337 0.562 0.607     149.600 0.00 0 1   1.821 1.852 1.590 1.638   1.639 4.5790   1.721 1.754 1.514 1.546   1.547 1.5140 109.50 46.63 20 0                         126.80         6.850 6.851 0.000
UPLMET_235 2018-01-18 05:05:00 235 46891.0   1.848 1.879 1.642 1.663   100.000   1.643 0.071 0.595 1.115 4.672 0.468 0.336 0.564 0.607     149.600 0.00 0 1   1.876 1.900 1.705 1.661   1.662 2.4230   1.813 1.848 1.602 1.621   1.622 1.2290 79.12 38.66 20 0                         126.70         6.877 6.878 0.000
UPLMET_235 2018-01-18 05:00:00 235 46891.0   1.818 1.852 1.641 1.622   100.000   1.635 0.072 0.595 1.116 4.672 0.468 0.336 0.566 0.607     149.600 0.00 0 1   1.864 1.887 1.657 1.701   1.688 3.5990   1.803 1.839 1.602 1.618   1.617 1.8680 66.65 38.76 20 0                         126.60         6.877 6.874 0.000
UPLMET_235 2018-01-18 04:55:00 235 46891.0   1.898 1.937 1.723 1.701   99.800   1.701 0.072 0.595 1.117 4.672 0.468 0.336 0.568 0.607     149.700 0.00 0 1   1.930 1.966 1.766 1.754   1.726 3.6790   1.865 1.899 1.666 1.694   1.681 1.4850 71.94 64.54 20 0                         126.40         6.917 6.907 0.014
UPLMET_235 2018-01-18 04:50:00 235 46891.0   1.943 1.978 1.751 1.769   99.600   1.698 0.072 0.596 1.117 4.672 0.468 0.336 0.571 0.607     149.600 0.00 0 1   1.987 2.020 1.840 1.780   1.737 2.3250   1.904 1.945 1.722 1.724   1.631 1.0830 87.90 62.53 20 0                         126.20         6.931 6.905 0.028
UPLMET_235 2018-01-18 04:45:00 235 46891.0   1.936 1.978 1.779 1.760   99.000   1.644 0.073 0.597 1.118 4.673 0.467 0.336 0.575 0.607     149.700 0.20 0 1   1.973 2.022 1.813 1.833   1.662 3.3770   1.916 1.952 1.731 1.737   1.618 2.0420 149.70 46.30 20 0                         125.90         6.945 6.878 0.069
UPLMET_235 2018-01-18 04:40:00 235 46891.0   1.980 2.028 1.868 1.795   97.800   1.564 0.073 0.597 1.119 4.673 0.467 0.336 0.580 0.607     149.500 0.30 0 1   2.065 2.098 1.860 1.919   1.659 3.0910   1.919 1.980 1.745 1.816   1.530 1.4410 93.90 74.74 20 0                         126.00         6.990 6.839 0.154
UPLMET_235 2018-01-18 04:35:00 235 46891.0   2.167 2.203 2.012 1.945   97.700   1.685 0.073 0.597 1.120 4.674 0.467 0.336 0.585 0.607     149.200 0.30 0 1   2.284 2.320 2.075 2.127   1.854 3.5190   2.073 2.105 1.870 1.932   1.562 1.6880 189.60 70.95 20 0                         126.90         7.062 6.899 0.162
UPLMET_235 2018-01-18 04:30:00 235 46891.0   2.355 2.394 2.224 2.142   98.000   1.945 0.074 0.598 1.121 4.674 0.467 0.336 0.592 0.606     148.900 0.10 0 1   2.424 2.470 2.214 2.339   2.091 4.2410   2.280 2.321 2.073 2.137   1.867 1.9670 114.80 53.10 20 0                         126.90         7.170 7.028 0.143
UPLMET_235 2018-01-18 04:25:00 235 46891.0   2.495 2.531 2.363 2.325   98.200   2.115 0.074 0.598 1.122 4.675 0.468 0.336 0.598 0.603     148.800 0.20 0 1   2.533 2.565 2.363 2.378   2.126 2.6010   2.452 2.490 2.270 2.345   2.094 0.2370 262.70 27.12 20 0                         126.80         7.242 7.114 0.130
UPLMET_235 2018-01-18 04:20:00 235 46891.0   2.554 2.583 2.366 2.405   98.300   2.134 0.074 0.599 1.122 4.675 0.468 0.337 0.612 0.609     148.600 0.10 0 1   2.571 2.594 2.425 2.381   2.159 0.9980   2.540 2.569 2.374 2.345   2.113 0.4240 192.90 64.16 20 0                         126.70         7.243 7.124 0.123
UPLMET_235 2018-01-18 04:15:00 235 46891.0   2.534 2.566 2.350 2.362   98.400   2.128 0.074 0.599 1.122 4.675 0.468 0.337 0.620 0.609     148.500 0.00 0 1   2.553 2.587 2.384 2.365   2.147 2.1200   2.519 2.548 2.349 2.329   2.103 1.0110 188.40 41.08 20 0                         126.50         7.235 7.121 0.116
UPLMET_235 2018-01-18 04:10:00 235 46891.0   2.553 2.579 2.359 2.394   98.300   2.120 0.074 0.599 1.123 4.676 0.469 0.337 0.629 0.609     148.500 0.00 0 1   2.567 2.585 2.405 2.375   2.137 2.7080   2.530 2.567 2.376 2.335   2.098 1.2050 285.60 62.46 20 0                         126.30         7.239 7.117 0.123
UPLMET_235 2018-01-18 04:05:00 235 46891.0   2.531 2.566 2.354 2.372   98.100   2.088 0.075 0.599 1.124 4.676 0.469 0.337 0.653 0.608     148.400 0.00 0 1   2.570 2.599 2.408 2.368   2.108 2.0940   2.510 2.545 2.346 2.329   2.077 0.8830 282.20 89.40 20 0                         126.10         7.237 7.101 0.138
UPLMET_235 2018-01-18 04:00:00 235 46891.0   2.556 2.585 2.357 2.384   98.000   2.071 0.075 0.600 1.125 4.677 0.469 0.338 0.664 0.608     148.500 0.20 0 1   2.582 2.604 2.410 2.381   2.103 4.3920   2.502 2.546 2.328 2.335   2.043 1.8120 297.50 61.09 20 0                         125.80         7.238 7.092 0.145
UPLMET_235 2018-01-18 03:55:00 235 46891.0   2.562 2.594 2.363 2.401   97.700   2.044 0.075 0.600 1.125 4.676 0.470 0.338 0.673 0.608     148.100 0.00 0 1   2.588 2.614 2.432 2.381   2.066 4.3570   2.529 2.565 2.368 2.351   2.025 1.5840 178.10 70.02 20 0                         127.00         7.242 7.078 0.167
UPLMET_235 2018-01-18 03:50:00 235 46891.0   2.539 2.566 2.323 2.370   97.900   2.033 0.076 0.601 1.126 4.677 0.470 0.338 0.681 0.608     148.100 0.00 0 1   2.585 2.607 2.423 2.361   2.056 2.7170   2.519 2.547 2.341 2.302   2.016 1.6240 292.40 57.83 20 0                         126.90         7.221 7.073 0.152
UPLMET_235 2018-01-18 03:45:00 235 46891.0   2.494 2.520 2.292 2.319   97.900   1.992 0.076 0.601 1.127 4.677 0.471 0.339 0.685 0.608     148.200 0.00 0 1   2.534 2.563 2.360 2.305   2.012 3.8400   2.463 2.497 2.288 2.279   1.975 2.2510 277.00 48.96 20 0                         126.80         7.205 7.052 0.151
UPLMET_235 2018-01-18 03:40:00 235 46891.0   2.482 2.513 2.302 2.306   97.600   1.966 0.076 0.601 1.127 4.678 0.471 0.339 0.690 0.608     148.100 0.00 0 1   2.509 2.539 2.345 2.332   1.977 2.1110   2.464 2.499 2.283 2.279   1.953 1.3070 320.60 84.70 20 0                         126.70         7.210 7.039 0.173
UPLMET_235 2018-01-18 03:35:00 235 46891.0   2.540 2.561 2.338 2.348   97.300   1.959 0.076 0.602 1.129 4.678 0.472 0.339 0.709 0.608     148.100 0.00 0 1   2.582 2.587 2.378 2.378   1.996 2.6550   2.517 2.542 2.327 2.312   1.935 1.4120 251.30 79.31 20 0                         126.60         7.229 7.035 0.195
UPLMET_235 2018-01-18 03:30:00 235 46891.0   2.555 2.578 2.352 2.358   97.600   2.007 0.076 0.602 1.129 4.678 0.472 0.340 0.719 0.608     148.300 0.10 0 1   2.612 2.631 2.410 2.394   2.038 2.9670   2.490 2.516 2.304 2.302   1.982 1.8480 224.50 92.80 20 0                         126.50         7.236 7.060 0.174
UPLMET_235 2018-01-18 03:25:00 235 46891.0   2.546 2.573 2.349 2.386   97.400   1.986 0.077 0.603 1.129 4.678 0.473 0.340 0.728 0.608     148.100 0.00 0 1   2.555 2.579 2.400 2.358   2.004 2.3790   2.536 2.562 2.375 2.338   1.971 1.3650 346.20 55.61 20 0                         126.30         7.234 7.049 0.188
UPLMET_235 2018-01-18 03:20:00 235 46891.0   2.541 2.575 2.319 2.381   97.700   1.995 0.078 0.604 1.130 4.678 0.473 0.341 0.735 0.608     148.200 0.10 0 1   2.559 2.593 2.400 2.354   2.021 3.6260   2.504 2.545 2.341 2.265   1.974 1.5500 232.50 60.45 20 0                         126.10         7.219 7.054 0.166
UPLMET_235 2018-01-18 03:15:00 235 46891.0   2.423 2.466 2.230 2.276   98.200   1.974 0.078 0.604 1.131 4.679 0.474 0.341 0.741 0.608     148.100 0.10 0 1   2.489 2.534 2.336 2.275   2.001 3.4120   2.360 2.417 2.206 2.202   1.945 1.4790 225.70 74.97 20 0                         125.80         7.173 7.043 0.129
UPLMET_235 2018-01-18 03:10:00 235 46891.0   2.395 2.442 2.226 2.231   98.100   1.956 0.079 0.605 1.132 4.679 0.474 0.342 0.749 0.608     148.000 0.20 0 1   2.405 2.453 2.243 2.242   1.974 2.1290   2.367 2.416 2.214 2.202   1.936 1.0350 69.63 61.48 20 0                         126.10         7.171 7.034 0.136
UPLMET_235 2018-01-18 03:05:00 235 46891.0   2.417 2.458 2.239 2.243   97.900   1.943 0.079 0.605 1.133 4.679 0.475 0.342 0.752 0.608     147.800 0.00 0 1   2.438 2.477 2.286 2.258   1.959 3.3320   2.374 2.421 2.189 2.211   1.920 1.4010 225.70 86.20 20 0                         126.90         7.178 7.027 0.151
UPLMET_235 2018-01-18 03:00:00 235 46891.0   2.433 2.471 2.249 2.275   97.600   1.905 0.079 0.606 1.134 4.679 0.475 0.343 0.755 0.608     147.800 0.00 0 1   2.462 2.492 2.298 2.271   1.939 2.3070   2.393 2.437 2.224 2.228   1.875 1.1030 49.20 56.37 20 0                         126.80         7.183 7.008 0.172
UPLMET_235 2018-01-18 02:55:00 235 46891.0   2.414 2.447 2.234 2.251   97.500   1.875 0.080 0.606 1.134 4.680 0.476 0.343 0.757 0.608     147.800 0.00 0 1   2.436 2.464 2.304 2.251   1.907 2.8240   2.373 2.423 2.203 2.218   1.815 1.1790 232.20 94.20 20 0                         126.70         7.175 6.993 0.179
UPLMET_235 2018-01-18 02:50:00 235 46891.0   2.416 2.437 2.200 2.233   97.400   1.836 0.081 0.607 1.135 4.680 0.476 0.344 0.759 0.608     147.700 0.00 0 1   2.442 2.458 2.291 2.221   1.867 2.5570   2.387 2.413 2.191 2.172   1.804 1.2640 70.48 94.20 20 0                         126.60         7.158 6.974 0.186
UPLMET_235 2018-01-18 02:45:00 235 46891.0   2.330 2.364 2.135 2.159   98.200   1.884 0.081 0.607 1.136 4.680 0.477 0.344 0.762 0.608     147.800 0.00 0 1   2.407 2.419 2.252 2.172   1.910 3.9560   2.251 2.289 2.072 2.092   1.853 1.7170 25.12 50.90 20 0                         126.50         7.125 6.998 0.128
UPLMET_235 2018-01-18 02:40:00 235 46891.0   2.302 2.334 2.140 2.128   98.300   1.896 0.082 0.607 1.137 4.680 0.478 0.345 0.764 0.608     147.700 0.00 0 1   2.344 2.372 2.172 2.168   1.914 2.0940   2.258 2.296 2.085 2.102   1.871 0.5750 71.40 51.96 20 0                         126.30         7.127 7.004 0.121
UPLMET_235 2018-01-18 02:35:00 235 46891.0   2.370 2.403 2.214 2.178   97.900   1.916 0.082 0.608 1.138 4.680 0.479 0.346 0.765 0.609     147.800 0.00 0 1   2.410 2.441 2.210 2.263   1.932 3.7690   2.325 2.359 2.135 2.151   1.896 2.0010 15.58 89.30 20 0                         126.10         7.165 7.014 0.150
UPLMET_235 2018-01-18 02:30:00 235 46891.0   2.469 2.506 2.276 2.306   97.500   1.929 0.083 0.609 1.139 4.681 0.479 0.346 0.766 0.609     147.700 0.00 0 1   2.505 2.546 2.360 2.293   1.955 2.5660   2.419 2.453 2.233 2.263   1.907 1.2060 91.70 29.62 20 0                         125.80         7.197 7.020 0.180
UPLMET_235 2018-01-18 02:25:00 235 46891.0   2.376 2.423 2.187 2.191   98.200   1.940 0.083 0.610 1.140 4.681 0.480 0.347 0.767 0.609     147.800 0.60 0 1   2.463 2.505 2.308 2.266   1.970 2.7440   2.280 2.328 2.087 2.141   1.909 1.1460 85.60 75.89 20 0                         126.40         7.151 7.026 0.129
UPLMET_235 2018-01-18 02:20:00 235 46891.0   2.349 2.384 2.209 2.156   97.700   1.887 0.085 0.611 1.141 4.681 0.481 0.348 0.768 0.609     147.100 0.00 0 1   2.421 2.452 2.239 2.276   1.920 1.7730   2.302 2.342 2.097 2.160   1.861 0.8500 277.60 74.93 20 0                         127.00         7.162 6.999 0.165
UPLMET_235 2018-01-18 02:15:00 235 46891.0   2.464 2.496 2.278 2.294   96.900   1.841 0.085 0.611 1.142 4.682 0.481 0.349 0.768 0.608     147.200 0.00 0 1   2.499 2.525 2.326 2.305   1.870 2.9220   2.429 2.459 2.259 2.249   1.822 1.6530 124.30 40.56 20 0                         126.90         7.198 6.976 0.223
UPLMET_235 2018-01-18 02:10:00 235 46891.0   2.470 2.499 2.277 2.321   97.300   1.897 0.085 0.612 1.142 4.682 0.482 0.350 0.769 0.608     147.200 0.00 0 1   2.526 2.554 2.349 2.315   1.932 4.2760   2.412 2.448 2.280 2.245   1.819 1.3830 174.70 45.98 20 0                         126.90         7.197 7.004 0.194
UPLMET_235 2018-01-18 02:05:00 235 46891.0   2.405 2.439 2.218 2.267   98.200   1.968 0.086 0.613 1.143 4.682 0.483 0.350 0.768 0.608     147.000 0.00 0 1   2.444 2.477 2.293 2.265   1.989 3.9380   2.343 2.383 2.206 2.162   1.920 0.9880 172.00 51.88 20 0                         126.80         7.167 7.040 0.129
UPLMET_235 2018-01-18 02:00:00 235 46891.0   2.328 2.362 2.160 2.157   98.600   1.971 0.087 0.613 1.144 4.683 0.484 0.351 0.767 0.608     147.200 0.00 0 1   2.350 2.386 2.204 2.179   1.997 1.7280   2.307 2.341 2.117 2.146   1.943 0.6480 81.20 46.10 20 0                         126.60         7.137 7.041 0.100
UPLMET_235 2018-01-18 01:55:00 235 46891.0   2.328 2.350 2.170 2.142   98.400   1.945 0.089 0.614 1.146 4.683 0.484 0.351 0.765 0.608     147.200 0.00 0 1   2.358 2.370 2.169 2.191   1.963 2.0670   2.308 2.335 2.120 2.145   1.923 0.7920 10.29 83.30 20 0                         126.50         7.142 7.028 0.114
UPLMET_235 2018-01-18 01:50:00 235 46891.0   2.363 2.371 2.204 2.150   97.900   1.907 0.090 0.615 1.146 4.683 0.484 0.352 0.763 0.608     147.100 0.00 0 1   2.406 2.414 2.196 2.261   1.954 3.8130   2.313 2.335 2.089 2.172   1.867 1.6910 23.66 56.68 20 0                         126.30         7.160 7.009 0.150
UPLMET_235 2018-01-18 01:45:00 235 46891.0   2.488 2.506 2.295 2.288   97.400   1.934 0.091 0.616 1.147 4.683 0.485 0.352 0.761 0.608     147.200 0.30 0 1   2.527 2.550 2.305 2.326   2.000 3.1450   2.421 2.427 2.219 2.264   1.899 1.5090 23.76 84.50 20 0                         126.00         7.206 7.023 0.187
UPLMET_235 2018-01-18 01:40:00 235 46891.0   2.548 2.580 2.374 2.320   98.100   2.113 0.092 0.617 1.148 4.684 0.485 0.353 0.758 0.608     146.900 0.10 0 1   2.614 2.646 2.397 2.458   2.249 3.1540   2.497 2.530 2.276 2.313   1.991 1.8820 114.90 56.74 20 0                         127.30         7.247 7.113 0.138
UPLMET_235 2018-01-18 01:35:00 235 46891.0   2.663 2.693 2.478 2.443   98.700   2.290 0.094 0.618 1.150 4.684 0.486 0.354 0.755 0.608     146.800 0.20 0 1   2.698 2.730 2.499 2.541   2.367 3.0110   2.616 2.651 2.390 2.442   2.237 0.9690 178.70 83.20 20 0                         127.50         7.301 7.204 0.095
UPLMET_235 2018-01-18 01:30:00 235 46891.0   2.714 2.737 2.537 2.516   98.500   2.323 0.095 0.618 1.150 4.684 0.486 0.355 0.747 0.608     146.600 0.20 0 1   2.749 2.777 2.558 2.574   2.343 2.6820   2.689 2.714 2.483 2.501   2.302 1.3320 92.60 46.62 20 0                         127.50         7.332 7.221 0.110
UPLMET_235 2018-01-18 01:25:00 235 46891.0   2.796 2.820 2.617 2.626   98.000   2.330 0.096 0.620 1.151 4.685 0.487 0.356 0.737 0.608     146.400 0.10 0 1   2.818 2.838 2.669 2.636   2.371 4.4720   2.748 2.779 2.561 2.593   2.304 1.7190 85.50 60.68 20 0                         127.40         7.374 7.225 0.147
UPLMET_235 2018-01-18 01:20:00 235 46891.0   2.798 2.834 2.638 2.628   97.700   2.309 0.098 0.621 1.152 4.685 0.487 0.356 0.723 0.608     146.300 0.00 0 1   2.834 2.872 2.652 2.675   2.344 2.5840   2.778 2.817 2.612 2.600   2.286 1.6480 113.10 36.63 20 0                         127.40         7.385 7.214 0.170
UPLMET_235 2018-01-18 01:15:00 235 46891.0   2.860 2.894 2.718 2.674   97.000   2.288 0.099 0.622 1.154 4.685 0.488 0.357 0.702 0.608     146.300 0.30 0 1   2.949 2.976 2.762 2.770   2.306 1.8620   2.813 2.853 2.627 2.662   2.269 1.1520 119.40 49.07 20 0                         127.30         7.427 7.203 0.223
UPLMET_235 2018-01-18 01:10:00 235 46891.0   2.993 3.022 2.800 2.781   97.200   2.401 0.100 0.622 1.155 4.685 0.488 0.357 0.688 0.608     146.000 0.20 0 1   3.014 3.043 2.809 2.817   2.487 3.2790   2.954 2.982 2.725 2.784   2.322 1.4460 203.00 77.87 20 0                         127.30         7.470 7.261 0.209
UPLMET_235 2018-01-18 01:05:00 235 46891.0   3.002 3.028 2.839 2.730   98.100   2.566 0.101 0.623 1.155 4.684 0.488 0.358 0.678 0.608     145.800 0.10 0 1   3.057 3.067 2.829 2.932   2.661 4.2670   2.962 2.994 2.688 2.800   2.501 2.0110 215.90 73.80 20 0                         127.20         7.491 7.347 0.142
UPLMET_235 2018-01-18 01:00:00 235 46891.0   3.079 3.099 2.943 2.907   97.300   2.563 0.102 0.624 1.156 4.685 0.488 0.358 0.666 0.608     145.700 0.00 0 1   3.136 3.144 2.986 2.985   2.650 2.2540   3.040 3.061 2.835 2.899   2.454 0.8820 52.32 33.70 20 0                         127.10         7.547 7.346 0.204
UPLMET_235 2018-01-18 00:55:00 235 46891.0   3.159 3.177 2.980 2.973   96.800   2.526 0.104 0.625 1.158 4.685 0.489 0.358 0.642 0.608     145.600 0.00 0 1   3.177 3.205 2.996 3.004   2.609 4.2410   3.139 3.153 2.947 2.951   2.449 1.4960 165.20 99.10 20 0                         126.90         7.567 7.326 0.242
UPLMET_235 2018-01-18 00:50:00 235 46891.0   3.176 3.195 3.011 2.970   97.700   2.684 0.106 0.627 1.159 4.686 0.489 0.358 0.618 0.608     145.700 0.00 0 1   3.204 3.221 3.020 3.057   2.743 3.6710   3.155 3.175 2.939 2.984   2.613 1.1870 243.70 92.60 20 0                         126.70         7.583 7.409 0.174
UPLMET_235 2018-01-18 00:45:00 235 46891.0   3.251 3.268 3.083 3.068   97.400   2.718 0.108 0.628 1.160 4.686 0.489 0.358 0.598 0.602     145.700 0.50 0 1   3.276 3.295 3.122 3.120   2.779 2.7440   3.200 3.222 2.993 3.050   2.668 1.2660 5.22 35.69 20 0                         127.80         7.622 7.427 0.198
UPLMET_235 2018-01-18 00:40:00 235 46891.0   3.290 3.319 3.118 3.076   96.900   2.675 0.109 0.628 1.161 4.686 0.489 0.358 0.587 0.606     145.200 0.00 0 1   3.357 3.383 3.128 3.160   2.706 4.1160   3.227 3.263 3.026 3.077   2.661 1.5500 70.43 63.82 20 0                         128.90         7.641 7.404 0.237
UPLMET_235 2018-01-18 00:35:00 235 46891.0   3.310 3.331 3.123 3.078   97.700   2.803 0.111 0.629 1.162 4.686 0.489 0.358 0.572 0.607     145.200 0.30 0 1   3.356 3.376 3.105 3.146   2.909 3.1360   3.236 3.264 3.039 3.094   2.669 1.3950 205.50 80.50 20 0                         128.90         7.644 7.472 0.176
UPLMET_235 2018-01-18 00:30:00 235 46891.0   3.388 3.407 3.211 3.147   98.700   3.031 0.113 0.631 1.164 4.686 0.488 0.358 0.563 0.607     144.900 0.30 0 1   3.536 3.544 3.375 3.295   3.160 4.6770   3.326 3.347 3.059 3.130   2.916 2.0210 55.25 63.19 20 0                         128.90         7.692 7.594 0.100
UPLMET_235 2018-01-18 00:25:00 235 46891.0   3.494 3.517 3.335 3.284   98.600   3.135 0.115 0.632 1.165 4.686 0.488 0.357 0.556 0.607     144.600 0.30 0 1   3.600 3.614 3.412 3.424   3.220 4.0000   3.401 3.424 3.137 3.245   3.041 2.1850 69.98 43.13 20 0                         128.90         7.759 7.650 0.109
UPLMET_235 2018-01-18 00:20:00 235 46891.0   3.603 3.630 3.443 3.415   98.300   3.203 0.117 0.632 1.165 4.687 0.488 0.357 0.549 0.607     144.300 0.30 0 1   3.634 3.664 3.465 3.480   3.228 1.7730   3.580 3.605 3.380 3.417   3.183 0.9690 33.75 53.67 20 0                         128.90         7.819 7.687 0.133
UPLMET_235 2018-01-18 00:15:00 235 46891.0   3.659 3.688 3.512 3.465   97.900   3.209 0.118 0.633 1.166 4.686 0.487 0.356 0.543 0.607     144.000 0.20 0 1   3.725 3.753 3.547 3.576   3.234 2.8510   3.625 3.649 3.397 3.453   3.167 1.4890 52.15 54.36 20 0                         128.90         7.857 7.690 0.165
UPLMET_235 2018-01-18 00:10:00 235 46891.0   3.792 3.814 3.608 3.579   97.600   3.266 0.120 0.634 1.167 4.687 0.487 0.356 0.538 0.607     143.800 0.30 0 1   3.866 3.879 3.634 3.642   3.316 2.9400   3.723 3.753 3.516 3.556   3.209 1.3990 50.05 84.70 20 0                         128.90         7.911 7.722 0.190
UPLMET_235 2018-01-18 00:05:00 235 46891.0   3.832 3.854 3.613 3.588   98.500   3.401 0.122 0.635 1.168 4.687 0.487 0.355 0.534 0.607     143.500 0.40 0 1   3.879 3.890 3.656 3.658   3.498 5.9600   3.783 3.807 3.532 3.585   3.314 3.0870 33.65 83.30 20 0                         128.90         7.913 7.796 0.119
UPLMET_235 2018-01-18 00:00:00 235 46891.0   3.839 3.869 3.664 3.658   98.500   3.451 0.124 0.636 1.169 4.687 0.486 0.355 0.530 0.607     143.100 0.50 0 1   3.866 3.899 3.690 3.697   3.483 3.6260   3.807 3.846 3.622 3.638   3.421 1.6800 20.60 38.19 20 0                         128.90         7.942 7.823 0.119
UPLMET_235 2018-01-17 23:55:00 235 46891.0   3.848 3.884 3.674 3.641   98.300   3.436 0.127 0.637 1.170 4.687 0.486 0.355 0.527 0.606     142.600 0.20 0 1   3.886 3.916 3.674 3.720   3.455 3.5810   3.807 3.848 3.603 3.651   3.418 1.6040 344.00 63.03 20 0                         128.90         7.948 7.815 0.135
UPLMET_235 2018-01-17 23:50:00 235 46891.0   3.895 3.903 3.666 3.686   98.200   3.405 0.128 0.638 1.171 4.686 0.486 0.355 0.525 0.606     142.400 0.30 0 1   3.930 3.930 3.766 3.726   3.459 4.0090   3.776 3.808 3.580 3.597   3.371 1.7900 20.41 50.96 20 0                         128.80         7.943 7.798 0.143
UPLMET_235 2018-01-17 23:45:00 235 46891.0   3.805 3.831 3.609 3.602   98.300   3.375 0.130 0.639 1.172 4.687 0.486 0.355 0.521 0.606     142.100 0.30 0 1   3.829 3.849 3.634 3.640   3.401 3.1890   3.762 3.795 3.570 3.573   3.346 1.4310 52.56 82.80 20 0                         128.80         7.911 7.781 0.134
UPLMET_235 2018-01-17 23:40:00 235 46891.0   3.755 3.785 3.529 3.540   99.100   3.404 0.133 0.640 1.173 4.687 0.486 0.355 0.518 0.606     141.800 0.20 0 1   3.808 3.841 3.589 3.586   3.436 4.5260   3.688 3.713 3.487 3.458   3.370 1.6500 211.50 85.30 20 0                         128.80         7.867 7.797 0.071
UPLMET_235 2018-01-17 23:35:00 235 46891.0   3.632 3.663 3.417 3.429   99.500   3.347 0.134 0.640 1.174 4.687 0.486 0.355 0.515 0.606     141.600 0.10 0 1   3.693 3.714 3.502 3.458   3.374 2.2990   3.559 3.606 3.348 3.377   3.303 1.0060 319.70 70.23 20 0                         128.70         7.805 7.766 0.039
UPLMET_235 2018-01-17 23:30:00 235 46891.0   3.579 3.620 3.407 3.373   99.300   3.313 0.136 0.642 1.175 4.688 0.486 0.355 0.512 0.606     141.400 0.00 0 1   3.605 3.639 3.403 3.430   3.337 2.6820   3.554 3.605 3.333 3.374   3.281 1.2000 67.58 14.16 20 0                         128.60         7.799 7.747 0.055
UPLMET_235 2018-01-17 23:25:00 235 46891.0   3.618 3.661 3.444 3.411   99.000   3.310 0.138 0.642 1.176 4.688 0.486 0.354 0.509 0.606     141.500 0.60 0 1   3.647 3.688 3.481 3.472   3.334 3.5370   3.582 3.630 3.378 3.420   3.287 1.3140 84.80 52.38 20 0                         129.40         7.819 7.746 0.078
UPLMET_235 2018-01-17 23:20:00 235 46891.0   3.646 3.691 3.475 3.444   98.700   3.294 0.140 0.643 1.178 4.688 0.486 0.354 0.506 0.606     140.900 0.00 0 1   3.680 3.717 3.516 3.499   3.333 4.4550   3.621 3.660 3.420 3.456   3.253 2.6670 111.50 29.14 20 0                         131.40         7.837 7.737 0.102
UPLMET_235 2018-01-17 23:15:00 235 46891.0   3.687 3.725 3.544 3.507   98.100   3.280 0.141 0.644 1.179 4.689 0.486 0.354 0.503 0.606     140.900 0.10 0 1   3.733 3.768 3.563 3.577   3.292 1.9330   3.614 3.663 3.403 3.495   3.270 0.8010 133.30 50.39 20 0                         131.40         7.875 7.729 0.150
UPLMET_235 2018-01-17 23:10:00 235 46891.0   3.758 3.794 3.594 3.580   98.000   3.306 0.144 0.645 1.180 4.688 0.485 0.354 0.499 0.606     140.800 0.30 0 1   3.809 3.846 3.671 3.623   3.338 2.1200   3.728 3.764 3.554 3.557   3.273 0.9410 73.76 70.18 20 0                         131.50         7.903 7.743 0.158
UPLMET_235 2018-01-17 23:05:00 235 46891.0   3.835 3.864 3.663 3.642   97.800   3.355 0.146 0.646 1.181 4.689 0.485 0.353 0.496 0.606     140.500 0.20 0 1   3.906 3.931 3.705 3.725   3.400 4.6860   3.794 3.832 3.598 3.606   3.307 2.0870 91.80 40.13 20 0                         131.50         7.941 7.770 0.175
UPLMET_235 2018-01-17 23:00:00 235 46891.0   3.941 3.972 3.763 3.730   97.800   3.454 0.148 0.647 1.182 4.689 0.485 0.353 0.493 0.606     140.300 0.30 0 1   3.980 4.005 3.797 3.804   3.512 4.0890   3.897 3.936 3.673 3.715   3.381 2.3150 97.60 61.76 20 0                         131.50         7.998 7.825 0.176
UPLMET_235 2018-01-17 22:55:00 235 46891.0   3.990 4.031 3.854 3.806   97.600   3.509 0.150 0.648 1.182 4.689 0.484 0.352 0.489 0.605     140.000 0.40 0 1   4.035 4.079 3.876 3.932   3.533 4.4100   3.957 4.001 3.743 3.784   3.484 1.6660 106.10 54.68 20 0                         131.50         8.049 7.855 0.193
UPLMET_235 2018-01-17 22:50:00 235 46891.0   4.119 4.159 3.974 3.924   96.600   3.489 0.152 0.648 1.184 4.690 0.483 0.351 0.485 0.605     139.600 0.20 0 1   4.195 4.236 3.981 4.027   3.522 4.1160   4.047 4.086 3.886 3.939   3.452 1.6130 100.20 48.34 20 0                         131.60         8.117 7.844 0.276
UPLMET_235 2018-01-17 22:45:00 235 46891.0   4.172 4.213 4.014 3.977   96.400   3.489 0.154 0.649 1.184 4.690 0.482 0.350 0.485 0.605     139.400 0.20 0 1   4.232 4.275 4.066 4.063   3.546 5.3010   4.080 4.131 3.910 3.968   3.429 2.6260 127.80 41.48 20 0                         131.60         8.140 7.844 0.293
UPLMET_235 2018-01-17 22:40:00 235 46891.0   4.219 4.269 4.075 4.029   96.100   3.513 0.157 0.650 1.186 4.690 0.480 0.349 0.483 0.605     139.200 0.40 0 1   4.264 4.317 4.078 4.116   3.704 5.6570   4.146 4.202 3.973 4.030   3.365 3.1470 147.40 41.88 20 0                         131.60         8.175 7.858 0.319
UPLMET_235 2018-01-17 22:35:00 235 46891.0   4.285 4.330 4.139 4.087   97.800   3.822 0.159 0.651 1.186 4.690 0.479 0.347 0.482 0.605     138.800 0.30 0 1   4.338 4.377 4.180 4.198   3.880 2.5840   4.253 4.297 4.014 4.096   3.727 1.6610 111.80 72.61 20 0                         131.70         8.212 8.031 0.181
UPLMET_235 2018-01-17 22:30:00 235 46891.0   4.399 4.437 4.263 4.223   97.100   3.853 0.162 0.651 1.187 4.691 0.477 0.345 0.480 0.605     138.500 0.40 0 1   4.472 4.510 4.310 4.353   3.903 4.2590   4.328 4.377 4.154 4.198   3.833 2.7490 130.70 33.70 20 0                         131.70         8.284 8.048 0.240
UPLMET_235 2018-01-17 22:25:00 235 46891.0   4.554 4.600 4.404 4.363   96.800   3.940 0.164 0.653 1.188 4.691 0.476 0.343 0.481 0.605     138.100 0.50 0 1   4.662 4.694 4.433 4.438   4.004 5.1410   4.473 4.523 4.307 4.349   3.882 2.5100 111.00 76.20 20 0                         131.70         8.366 8.098 0.268
UPLMET_235 2018-01-17 22:20:00 235 46891.0   4.619 4.663 4.459 4.387   97.900   4.157 0.166 0.654 1.188 4.691 0.474 0.341 0.482 0.605     137.600 0.60 0 1   4.672 4.710 4.414 4.534   4.260 4.4810   4.575 4.618 4.350 4.398   4.010 2.0460 80.50 32.16 20 0                         131.70         8.399 8.223 0.176
UPLMET_235 2018-01-17 22:15:00 235 46891.0   4.775 4.821 4.632 4.547   97.800   4.313 0.168 0.654 1.189 4.691 0.473 0.339 0.481 0.605     137.000 0.40 0 1   4.874 4.938 4.693 4.692   4.371 5.3190   4.652 4.699 4.408 4.537   4.255 2.6530 88.80 45.94 20 0                         131.80         8.501 8.313 0.187
UPLMET_235 2018-01-17 22:10:00 235 46891.0   4.825 4.875 4.700 4.600   97.900   4.403 0.171 0.655 1.190 4.691 0.471 0.338 0.480 0.605     136.600 0.40 0 1   4.888 4.935 4.678 4.774   4.454 3.1890   4.777 4.817 4.488 4.622   4.321 2.0920 155.00 11.71 20 0                         131.80         8.542 8.366 0.179
UPLMET_235 2018-01-17 22:05:00 235 46891.0   4.945 4.994 4.798 4.710   98.100   4.524 0.172 0.655 1.190 4.692 0.470 0.336 0.480 0.605     136.200 0.30 0 1   4.960 5.013 4.757 4.826   4.570 2.7800   4.910 4.950 4.659 4.773   4.461 1.4630 166.30 41.03 20 0                         131.80         8.600 8.437 0.163
UPLMET_235 2018-01-17 22:00:00 235 46891.0   5.021 5.072 4.903 4.816   97.900   4.608 0.174 0.656 1.191 4.692 0.468 0.335 0.480 0.605     135.900 0.50 0 1   5.093 5.149 4.913 4.964   4.649 2.3250   4.964 5.017 4.748 4.836   4.562 1.6180 84.90 21.86 20 0                         131.90         8.664 8.487 0.182
UPLMET_235 2018-01-17 21:55:00 235 46891.0   5.065 5.127 4.929 4.836   97.800   4.621 0.176 0.656 1.191 4.692 0.467 0.333 0.479 0.605     135.400 0.50 0 1   5.118 5.175 4.900 4.957   4.638 2.8690   5.022 5.085 4.799 4.901   4.598 1.2000 107.10 72.46 20 0                         131.90         8.680 8.495 0.191
UPLMET_235 2018-01-17 21:50:00 235 46891.0   5.100 5.161 4.950 4.927   97.800   4.642 0.178 0.657 1.192 4.693 0.465 0.331 0.479 0.605     134.900 0.20 0 1   5.133 5.197 4.979 4.986   4.688 3.0470   5.057 5.125 4.857 4.914   4.609 1.2780 79.40 69.93 20 0                         131.90         8.692 8.507 0.191
UPLMET_235 2018-01-17 21:45:00 235 46891.0   5.107 5.168 4.949 4.932   97.800   4.640 0.179 0.657 1.192 4.692 0.464 0.329 0.479 0.605     134.700 0.60 0 1   5.129 5.184 4.965 4.972   4.665 3.6440   5.070 5.136 4.870 4.932   4.618 2.0610 136.20 42.59 20 0                         132.00         8.692 8.506 0.191
UPLMET_235 2018-01-17 21:40:00 235 46891.0   5.114 5.174 4.975 4.938   98.000   4.685 0.181 0.658 1.193 4.693 0.462 0.328 0.479 0.605     134.100 0.00 0 1   5.163 5.214 5.022 5.031   4.734 3.7330   5.076 5.140 4.887 4.945   4.657 1.9260 133.30 39.11 20 0                         132.00         8.707 8.533 0.174
UPLMET_235 2018-01-17 21:35:00 235 46891.0   5.167 5.217 5.026 4.976   97.500   4.662 0.183 0.659 1.194 4.693 0.460 0.326 0.479 0.605     134.100 0.00 0 1   5.204 5.252 5.009 5.066   4.688 2.8060   5.123 5.178 4.934 4.997   4.631 1.4900 114.80 48.02 20 0                         132.00         8.738 8.519 0.218
UPLMET_235 2018-01-17 21:30:00 235 46891.0   5.230 5.288 5.102 5.066   97.000   4.668 0.184 0.659 1.194 4.694 0.459 0.325 0.478 0.605     134.100 0.20 0 1   5.256 5.313 5.105 5.122   4.703 2.1030   5.171 5.225 4.969 5.050   4.630 1.2840 89.00 47.21 20 0                         132.10         8.785 8.523 0.264
UPLMET_235 2018-01-17 21:25:00 235 46891.0   5.235 5.299 5.110 5.079   97.000   4.682 0.185 0.660 1.194 4.694 0.457 0.324 0.478 0.605     133.900 0.70 0 1   5.258 5.328 5.095 5.127   4.701 2.1290   5.218 5.286 5.048 5.088   4.653 1.1180 142.40 54.86 20 0                         132.10         8.790 8.531 0.264
UPLMET_235 2018-01-17 21:20:00 235 46891.0   5.255 5.311 5.108 5.081   96.900   4.661 0.187 0.660 1.195 4.694 0.456 0.324 0.478 0.605     133.200 0.30 0 1   5.273 5.326 5.103 5.117   4.686 2.8510   5.236 5.298 5.036 5.097   4.626 1.1250 171.80 43.12 20 0                         132.10         8.789 8.518 0.272
UPLMET_235 2018-01-17 21:15:00 235 46891.0   5.295 5.344 5.122 5.125   96.700   4.651 0.187 0.660 1.195 4.694 0.456 0.323 0.478 0.606     132.900 0.20 0 1   5.324 5.372 5.176 5.146   4.669 3.4660   5.230 5.284 5.050 5.082   4.632 1.7330 142.10 65.62 20 0                         132.20         8.797 8.512 0.290
UPLMET_235 2018-01-17 21:10:00 235 46891.0   5.248 5.308 5.142 5.074   96.400   4.618 0.188 0.661 1.195 4.694 0.455 0.323 0.478 0.606     132.700 0.40 0 1   5.297 5.364 5.122 5.187   4.667 3.2700   5.220 5.274 5.041 5.099   4.562 1.2870 117.90 41.13 20 0                         132.20         8.809 8.493 0.317
UPLMET_235 2018-01-17 21:05:00 235 46891.0   5.345 5.409 5.218 5.158   95.700   4.589 0.189 0.661 1.196 4.694 0.455 0.323 0.478 0.606     132.300 0.20 0 1   5.402 5.467 5.241 5.259   4.626 2.0490   5.304 5.369 5.102 5.167   4.540 1.3200 131.00 44.03 20 0                         132.20         8.856 8.476 0.381
UPLMET_235 2018-01-17 21:00:00 235 46891.0   5.379 5.424 5.250 5.168   95.400   4.582 0.190 0.662 1.196 4.695 0.455 0.323 0.478 0.606     132.100 0.40 0 1   5.439 5.491 5.257 5.284   4.627 3.4920   5.329 5.366 5.087 5.225   4.524 1.7110 124.00 53.67 20 0                         132.30         8.876 8.471 0.408
UPLMET_235 2018-01-17 20:55:00 235 46891.0   5.471 5.522 5.374 5.247   94.300   4.533 0.191 0.662 1.197 4.696 0.455 0.323 0.478 0.606     131.700 0.00 0 1   5.566 5.615 5.313 5.409   4.614 5.1140   5.359 5.406 5.154 5.301   4.435 1.9850 68.67 77.91 20 0                         132.30         8.953 8.442 0.510
UPLMET_235 2018-01-17 20:50:00 235 46891.0   5.644 5.687 5.584 5.436   92.300   4.439 0.191 0.662 1.197 4.696 0.455 0.323 0.478 0.606     131.600 0.00 0 1   5.794 5.836 5.556 5.739   4.639 5.8980   5.491 5.533 5.299 5.443   4.318 2.7680 92.00 46.28 20 0                         132.40         9.085 8.387 0.700
UPLMET_235 2018-01-17 20:45:00 235 46891.0   6.005 6.055 5.966 5.773   89.000   4.291 0.192 0.663 1.198 4.696 0.455 0.323 0.478 0.606     131.700 0.00 0 1   6.156 6.216 5.946 6.118   4.375 5.9420   5.816 5.856 5.568 5.742   4.178 1.8960 159.80 48.87 20 0                         132.40         9.329 8.300 1.026
UPLMET_235 2018-01-17 20:40:00 235 46891.0   6.255 6.326 6.231 6.035   86.700   4.188 0.193 0.663 1.198 4.696 0.455 0.323 0.478 0.606     131.500 0.00 0 1   6.361 6.441 6.166 6.329   4.437 1.7820   6.147 6.223 5.892 6.111   4.009 0.9430 126.50 39.10 20 0                         132.40         9.501 8.240 1.264
UPLMET_235 2018-01-17 20:35:00 235 46891.0   6.467 6.575 6.512 6.264   84.800   4.139 0.193 0.664 1.198 4.696 0.455 0.323 0.478 0.606     131.500 0.00 0 1   6.657 6.782 6.526 6.692   4.338 3.5810   6.358 6.446 6.137 6.355   3.920 1.6320 147.70 51.21 20 0                         132.50         9.687 8.212 1.472
UPLMET_235 2018-01-17 20:30:00 235 46891.0   6.807 6.887 6.781 6.603   81.900   3.917 0.193 0.665 1.199 4.696 0.455 0.323 0.478 0.606     131.600 0.00 0 1   6.957 7.043 6.818 6.899   4.063 2.3790   6.657 6.761 6.470 6.665   3.783 1.2090 163.50 73.01 20 0                         132.50         9.868 8.085 1.786
UPLMET_235 2018-01-17 20:25:00 235 46891.0   6.939 7.065 6.932 6.720   81.800   4.048 0.195 0.665 1.200 4.696 0.454 0.322 0.478 0.606     131.500 0.00 0 1   7.109 7.216 6.961 7.031   4.527 3.9020   6.733 6.852 6.320 6.806   3.588 1.9230 155.00 68.92 20 0                         132.60         9.971 8.160 1.815
UPLMET_235 2018-01-17 20:20:00 235 46891.0   6.843 6.992 6.957 6.661   86.500   4.858 0.195 0.665 1.200 4.697 0.454 0.322 0.478 0.606     131.500 0.00 0 1   7.029 7.159 7.038 7.139   5.277 3.3230   6.718 6.894 6.395 6.859   4.358 1.2040 60.56 92.30 20 0                         132.60         9.988 8.637 1.348
UPLMET_235 2018-01-17 20:15:00 235 46891.0   7.132 7.309 7.283 6.879   84.200   4.805 0.196 0.665 1.200 4.697 0.454 0.322 0.478 0.606     131.600 0.00 0 1   7.319 7.490 7.213 7.512   5.377 1.5590   6.917 7.094 6.579 7.149   4.409 0.5230 141.90 33.96 20 0                         132.60         10.214 8.605 1.614
UPLMET_235 2018-01-17 20:10:00 235 46891.0   7.229 7.406 7.388 7.086   83.200   4.717 0.197 0.666 1.201 4.697 0.454 0.322 0.478 0.606     131.400 0.00 0 1   7.509 7.682 7.596 7.534   5.416 2.7440   6.970 7.155 6.533 7.247   4.037 1.4380 117.10 36.52 20 0                         132.70         10.288 8.552 1.728
UPLMET_235 2018-01-17 20:05:00 235 46891.0   7.595 7.716 7.779 7.370   81.500   4.810 0.197 0.666 1.201 4.697 0.454 0.322 0.477 0.606     131.500 0.00 0 1   7.869 7.921 7.670 8.030   5.208 1.3450   7.294 7.468 6.953 7.564   4.192 0.4490 224.50 38.59 20 0                         132.70         10.567 8.608 1.955
UPLMET_235 2018-01-17 20:00:00 235 46891.0   8.180 8.220 8.290 7.853   76.960   4.489 0.198 0.666 1.201 4.697 0.453 0.322 0.477 0.606     131.500 0.00 0 1   8.810 8.780 8.620 8.770   5.037 2.2540   7.859 7.939 7.270 8.020   3.981 1.0090 202.20 69.10 20 0                         132.80         10.941 8.416 2.521
UPLMET_235 2018-01-17 19:55:00 235 46891.0   8.680 8.780 8.820 8.430   71.900   4.038 0.199 0.667 1.202 4.698 0.454 0.322 0.477 0.606     131.400 0.00 0 1   8.910 9.020 8.680 9.090   4.692 4.0180   8.330 8.490 8.000 8.610   3.568 2.3980 261.10 79.14 20 0                         132.80         11.341 8.154 3.187
UPLMET_235 2018-01-17 19:50:00 235 46891.0   9.330 9.420 9.500 8.950   68.450   3.977 0.199 0.667 1.203 4.698 0.454 0.322 0.477 0.606     131.400 0.00 0 1   9.790 9.860 9.300 9.910   4.575 3.1720   8.920 9.030 8.550 9.110   3.429 1.6580 267.70 50.72 20 0                         132.90         11.873 8.119 3.746
UPLMET_235 2018-01-17 19:45:00 235 46891.0   10.250 10.310 10.260 9.920   61.920   3.281 0.200 0.668 1.203 4.698 0.454 0.322 0.477 0.606     131.400 0.00 0 1   10.460 10.520 10.270 10.430   4.252 3.1720   9.810 9.880 9.290 9.940   2.605 1.7540 269.60 43.71 20 0                         132.90         12.494 7.730 4.758
UPLMET_235 2018-01-17 19:40:00 235 46891.0   10.560 10.630 10.510 10.350   58.820   2.797 0.201 0.668 1.203 4.699 0.454 0.322 0.477 0.606     131.400 0.00 0 1   10.640 10.700 10.470 10.550   2.995 3.1000   10.440 10.520 10.160 10.440   2.636 1.5530 293.50 82.80 20 0                         133.00         12.705 7.469 5.232
UPLMET_235 2018-01-17 19:35:00 235 46891.0   10.520 10.650 10.470 10.310   59.370   2.895 0.201 0.668 1.203 4.700 0.453 0.322 0.477 0.606     131.400 0.00 0 1   10.600 10.720 10.420 10.500   3.240 4.2500   10.430 10.590 10.180 10.440   2.709 1.7560 327.90 56.16 20 0                         133.00         12.671 7.521 5.148
UPLMET_235 2018-01-17 19:30:00 235 46891.0   10.520 10.740 10.630 10.270   59.800   3.145 0.201 0.668 1.204 4.700 0.453 0.322 0.477 0.606     131.400 0.00 0 1   10.680 10.910 10.650 10.760   4.092 3.3230   10.200 10.450 9.730 10.410   2.722 1.4930 7.03 53.53 20 0                         133.10         12.807 7.656 5.148
UPLMET_235 2018-01-17 19:25:00 235 46891.0   10.740 10.910 10.630 10.650   58.140   2.750 0.202 0.669 1.204 4.700 0.454 0.322 0.477 0.606     131.400 0.00 0 1   11.000 11.130 10.930 10.830   3.190 3.2340   10.290 10.520 10.240 10.300   2.577 1.8450 74.00 101.30 20 0                         133.10         12.807 7.444 5.361
UPLMET_235 2018-01-17 19:20:00 235 46891.0   10.000 10.230 10.100 9.990   61.650   3.079 0.203 0.669 1.204 4.700 0.453 0.321 0.477 0.606     131.500 0.00 0 1   10.360 10.480 10.510 10.300   3.663 2.7970   9.660 9.880 9.390 9.850   2.649 2.0030 356.80 64.47 20 0                         133.20         12.361 7.620 4.741
UPLMET_235 2018-01-17 19:15:00 235 46891.0   9.840 10.140 10.190 9.590   63.760   3.636 0.203 0.670 1.205 4.701 0.453 0.321 0.477 0.606     131.500 0.00 0 1   10.190 10.480 9.780 10.540   4.222 3.4030   9.540 9.820 9.260 9.890   3.074 1.9580 33.31 80.70 20 0                         133.20         12.436 7.926 4.507
UPLMET_235 2018-01-17 19:10:00 235 46891.0   10.460 10.710 10.650 10.340   59.340   3.060 0.204 0.670 1.205 4.702 0.453 0.321 0.477 0.606     131.500 0.00 0 1   10.570 10.810 10.570 10.700   3.611 2.4950   10.220 10.520 9.850 10.550   2.778 1.2170 41.20 52.91 20 0                         133.30         12.824 7.610 5.214
UPLMET_235 2018-01-17 19:05:00 235 46891.0   10.670 10.820 10.760 10.370   59.400   3.174 0.205 0.670 1.206 4.702 0.453 0.321 0.477 0.606     131.400 0.00 0 1   10.780 10.940 10.550 10.930   3.594 2.5120   10.540 10.710 10.230 10.670   2.849 0.9730 3.52 57.25 20 0                         133.30         12.918 7.671 5.245
UPLMET_235 2018-01-17 19:00:00 235 46891.0   11.170 11.270 11.140 10.910   56.870   2.909 0.206 0.671 1.206 4.702 0.452 0.321 0.477 0.606     131.500 0.00 0 1   11.280 11.370 11.160 11.200   3.651 3.5370   10.810 10.980 10.300 10.960   2.615 1.4970 350.90 44.81 20 0                         133.40         13.249 7.529 5.714
UPLMET_235 2018-01-17 18:55:00 235 46891.0   11.250 11.350 11.210 10.960   56.140   2.797 0.206 0.671 1.206 4.702 0.452 0.321 0.477 0.606     131.300 0.00 0 1   11.440 11.500 11.150 11.300   3.332 3.3500   11.020 11.170 10.710 11.090   2.596 2.1590 11.83 55.27 20 0                         133.50         13.310 7.469 5.838
UPLMET_235 2018-01-17 18:50:00 235 46891.0   11.350 11.430 11.240 11.100   55.350   2.629 0.207 0.671 1.207 4.703 0.452 0.320 0.477 0.606     131.400 0.00 0 1   11.560 11.550 11.270 11.340   2.890 8.6300   11.070 11.200 10.930 11.070   2.436 2.8050 22.58 66.09 20 0                         133.50         13.337 7.380 5.955
UPLMET_235 2018-01-17 18:45:00 235 46891.0   11.010 11.150 11.050 10.850   56.760   2.805 0.207 0.671 1.207 4.703 0.452 0.320 0.477 0.606     131.500 0.00 0 1   11.110 11.220 11.010 11.100   3.310 3.0650   10.890 11.030 10.460 10.990   2.587 1.2410 357.50 78.75 20 0                         133.60         13.170 7.473 5.695
UPLMET_235 2018-01-17 18:40:00 235 46891.0   11.370 11.490 11.360 11.100   55.480   2.776 0.208 0.672 1.207 4.703 0.452 0.320 0.476 0.606     131.500 0.00 0 1   11.550 11.660 11.360 11.450   3.397 4.2410   10.940 11.100 10.530 11.160   2.499 1.9250 61.98 73.93 20 0                         133.60         13.444 7.458 5.985
UPLMET_235 2018-01-17 18:35:00 235 46891.0   11.550 11.650 11.480 11.280   54.210   2.562 0.208 0.672 1.207 4.704 0.451 0.320 0.476 0.606     131.500 0.00 0 1   11.710 11.800 11.450 11.550   2.872 4.7840   11.340 11.460 11.040 11.410   2.440 2.5640 91.40 57.65 20 0                         133.70         13.551 7.345 6.205
UPLMET_235 2018-01-17 18:30:00 235 46891.0   11.570 11.680 11.450 11.370   54.120   2.512 0.209 0.672 1.207 4.704 0.451 0.320 0.476 0.606     131.400 0.00 0 1   11.680 11.770 11.480 11.500   2.965 4.7570   11.450 11.590 11.240 11.410   2.290 2.4370 339.00 54.77 20 0                         133.80         13.524 7.319 6.205
UPLMET_235 2018-01-17 18:25:00 235 46891.0   11.220 11.390 11.280 11.070   54.920   2.550 0.210 0.672 1.207 4.704 0.451 0.320 0.476 0.606     131.400 0.00 0 1   11.450 11.620 11.420 11.390   3.171 5.3450   11.050 11.200 10.710 11.200   2.279 2.0360 23.99 57.37 20 0                         133.80         13.372 7.339 6.028
UPLMET_235 2018-01-17 18:20:00 235 46891.0   11.220 11.380 11.270 11.170   54.720   2.491 0.210 0.672 1.208 4.704 0.451 0.320 0.476 0.606     131.400 0.00 0 1   11.450 11.570 11.500 11.400   3.088 2.7170   10.790 11.130 10.630 11.120   2.274 1.2240 85.00 82.10 20 0                         133.90         13.364 7.308 6.051
UPLMET_235 2018-01-17 18:15:00 235 46891.0   11.130 11.310 11.260 10.920   55.980   2.805 0.211 0.672 1.208 4.705 0.451 0.320 0.476 0.606     131.500 0.00 0 1   11.250 11.400 11.140 11.440   3.305 4.3210   10.800 11.140 10.590 11.190   2.437 2.1930 18.55 43.72 20 0                         134.00         13.355 7.473 5.879
UPLMET_235 2018-01-17 18:10:00 235 46891.0   11.690 11.770 11.650 11.390   53.750   2.595 0.211 0.673 1.209 4.705 0.451 0.320 0.476 0.606     131.400 0.00 0 1   11.880 11.950 11.620 11.740   3.090 3.0200   11.310 11.410 10.950 11.480   2.336 1.8990 23.22 54.82 20 0                         134.10         13.704 7.362 6.338
UPLMET_235 2018-01-17 18:05:00 235 46891.0   11.720 11.870 11.670 11.510   52.830   2.371 0.211 0.674 1.209 4.706 0.451 0.320 0.476 0.606     131.500 0.00 0 1   11.880 11.970 11.650 11.730   2.860 6.7530   11.440 11.700 11.200 11.610   2.234 3.4160 355.80 34.91 20 0                         134.10         13.722 7.246 6.473
UPLMET_235 2018-01-17 18:00:00 235 46891.0   11.780 11.870 11.670 11.580   52.610   2.311 0.212 0.674 1.209 4.706 0.451 0.319 0.476 0.606     131.400 0.00 0 1   11.860 11.930 11.670 11.710   2.607 2.8690   11.680 11.800 11.420 11.550   2.174 1.4710 77.95 70.29 20 0                         134.20         13.722 7.215 6.503
UPLMET_235 2018-01-17 17:55:00 235 46891.0   11.390 11.600 11.530 11.250   53.670   2.462 0.213 0.674 1.209 4.706 0.451 0.319 0.476 0.606     131.400 0.00 0 1   11.660 11.770 11.510 11.630   2.872 4.1340   11.230 11.440 11.010 11.450   2.133 1.9890 37.27 57.13 20 0                         134.30         13.596 7.293 6.299
UPLMET_235 2018-01-17 17:50:00 235 46891.0   11.760 11.890 11.750 11.510   52.490   2.356 0.213 0.674 1.209 4.706 0.450 0.319 0.476 0.606     131.400 0.00 0 1   11.960 12.070 11.730 11.830   2.728 3.7420   11.510 11.720 11.330 11.650   2.115 2.0110 25.91 33.86 20 0                         134.40         13.795 7.238 6.554
UPLMET_235 2018-01-17 17:45:00 235 46891.0   11.670 11.770 11.590 11.370   52.870   2.305 0.214 0.674 1.209 4.706 0.450 0.319 0.476 0.607     131.400 0.00 0 1   12.070 12.160 11.760 11.820   3.316 6.4860   11.250 11.420 10.770 11.410   1.974 2.5720 14.63 74.21 20 0                         134.50         13.650 7.212 6.433
UPLMET_235 2018-01-17 17:40:00 235 46891.0   11.650 11.770 11.650 11.370   53.370   2.501 0.215 0.674 1.209 4.707 0.450 0.319 0.476 0.607     131.400 0.00 0 1   11.870 11.960 11.660 11.770   2.984 3.6260   11.350 11.550 11.050 11.500   2.186 1.7640 341.10 71.49 20 0                         134.50         13.704 7.313 6.390
UPLMET_235 2018-01-17 17:35:00 235 46891.0   11.610 11.790 11.640 11.510   52.680   2.303 0.215 0.674 1.210 4.707 0.450 0.319 0.476 0.607     131.400 0.00 0 1   11.890 12.020 11.770 11.780   2.634 4.3480   11.440 11.670 11.250 11.580   2.059 1.9270 334.20 74.61 20 0                         134.60         13.695 7.211 6.481
UPLMET_235 2018-01-17 17:30:00 235 46891.0   11.390 11.650 11.610 11.260   53.730   2.557 0.216 0.675 1.210 4.708 0.450 0.319 0.476 0.607     131.400 0.00 0 1   11.620 11.850 11.590 11.730   3.153 4.0450   11.160 11.490 11.050 11.480   2.046 2.2600 33.03 64.06 20 0                         134.70         13.668 7.342 6.324
UPLMET_235 2018-01-17 17:25:00 235 46891.0   11.700 11.850 11.740 11.450   52.400   2.326 0.216 0.675 1.210 4.708 0.450 0.319 0.476 0.607     131.500 0.00 0 1   11.920 12.020 11.680 11.820   2.888 5.9070   11.410 11.630 11.130 11.650   2.088 1.9910 33.72 75.24 20 0                         134.80         13.786 7.222 6.562
UPLMET_235 2018-01-17 17:20:00 235 46891.0   11.680 11.870 11.630 11.660   52.560   2.263 0.216 0.675 1.211 4.708 0.450 0.319 0.476 0.607     131.500 0.00 0 1   11.920 12.090 12.060 11.850   3.302 3.7330   11.330 11.540 11.140 11.340   1.668 2.5700 346.00 56.62 20 0                         134.90         13.686 7.190 6.493
UPLMET_235 2018-01-17 17:15:00 235 46891.0   11.160 11.330 11.380 10.920   55.340   2.752 0.217 0.675 1.211 4.708 0.450 0.319 0.476 0.607     131.400 0.00 0 1   11.490 11.670 11.570 11.680   3.367 4.2050   10.880 11.070 10.590 11.090   1.907 1.5830 18.15 92.20 20 0                         135.00         13.461 7.445 6.012
UPLMET_235 2018-01-17 17:10:00 235 46891.0   11.640 11.840 11.810 11.430   53.420   2.660 0.217 0.675 1.211 4.709 0.450 0.319 0.476 0.607     131.500 0.00 0 1   11.960 12.110 11.780 12.030   3.109 4.1520   11.410 11.640 11.120 11.670   2.116 2.3300 350.10 66.68 20 0                         135.20         13.850 7.396 6.451
UPLMET_235 2018-01-17 17:05:00 235 46891.0   12.140 12.290 12.160 11.890   51.470   2.458 0.218 0.675 1.211 4.709 0.450 0.319 0.476 0.607     131.500 0.00 0 1   12.460 12.570 12.250 12.300   3.017 3.8840   11.810 12.040 11.420 12.000   2.152 2.0810 5.35 38.53 20 0                         135.30         14.173 7.291 6.878
UPLMET_235 2018-01-17 17:00:00 235 46891.0   12.070 12.240 12.120 11.870   51.510   2.434 0.219 0.676 1.211 4.709 0.449 0.319 0.476 0.607     131.500 0.00 0 1   12.390 12.460 12.160 12.230   2.865 4.9620   11.800 12.040 11.490 12.000   2.189 1.9470 14.84 65.93 20 0                         135.50         14.136 7.278 6.854
UPLMET_235 2018-01-17 16:55:00 235 46891.0   12.000 12.170 12.030 11.770   51.920   2.461 0.219 0.676 1.211 4.710 0.449 0.319 0.475 0.607     131.500 0.00 0 1   12.240 12.340 12.020 12.170   2.796 6.7980   11.650 11.870 11.560 11.750   2.268 3.1040 344.50 49.31 20 0                         135.70         14.052 7.292 6.756
UPLMET_235 2018-01-17 16:50:00 235 46891.0   11.990 12.120 11.960 11.760   53.490   2.808 0.220 0.676 1.211 4.710 0.449 0.319 0.475 0.607     131.400 0.00 0 1   12.290 12.350 12.180 12.100   3.822 3.4750   11.540 11.790 11.160 11.760   2.404 2.1950 23.92 38.40 20 0                         135.90         13.988 7.475 6.506
UPLMET_235 2018-01-17 16:45:00 235 46891.0   11.710 11.850 11.890 11.360   55.280   3.208 0.221 0.676 1.212 4.710 0.449 0.318 0.475 0.607     131.400 0.00 0 1   12.230 12.360 12.060 12.260   4.060 3.4480   11.320 11.480 10.880 11.540   2.252 1.6290 27.88 57.85 20 0                         136.20         13.923 7.690 6.226
UPLMET_235 2018-01-17 16:40:00 235 46891.0   12.200 12.330 12.190 12.010   52.000   2.637 0.221 0.676 1.212 4.710 0.449 0.318 0.475 0.607     131.600 0.00 0 1   12.330 12.440 12.180 12.270   2.903 3.4570   11.810 12.070 11.710 12.000   2.418 2.2010 348.10 42.60 20 0                         136.50         14.201 7.384 6.817
UPLMET_235 2018-01-17 16:35:00 235 46891.0   12.270 12.400 12.270 11.960   52.810   2.918 0.222 0.676 1.212 4.710 0.449 0.318 0.475 0.607     131.400 0.00 0 1   12.680 12.750 12.500 12.450   3.910 4.2230   11.760 11.970 11.340 12.000   2.377 1.9970 10.79 46.88 20 0                         136.80         14.276 7.533 6.737
UPLMET_235 2018-01-17 16:30:00 235 46891.0   11.800 11.940 11.730 11.670   54.470   2.850 0.222 0.677 1.213 4.711 0.449 0.318 0.475 0.607     131.400 0.00 0 1   12.550 12.640 12.380 12.210   3.865 7.4570   11.230 11.490 10.980 11.540   2.241 2.8740 348.20 45.54 20 0                         137.20         13.777 7.497 6.273
UPLMET_235 2018-01-17 16:25:00 235 46891.0   11.400 11.660 11.550 11.410   56.420   3.190 0.223 0.677 1.213 4.711 0.449 0.318 0.475 0.607     131.400 0.00 0 1   11.610 11.820 11.830 11.630   3.867 4.2590   11.230 11.500 11.000 11.330   2.816 1.9660 31.06 45.82 20 0                         137.60         13.614 7.680 5.933
UPLMET_235 2018-01-17 16:20:00 235 46891.0   11.180 11.420 11.510 10.790   58.860   3.741 0.224 0.677 1.213 4.711 0.448 0.318 0.475 0.607     131.500 0.00 0 1   11.750 11.960 11.500 11.900   4.695 4.4550   10.780 11.030 10.160 11.160   2.809 2.1530 52.00 68.82 20 0                         138.10         13.578 7.985 5.586
UPLMET_235 2018-01-17 16:15:00 235 46891.0   12.020 12.180 12.090 11.740   54.760   3.263 0.225 0.677 1.213 4.711 0.448 0.318 0.475 0.607     131.500 0.00 0 1   12.330 12.470 12.160 12.180   3.801 6.1560   11.560 11.820 11.110 11.900   2.771 2.3210 3.81 65.68 20 0                         138.50         14.108 7.720 6.382
UPLMET_235 2018-01-17 16:10:00 235 46891.0   11.670 11.870 11.810 11.600   55.300   3.145 0.225 0.678 1.214 4.712 0.448 0.318 0.475 0.607     131.600 0.00 0 1   12.110 12.300 12.100 12.040   3.702 4.4010   11.360 11.580 11.060 11.660   2.848 2.1150 0.75 85.10 20 0                         138.70         13.850 7.656 6.191
UPLMET_235 2018-01-17 16:05:00 235 46891.0   11.940 12.120 12.070 11.630   55.950   3.555 0.225 0.678 1.214 4.711 0.448 0.318 0.475 0.607     131.500 0.00 0 1   12.170 12.330 11.970 12.190   4.190 4.0090   11.430 11.640 11.060 11.830   2.907 2.5250 357.70 62.19 20 0                         139.30         14.089 7.881 6.206
UPLMET_235 2018-01-17 16:00:00 235 46891.0   12.340 12.490 12.300 12.120   53.700   3.190 0.226 0.678 1.213 4.712 0.448 0.318 0.475 0.607     131.500 0.00 0 1   12.540 12.600 12.290 12.350   3.583 8.3500   12.070 12.300 11.760 12.230   2.964 2.8600 350.60 46.66 20 0                         140.00         14.304 7.680 6.623
UPLMET_235 2018-01-17 15:55:00 235 46891.0   11.880 12.090 11.830 11.690   56.070   3.357 0.227 0.678 1.214 4.712 0.448 0.318 0.475 0.607     131.500 0.00 0 1   12.570 12.660 12.340 12.250   4.588 6.7170   11.310 11.600 11.080 11.630   2.858 3.0530 354.40 75.53 20 0                         140.00         13.868 7.771 6.092
UPLMET_235 2018-01-17 15:50:00 235 46891.0   11.420 11.670 11.530 11.330   58.330   3.641 0.227 0.678 1.214 4.712 0.447 0.317 0.475 0.607     131.500 0.00 0 1   11.650 11.850 11.710 11.710   3.946 2.9850   10.940 11.360 10.950 11.200   3.398 1.3560 328.10 97.60 20 0                         140.90         13.596 7.929 5.665
UPLMET_235 2018-01-17 15:45:00 235 46891.0   11.190 11.410 11.440 10.770   61.400   4.286 0.229 0.679 1.214 4.712 0.447 0.317 0.475 0.607     131.400 0.00 0 1   11.840 12.020 11.640 11.850   4.847 3.9290   10.810 11.130 10.380 11.170   3.814 1.8090 16.96 66.05 20 0                         140.90         13.515 8.297 5.217
UPLMET_235 2018-01-17 15:40:00 235 46891.0   11.660 11.810 11.630 11.520   58.520   3.775 0.229 0.678 1.214 4.713 0.447 0.317 0.474 0.607     131.500 0.00 0 1   12.020 12.120 11.900 11.850   4.846 4.9890   11.150 11.360 10.730 11.410   3.269 2.0750 344.00 78.59 20 0                         140.90         13.686 8.004 5.677
UPLMET_235 2018-01-17 15:35:00 235 46891.0   11.590 11.800 11.570 11.450   59.090   3.862 0.230 0.679 1.214 4.713 0.447 0.317 0.474 0.607     131.400 0.00 0 1   11.880 12.050 11.840 11.770   4.469 4.1780   11.340 11.580 10.990 11.310   3.507 2.0920 13.07 58.80 20 0                         141.50         13.632 8.054 5.577
UPLMET_235 2018-01-17 15:30:00 235 46891.0   10.980 11.180 10.990 10.830   62.850   4.184 0.230 0.680 1.214 4.713 0.447 0.317 0.474 0.607     131.500 0.00 0 1   11.440 11.580 11.400 11.290   4.803 3.9650   10.630 10.860 10.390 10.840   3.547 2.1260 8.30 63.40 20 0                         141.60         13.117 8.238 4.873
UPLMET_235 2018-01-17 15:25:00 235 46891.0   10.610 10.790 10.790 10.580   64.700   4.414 0.230 0.680 1.214 4.713 0.446 0.317 0.474 0.607     131.600 0.00 0 1   10.780 10.970 10.820 10.860   4.949 3.2520   10.460 10.630 10.370 10.700   4.091 1.1220 23.28 55.54 20 0                         142.00         12.944 8.372 4.569
UPLMET_235 2018-01-17 15:20:00 235 46891.0   10.660 10.820 10.770 10.480   64.670   4.391 0.231 0.680 1.214 4.713 0.446 0.317 0.474 0.607     131.400 0.00 0 1   11.000 11.130 11.000 10.990   5.027 4.4280   10.290 10.540 9.970 10.550   3.917 2.5490 8.85 52.48 20 0                         141.70         12.927 8.359 4.567
UPLMET_235 2018-01-17 15:15:00 235 46891.0   10.790 10.970 10.970 10.300   65.670   4.794 0.231 0.680 1.215 4.713 0.446 0.316 0.474 0.607     131.500 0.00 0 1   11.200 11.320 11.000 11.150   5.361 4.4460   10.280 10.530 9.660 10.560   4.151 1.7290 19.33 30.08 20 0                         141.60         13.100 8.598 4.497
UPLMET_235 2018-01-17 15:10:00 235 46891.0   11.050 11.230 11.230 10.590   63.840   4.646 0.232 0.681 1.215 4.713 0.446 0.316 0.474 0.607     131.500 0.00 0 1   11.270 11.470 10.830 11.500   5.232 4.2050   10.870 11.060 10.200 11.100   4.165 1.7940 7.94 55.49 20 0                         142.00         13.328 8.509 4.819
UPLMET_235 2018-01-17 15:05:00 235 46891.0   11.650 11.840 11.790 11.160   61.340   4.600 0.232 0.680 1.215 4.714 0.445 0.316 0.474 0.607     131.400 0.00 0 1   12.040 12.170 11.830 11.960   5.152 3.6620   11.290 11.540 10.690 11.510   3.995 1.5690 354.70 39.34 20 0                         141.90         13.831 8.482 5.347
UPLMET_235 2018-01-17 15:00:00 235 46891.0   11.910 12.110 11.850 11.550   59.220   4.159 0.233 0.681 1.214 4.714 0.445 0.316 0.474 0.607     131.400 0.00 0 1   11.990 12.160 11.810 11.930   4.441 4.6150   11.730 12.040 11.320 11.790   4.001 1.0380 3.74 57.39 20 0                         142.40         13.886 8.224 5.663
UPLMET_235 2018-01-17 14:55:00 235 46891.0   11.360 11.510 11.030 11.160   61.910   4.004 0.233 0.681 1.214 4.714 0.445 0.315 0.473 0.607     131.400 0.00 0 1   12.020 12.110 11.870 11.770   4.452 5.6930   10.430 10.600 10.280 10.320   3.603 1.8790 346.70 89.20 20 0                         145.00         13.152 8.134 5.010
UPLMET_235 2018-01-17 14:50:00 235 46891.0   10.120 10.300 10.160 9.790   68.630   4.661 0.234 0.681 1.214 4.713 0.444 0.315 0.473 0.607     131.500 0.00 0 1   10.370 10.540 10.230 10.290   5.100 3.5640   9.980 10.170 9.500 10.090   4.319 1.6400 333.20 30.78 20 0                         144.20         12.411 8.518 3.893
UPLMET_235 2018-01-17 14:45:00 235 46891.0   10.250 10.380 10.310 9.770   68.030   4.671 0.234 0.681 1.214 4.713 0.444 0.315 0.473 0.607     131.500 0.00 0 1   10.400 10.530 10.060 10.400   5.067 2.8870   10.100 10.240 9.590 10.160   4.139 1.5020 12.94 41.83 20 0                         143.60         12.536 8.524 4.008
UPLMET_235 2018-01-17 14:40:00 235 46891.0   10.250 10.380 10.180 10.090   66.620   4.249 0.235 0.681 1.215 4.714 0.443 0.314 0.473 0.607     131.300 0.00 0 1   10.420 10.530 10.350 10.400   4.690 3.9470   9.710 9.870 9.490 9.790   4.001 1.0690 80.10 77.95 20 0                         143.00         12.428 8.276 4.148
UPLMET_235 2018-01-17 14:35:00 235 46891.0   9.630 9.830 9.700 9.450   70.740   4.651 0.235 0.681 1.215 4.714 0.443 0.314 0.473 0.607     131.500 0.00 0 1   9.750 9.950 9.800 9.810   5.383 2.3610   9.450 9.640 9.000 9.570   4.130 1.5930 29.00 52.63 20 0                         141.30         12.034 8.512 3.521
UPLMET_235 2018-01-17 14:30:00 235 46891.0   9.680 9.870 9.830 9.140   73.450   5.319 0.235 0.681 1.215 4.713 0.442 0.314 0.473 0.607     131.500 0.00 0 1   9.930 10.140 9.510 10.050   5.640 1.9420   9.470 9.650 8.890 9.600   4.928 0.6620 42.90 54.85 20 0                         142.30         12.140 8.919 3.223
UPLMET_235 2018-01-17 14:25:00 235 46891.0   9.840 10.060 9.880 9.680   69.820   4.630 0.236 0.681 1.215 4.714 0.442 0.313 0.473 0.607     131.600 0.00 0 1   10.050 10.270 10.080 10.070   5.209 4.6680   9.630 9.830 9.270 9.730   4.177 1.7920 351.20 37.34 20 0                         141.20         12.180 8.500 3.676
UPLMET_235 2018-01-17 14:20:00 235 46891.0   9.840 9.980 9.910 9.410   70.700   4.845 0.237 0.681 1.215 4.714 0.441 0.313 0.473 0.607     131.500 0.00 0 1   10.050 10.150 9.720 10.030   5.269 1.7460   9.640 9.830 9.230 9.750   4.308 0.9220 358.50 38.51 20 0                         141.10         12.205 8.629 3.576
UPLMET_235 2018-01-17 14:15:00 235 46891.0   10.030 10.170 9.990 9.750   67.470   4.252 0.238 0.681 1.215 4.714 0.441 0.313 0.472 0.607     131.400 0.00 0 1   10.080 10.220 9.910 10.030   4.707 2.6990   9.990 10.110 9.510 9.940   4.022 1.5970 12.25 38.00 20 0                         141.00         12.271 8.278 3.992
UPLMET_235 2018-01-17 14:10:00 235 46891.0   10.150 10.290 10.040 9.900   66.470   4.093 0.238 0.682 1.215 4.714 0.440 0.312 0.472 0.607     131.500 0.00 0 1   10.250 10.360 10.040 10.100   4.352 3.8580   10.000 10.160 9.660 9.930   3.952 2.4590 32.62 53.04 20 0                         142.00         12.312 8.186 4.128
UPLMET_235 2018-01-17 14:05:00 235 46891.0   9.970 10.070 9.880 9.670   67.710   4.197 0.239 0.682 1.215 4.714 0.440 0.312 0.472 0.607     131.400 0.00 0 1   10.020 10.140 9.760 9.930   4.381 2.7890   9.900 10.000 9.560 9.840   4.038 1.7150 343.40 39.25 20 0                         142.30         12.180 8.246 3.933
UPLMET_235 2018-01-17 14:00:00 235 46891.0   9.950 10.070 9.890 9.620   67.500   4.163 0.239 0.682 1.215 4.714 0.439 0.311 0.472 0.607     131.400 0.00 0 1   10.010 10.120 9.760 9.920   4.380 3.0830   9.870 10.000 9.460 9.840   3.995 1.6320 351.60 62.27 20 0                         142.40         12.189 8.226 3.961
UPLMET_235 2018-01-17 13:55:00 235 46891.0   9.910 10.010 9.810 9.610   67.520   4.087 0.239 0.682 1.215 4.714 0.438 0.311 0.472 0.607     131.400 0.00 0 1   9.980 10.090 9.720 9.850   4.325 3.4920   9.790 9.910 9.370 9.750   3.905 1.7340 17.76 69.41 20 0                         141.90         12.123 8.182 3.938
UPLMET_235 2018-01-17 13:50:00 235 46891.0   9.940 10.070 9.930 9.490   67.810   4.269 0.240 0.682 1.215 4.714 0.438 0.311 0.472 0.607     131.500 0.00 0 1   10.060 10.180 9.670 10.020   4.764 2.7170   9.760 9.900 9.210 9.780   4.000 1.4510 36.10 37.55 20 0                         142.20         12.221 8.287 3.934
UPLMET_235 2018-01-17 13:45:00 235 46891.0   10.080 10.230 10.040 9.730   66.610   4.122 0.240 0.683 1.215 4.714 0.437 0.310 0.472 0.607     131.500 0.00 0 1   10.180 10.290 9.910 10.090   4.632 3.0650   9.970 10.180 9.510 10.010   3.946 1.5590 0.44 61.28 20 0                         142.90         12.312 8.202 4.111
UPLMET_235 2018-01-17 13:40:00 235 46891.0   10.230 10.350 10.130 9.960   65.890   4.049 0.241 0.683 1.215 4.714 0.437 0.310 0.472 0.607     131.400 0.00 0 1   10.310 10.410 10.100 10.200   4.553 2.3070   10.040 10.240 9.600 10.010   3.814 1.2040 353.00 60.89 20 0                         142.50         12.386 8.160 4.225
UPLMET_235 2018-01-17 13:35:00 235 46891.0   10.090 10.170 9.980 9.670   66.580   4.056 0.242 0.683 1.215 4.715 0.436 0.309 0.472 0.607     131.500 0.00 0 1   10.140 10.240 9.880 10.000   4.272 3.8580   10.020 10.140 9.560 9.970   3.834 1.5250 3.22 40.01 20 0                         143.40         12.262 8.164 4.098
UPLMET_235 2018-01-17 13:30:00 235 46891.0   10.080 10.160 9.960 9.730   66.330   3.981 0.242 0.683 1.215 4.715 0.435 0.309 0.471 0.607     131.500 0.00 0 1   10.100 10.180 9.770 9.980   4.246 2.9310   10.050 10.130 9.620 9.920   3.892 1.5220 301.90 38.50 20 0                         144.10         12.246 8.121 4.123
UPLMET_235 2018-01-17 13:25:00 235 46891.0   10.020 10.090 9.900 9.610   66.660   3.999 0.243 0.684 1.215 4.715 0.435 0.309 0.471 0.607     131.500 0.00 0 1   10.060 10.130 9.720 9.930   4.261 3.1360   9.960 10.070 9.530 9.870   3.858 1.4360 336.50 46.38 20 0                         144.30         12.197 8.132 4.066
UPLMET_235 2018-01-17 13:20:00 235 46891.0   10.090 10.180 10.020 9.620   66.590   4.094 0.243 0.684 1.215 4.715 0.434 0.308 0.471 0.607     131.500 0.00 0 1   10.200 10.300 9.670 10.130   4.556 2.8870   9.990 10.070 9.550 9.920   3.902 1.7340 14.90 25.51 20 0                         144.40         12.295 8.186 4.108
UPLMET_235 2018-01-17 13:15:00 235 46891.0   10.230 10.300 10.120 9.790   66.620   4.195 0.244 0.684 1.215 4.715 0.434 0.308 0.471 0.607     131.400 0.00 0 1   10.300 10.360 9.980 10.160   4.547 2.9400   10.180 10.270 9.570 10.090   3.877 1.4330 348.60 48.69 20 0                         144.80         12.378 8.244 4.132
UPLMET_235 2018-01-17 13:10:00 235 46891.0   10.220 10.270 10.150 9.710   66.010   4.091 0.244 0.684 1.215 4.715 0.433 0.308 0.471 0.607     131.500 0.00 0 1   10.360 10.390 9.880 10.300   4.456 3.8930   10.140 10.210 9.590 10.050   3.837 1.7930 56.58 54.31 20 0                         145.40         12.403 8.184 4.216
UPLMET_235 2018-01-17 13:05:00 235 46891.0   10.780 10.810 10.610 10.140   64.550   4.211 0.244 0.684 1.215 4.714 0.432 0.307 0.471 0.607     131.500 0.00 0 1   11.060 11.080 10.350 10.750   4.402 3.0020   10.380 10.400 9.860 10.330   3.978 1.7880 303.30 33.92 20 0                         146.50         12.790 8.254 4.534
UPLMET_235 2018-01-17 13:00:00 235 46891.0   10.850 10.900 10.610 10.140   64.340   4.163 0.245 0.684 1.215 4.715 0.432 0.307 0.471 0.607     131.400 0.00 0 1   10.960 10.990 10.240 10.660   4.380 3.1810   10.760 10.810 10.110 10.560   4.028 1.2130 314.40 54.21 20 0                         147.20         12.790 8.226 4.561
UPLMET_235 2018-01-17 12:55:00 235 46891.0   10.770 10.990 10.570 10.030   65.000   4.276 0.245 0.684 1.214 4.715 0.431 0.307 0.471 0.607     131.500 0.00 0 1   10.870 11.140 10.100 10.640   4.704 2.2630   10.590 10.800 9.950 10.440   4.065 1.1950 36.00 58.59 20 0                         147.30         12.756 8.292 4.464
UPLMET_235 2018-01-17 12:50:00 235 46891.0   10.430 10.630 10.290 9.840   65.450   4.103 0.245 0.685 1.214 4.715 0.431 0.307 0.471 0.607     131.500 0.00 0 1   10.550 10.750 9.920 10.410   4.395 2.8690   10.350 10.590 9.740 10.220   3.950 1.4840 357.60 25.35 20 0                         147.30         12.519 8.191 4.325
UPLMET_235 2018-01-17 12:45:00 235 46891.0   10.380 10.420 10.190 9.710   66.210   4.179 0.245 0.685 1.214 4.715 0.430 0.307 0.471 0.607     131.500 0.00 0 1   10.570 10.630 9.880 10.320   4.448 3.3410   10.230 10.260 9.440 10.110   4.037 1.7210 40.06 39.71 20 0                         147.30         12.436 8.235 4.202
UPLMET_235 2018-01-17 12:40:00 235 46891.0   10.280 10.310 10.110 9.520   66.850   4.239 0.245 0.685 1.214 4.715 0.430 0.306 0.471 0.607     131.400 0.00 0 1   10.370 10.420 9.640 10.150   4.718 2.8420   10.200 10.240 9.410 10.070   3.916 1.6600 51.04 41.63 20 0                         147.40         12.370 8.270 4.100
UPLMET_235 2018-01-17 12:35:00 235 46891.0   10.200 10.270 10.010 9.480   66.040   3.971 0.245 0.685 1.214 4.715 0.429 0.306 0.471 0.607     131.600 0.00 0 1   10.320 10.400 9.600 10.140   4.035 3.2430   10.030 10.080 9.330 9.840   3.912 1.2450 83.60 89.20 20 0                         147.50         12.287 8.116 4.173
UPLMET_235 2018-01-17 12:30:00 235 46891.0   10.030 10.070 9.870 9.390   66.830   4.004 0.245 0.684 1.213 4.715 0.429 0.306 0.471 0.607     131.700 0.00 0 1   10.090 10.160 9.470 9.950   4.509 2.4140   9.960 9.990 9.340 9.780   3.856 1.3540 63.86 65.38 20 0                         147.40         12.172 8.134 4.038
UPLMET_235 2018-01-17 12:25:00 235 46891.0   10.040 10.060 9.770 9.370   66.840   3.907 0.245 0.683 1.213 4.715 0.429 0.306 0.471 0.608     131.600 0.00 0 1   10.100 10.180 9.450 9.890   4.252 4.5970   9.920 9.930 9.170 9.650   3.776 1.7860 108.40 78.24 20 0                         147.50         12.091 8.079 4.009
UPLMET_235 2018-01-17 12:20:00 235 46891.0   9.820 9.830 9.630 9.130   68.420   4.110 0.246 0.684 1.213 4.715 0.428 0.305 0.470 0.608     131.600 0.00 0 1   9.940 9.990 9.270 9.760   4.596 3.1980   9.650 9.660 9.020 9.430   3.816 1.6850 76.50 54.57 20 0                         147.60         11.978 8.195 3.783
UPLMET_235 2018-01-17 12:15:00 235 46891.0   9.510 9.560 9.320 9.010   68.300   3.789 0.246 0.684 1.213 4.715 0.428 0.305 0.470 0.608     131.500 0.00 0 1   9.640 9.640 9.060 9.420   3.898 2.4860   9.410 9.520 8.940 9.270   3.617 1.2470 195.60 43.28 20 0                         147.40         11.730 8.012 3.719
UPLMET_235 2018-01-17 12:10:00 235 46891.0   9.470 9.550 9.370 9.020   68.450   3.864 0.246 0.684 1.213 4.715 0.427 0.305 0.470 0.608     131.700 0.00 0 1   9.520 9.610 9.120 9.410   4.166 2.6640   9.400 9.510 8.910 9.310   3.717 1.1960 28.61 64.33 20 0                         145.60         11.770 8.055 3.713
UPLMET_235 2018-01-17 12:05:00 235 46891.0   9.460 9.550 9.340 8.980   68.580   3.867 0.246 0.684 1.212 4.715 0.427 0.305 0.470 0.608     131.600 0.00 0 1   9.530 9.620 9.100 9.420   4.319 2.1830   9.390 9.470 8.720 9.300   3.646 1.0550 36.44 77.36 20 0                         144.60         11.746 8.056 3.691
UPLMET_235 2018-01-17 12:00:00 235 46891.0   9.490 9.610 9.360 8.990   68.130   3.791 0.246 0.684 1.212 4.715 0.427 0.305 0.470 0.608     131.500 0.00 0 1   9.520 9.660 9.030 9.400   3.947 2.0050   9.450 9.550 8.950 9.310   3.695 1.0650 2.02 45.11 20 0                         146.10         11.762 8.013 3.749
UPLMET_235 2018-01-17 11:55:00 235 46891.0   9.330 9.410 9.170 8.900   68.550   3.694 0.246 0.684 1.212 4.714 0.426 0.304 0.470 0.608     131.600 0.00 0 1   9.450 9.550 8.950 9.310   3.777 1.4080   9.170 9.240 8.820 9.000   3.558 0.6710 22.82 83.10 20 0                         145.90         11.612 7.959 3.652
UPLMET_235 2018-01-17 11:50:00 235 46891.0   9.040 9.120 8.930 8.650   69.730   3.712 0.246 0.684 1.212 4.715 0.426 0.304 0.470 0.608     131.500 0.00 0 1   9.150 9.220 8.800 8.980   3.932 2.4770   8.990 9.080 8.570 8.910   3.541 1.2420 51.24 92.00 20 0                         144.90         11.426 7.969 3.459
UPLMET_235 2018-01-17 11:45:00 235 46891.0   9.060 9.130 8.950 8.750   69.280   3.632 0.246 0.684 1.212 4.715 0.426 0.304 0.470 0.608     131.700 0.00 0 1   9.120 9.180 8.880 8.990   3.839 5.1760   8.990 9.050 8.630 8.890   3.476 1.5970 44.98 56.50 20 0                         142.80         11.441 7.924 3.515
UPLMET_235 2018-01-17 11:40:00 235 46891.0   8.960 9.030 8.870 8.640   69.240   3.546 0.246 0.684 1.212 4.715 0.426 0.304 0.470 0.608     131.500 0.00 0 1   9.070 9.150 8.870 8.940   3.645 2.2360   8.890 8.970 8.520 8.820   3.466 0.7780 266.60 56.64 20 0                         141.50         11.379 7.876 3.500
UPLMET_235 2018-01-17 11:35:00 235 46891.0   8.950 9.010 8.850 8.610   69.320   3.543 0.246 0.684 1.212 4.715 0.425 0.304 0.470 0.608     131.600 0.00 0 1   8.990 9.080 8.670 8.890   3.703 3.4660   8.900 8.960 8.530 8.810   3.449 1.7310 50.20 90.10 20 0                         140.20         11.364 7.874 3.486
UPLMET_235 2018-01-17 11:30:00 235 46891.0   9.010 9.120 8.930 8.590   69.540   3.673 0.246 0.683 1.212 4.715 0.425 0.304 0.470 0.608     131.600 0.00 0 1   9.090 9.180 8.710 8.980   4.075 3.0830   8.900 9.040 8.420 8.870   3.405 0.9860 40.70 63.33 20 0                         140.20         11.426 7.947 3.480
UPLMET_235 2018-01-17 11:25:00 235 46891.0   9.140 9.250 9.060 8.690   68.240   3.521 0.246 0.683 1.212 4.715 0.425 0.304 0.470 0.608     131.600 0.00 0 1   9.200 9.300 8.740 9.110   3.686 2.6550   9.070 9.170 8.640 8.970   3.407 1.0480 10.24 64.31 20 0                         141.50         11.526 7.862 3.661
UPLMET_235 2018-01-17 11:20:00 235 46891.0   9.210 9.290 9.080 8.730   67.920   3.474 0.246 0.683 1.212 4.715 0.425 0.304 0.470 0.608     131.500 0.00 0 1   9.240 9.340 8.800 9.120   3.587 1.7020   9.160 9.230 8.650 9.010   3.406 0.6950 57.85 54.34 20 0                         141.90         11.542 7.836 3.703
UPLMET_235 2018-01-17 11:15:00 235 46891.0   9.100 9.150 8.930 8.720   67.980   3.348 0.245 0.683 1.212 4.715 0.425 0.304 0.470 0.608     131.600 0.00 0 1   9.170 9.220 8.810 9.020   3.499 3.0740   9.030 9.080 8.580 8.870   3.226 1.2770 145.70 68.47 20 0                         141.00         11.426 7.767 3.658
UPLMET_235 2018-01-17 11:10:00 235 46891.0   9.070 9.120 8.920 8.640   68.010   3.347 0.245 0.683 1.211 4.715 0.425 0.303 0.470 0.608     131.500 0.00 0 1   9.090 9.140 8.660 8.950   3.646 2.9310   9.040 9.090 8.610 8.880   3.209 1.5500 155.00 70.71 20 0                         140.80         11.418 7.766 3.653
UPLMET_235 2018-01-17 11:05:00 235 46891.0   9.030 9.090 8.870 8.650   67.780   3.247 0.245 0.683 1.211 4.715 0.425 0.303 0.470 0.608     131.500 0.00 0 1   9.080 9.150 8.670 8.940   3.320 2.6640   9.020 9.070 8.630 8.820   3.138 1.3570 92.50 84.50 20 0                         139.60         11.379 7.711 3.666
UPLMET_235 2018-01-17 11:00:00 235 46891.0   8.890 8.950 8.710 8.540   67.880   3.112 0.245 0.683 1.211 4.715 0.425 0.303 0.470 0.608     131.600 0.00 0 1   9.010 9.080 8.620 8.850   3.198 3.0560   8.740 8.830 8.380 8.600   3.055 1.3060 144.30 69.50 20 0                         139.60         11.257 7.638 3.616
UPLMET_235 2018-01-17 10:55:00 235 46891.0   8.660 8.750 8.570 8.240   69.430   3.304 0.245 0.683 1.211 4.715 0.425 0.303 0.470 0.609     131.500 0.00 0 1   8.720 8.820 8.340 8.630   3.519 2.5930   8.610 8.690 8.140 8.530   3.057 1.1890 22.73 60.92 20 0                         139.00         11.151 7.742 3.409
UPLMET_235 2018-01-17 10:50:00 235 46891.0   8.640 8.670 8.490 8.200   69.400   3.217 0.245 0.682 1.210 4.715 0.424 0.303 0.470 0.609     131.600 0.00 0 1   8.690 8.710 8.320 8.530   3.512 2.1030   8.590 8.620 8.100 8.430   2.955 1.2620 298.30 69.84 20 0                         138.60         11.090 7.695 3.394
UPLMET_235 2018-01-17 10:45:00 235 46891.0   8.550 8.590 8.390 8.200   68.730   2.987 0.245 0.682 1.210 4.715 0.424 0.303 0.470 0.609     131.700 0.00 0 1   8.580 8.620 8.220 8.430   3.115 3.8490   8.520 8.560 8.150 8.350   2.878 1.7480 120.40 66.77 20 0                         138.10         11.015 7.570 3.444
UPLMET_235 2018-01-17 10:40:00 235 46891.0   8.520 8.560 8.350 8.170   68.770   2.955 0.244 0.683 1.211 4.716 0.424 0.303 0.470 0.609     131.500 0.00 0 1   8.550 8.590 8.220 8.370   3.036 3.6260   8.500 8.540 8.140 8.330   2.859 1.5280 172.70 43.87 20 0                         137.70         10.985 7.553 3.431
UPLMET_235 2018-01-17 10:35:00 235 46891.0   8.550 8.600 8.410 8.190   68.200   2.892 0.245 0.683 1.211 4.715 0.424 0.303 0.470 0.609     131.500 0.00 0 1   8.590 8.640 8.260 8.440   3.102 3.9730   8.510 8.550 8.140 8.350   2.757 2.0510 155.20 42.43 20 0                         137.50         11.030 7.519 3.508
UPLMET_235 2018-01-17 10:30:00 235 46891.0   8.510 8.560 8.370 8.090   68.570   2.928 0.245 0.683 1.210 4.715 0.424 0.303 0.470 0.609     131.500 0.00 0 1   8.550 8.600 8.180 8.420   3.230 2.8240   8.490 8.520 8.020 8.310   2.789 1.2000 142.70 61.70 20 0                         137.30         11.000 7.539 3.457
UPLMET_235 2018-01-17 10:25:00 235 46891.0   8.490 8.540 8.350 8.070   68.310   2.857 0.244 0.683 1.210 4.715 0.424 0.303 0.470 0.609     131.700 0.10 0 1   8.510 8.550 8.110 8.370   2.996 2.2810   8.470 8.520 8.000 8.320   2.732 1.0920 156.30 43.92 20 0                         137.10         10.985 7.501 3.481
UPLMET_235 2018-01-17 10:20:00 235 46891.0   8.480 8.530 8.310 8.060   68.370   2.832 0.244 0.682 1.210 4.715 0.424 0.303 0.470 0.609     131.500 0.00 0 1   8.490 8.550 8.100 8.330   3.070 2.5930   8.450 8.500 7.991 8.290   2.681 1.1960 161.30 43.32 20 0                         136.90         10.956 7.487 3.465
UPLMET_235 2018-01-17 10:15:00 235 46891.0   8.410 8.480 8.260 7.996   68.470   2.810 0.243 0.682 1.209 4.715 0.424 0.303 0.471 0.609     131.600 0.00 0 1   8.490 8.550 8.110 8.340   3.087 2.1830   8.360 8.410 7.871 8.190   2.680 1.1450 139.30 62.11 20 0                         136.50         10.918 7.476 3.443
UPLMET_235 2018-01-17 10:10:00 235 46891.0   8.360 8.410 8.200 7.927   68.400   2.739 0.243 0.682 1.210 4.715 0.424 0.303 0.471 0.609     131.600 0.00 0 1   8.420 8.460 7.995 8.260   2.927 3.5100   8.330 8.370 7.844 8.150   2.627 1.6580 149.70 43.92 20 0                         136.10         10.874 7.438 3.436
UPLMET_235 2018-01-17 10:05:00 235 46891.0   8.260 8.320 8.120 7.828   68.560   2.690 0.243 0.682 1.209 4.715 0.424 0.303 0.471 0.609     131.400 0.00 0 1   8.320 8.400 7.935 8.200   2.896 2.0400   8.230 8.280 7.769 8.080   2.615 0.9140 304.90 75.41 20 0                         135.50         10.815 7.412 3.400
UPLMET_235 2018-01-17 10:00:00 235 46891.0   8.220 8.300 8.080 7.811   68.370   2.617 0.243 0.681 1.210 4.715 0.424 0.303 0.471 0.609     131.500 0.00 0 1   8.300 8.370 7.845 8.110   2.759 2.5570   8.140 8.210 7.774 8.020   2.559 1.5980 276.10 88.40 20 0                         135.20         10.786 7.374 3.411
UPLMET_235 2018-01-17 09:55:00 235 46891.0   8.180 8.230 8.050 7.782   68.210   2.552 0.243 0.681 1.209 4.715 0.424 0.303 0.471 0.609     131.600 0.00 0 1   8.200 8.250 7.839 8.080   2.628 3.1270   8.140 8.220 7.710 8.010   2.454 1.3690 301.10 76.90 20 0                         134.40         10.764 7.340 3.422
UPLMET_235 2018-01-17 09:50:00 235 46891.0   8.130 8.200 8.010 7.778   68.510   2.577 0.242 0.681 1.209 4.715 0.424 0.303 0.471 0.609     131.600 0.00 0 1   8.160 8.230 7.818 8.040   2.757 3.5460   8.110 8.180 7.749 7.985   2.471 1.5670 297.00 49.83 20 0                         133.90         10.734 7.353 3.380
UPLMET_235 2018-01-17 09:45:00 235 46891.0   8.120 8.210 7.978 7.749   68.200   2.483 0.242 0.681 1.209 4.715 0.424 0.303 0.471 0.609     131.600 0.00 0 1   8.170 8.240 7.811 8.050   2.654 2.6820   8.030 8.160 7.622 7.893   2.398 1.4560 280.90 50.62 20 0                         133.50         10.711 7.304 3.406
UPLMET_235 2018-01-17 09:40:00 235 46891.0   8.020 8.130 7.921 7.590   68.520   2.494 0.242 0.681 1.209 4.715 0.424 0.303 0.471 0.609     131.600 0.00 0 1   8.100 8.210 7.676 8.010   2.782 2.6100   7.921 8.070 7.415 7.851   2.314 1.2630 20.24 69.97 20 0                         132.90         10.669 7.309 3.359
UPLMET_235 2018-01-17 09:35:00 235 46891.0   7.950 8.020 7.812 7.577   68.490   2.383 0.241 0.681 1.209 4.715 0.424 0.303 0.471 0.609     131.600 0.00 0 1   8.010 8.070 7.675 7.861   2.557 3.4480   7.902 7.964 7.503 7.759   2.263 1.4640 300.90 71.37 20 0                         132.20         10.590 7.252 3.337
UPLMET_235 2018-01-17 09:30:00 235 46891.0   7.770 7.867 7.704 7.420   69.080   2.400 0.241 0.681 1.208 4.715 0.424 0.303 0.471 0.609     131.500 0.00 0 1   7.898 7.975 7.556 7.779   2.666 3.2430   7.668 7.775 7.206 7.607   2.252 1.4010 358.80 78.30 20 0                         131.60         10.513 7.261 3.251
UPLMET_235 2018-01-17 09:25:00 235 46891.0   7.619 7.734 7.638 7.286   70.000   2.521 0.241 0.680 1.208 4.715 0.424 0.303 0.471 0.609     131.500 0.00 0 1   7.736 7.824 7.413 7.720   3.040 3.2520   7.486 7.643 7.095 7.561   2.301 1.3420 294.30 48.04 20 0                         130.90         10.465 7.324 3.140
UPLMET_235 2018-01-17 09:20:00 235 46891.0   7.824 7.898 7.757 7.551   68.170   2.265 0.240 0.680 1.208 4.715 0.424 0.303 0.471 0.609     131.500 0.00 0 1   7.883 7.937 7.596 7.813   2.499 2.8600   7.772 7.842 7.449 7.727   2.181 1.6910 312.40 47.98 20 0                         130.50         10.551 7.191 3.358
UPLMET_235 2018-01-17 09:15:00 235 46891.0   7.890 7.957 7.796 7.628   67.660   2.196 0.240 0.681 1.208 4.715 0.424 0.303 0.471 0.609     131.500 0.00 0 1   7.920 7.981 7.669 7.820   2.381 3.1090   7.793 7.875 7.515 7.757   2.108 1.0980 324.70 50.68 20 0                         130.30         10.579 7.156 3.421
UPLMET_235 2018-01-17 09:10:00 235 46891.0   7.747 7.830 7.636 7.474   68.340   2.183 0.240 0.680 1.208 4.715 0.424 0.303 0.471 0.609     131.500 0.00 0 1   7.891 7.954 7.809 7.754   2.472 2.1830   7.622 7.701 7.030 7.563   2.034 1.0090 268.50 80.30 20 0                         130.10         10.464 7.149 3.313
UPLMET_235 2018-01-17 09:05:00 235 46891.0   7.560 7.664 7.512 7.376   68.920   2.183 0.240 0.680 1.207 4.715 0.424 0.303 0.471 0.609     131.600 0.00 0 1   7.713 7.791 7.541 7.609   2.475 3.0290   7.310 7.496 7.029 7.434   2.082 1.2570 278.50 79.85 20 0                         129.80         10.376 7.149 3.225
UPLMET_235 2018-01-17 09:00:00 235 46891.0   7.309 7.410 7.316 6.992   70.580   2.328 0.239 0.680 1.207 4.715 0.424 0.303 0.471 0.609     131.500 0.00 0 1   7.475 7.575 7.277 7.449   2.782 3.0200   7.166 7.301 6.696 7.237   2.076 1.2450 326.70 58.53 20 0                         129.50         10.237 7.223 3.012
UPLMET_235 2018-01-17 08:55:00 235 46891.0   7.523 7.634 7.443 7.292   69.280   2.191 0.239 0.680 1.207 4.716 0.424 0.304 0.471 0.609     131.500 0.00 0 1   7.594 7.688 7.420 7.478   2.474 2.0050   7.443 7.546 6.997 7.373   2.023 1.3620 267.10 66.26 20 0                         129.20         10.327 7.153 3.172
UPLMET_235 2018-01-17 08:50:00 235 46891.0   7.349 7.479 7.242 7.209   69.620   2.066 0.239 0.680 1.207 4.715 0.424 0.304 0.471 0.609     131.500 0.00 0 1   7.466 7.576 7.319 7.373   2.168 3.4210   7.114 7.226 7.002 7.045   1.973 1.5340 320.10 70.36 20 0                         128.90         10.186 7.090 3.094
UPLMET_235 2018-01-17 08:45:00 235 46891.0   6.827 6.970 6.892 6.644   71.830   2.165 0.238 0.679 1.207 4.715 0.424 0.304 0.471 0.609     131.500 0.00 0 1   7.140 7.250 7.097 7.042   2.383 3.5900   6.620 6.794 6.403 6.795   1.953 1.3700 306.70 57.89 20 0                         128.70         9.944 7.140 2.801
UPLMET_235 2018-01-17 08:40:00 235 46891.0   6.788 6.947 6.850 6.689   71.360   2.034 0.238 0.679 1.207 4.715 0.424 0.304 0.471 0.609     131.500 0.00 0 1   7.034 7.138 7.087 6.980   2.241 2.0670   6.583 6.801 6.413 6.761   1.881 0.8340 319.90 84.10 20 0                         128.50         9.915 7.073 2.840
UPLMET_235 2018-01-17 08:35:00 235 46891.0   6.477 6.692 6.618 6.492   72.520   2.037 0.238 0.679 1.207 4.715 0.424 0.304 0.471 0.609     131.500 0.00 0 1   6.732 6.963 6.863 6.824   2.450 1.4170   6.099 6.332 5.733 6.431   1.885 0.9550 257.70 85.80 20 0                         128.40         9.758 7.075 2.682
UPLMET_235 2018-01-17 08:30:00 235 46891.0   6.559 6.791 6.773 6.401   72.550   2.192 0.237 0.679 1.206 4.715 0.424 0.304 0.471 0.609     131.500 0.00 0 1   6.734 6.930 6.682 6.848   2.512 2.1560   6.227 6.466 5.853 6.620   1.962 1.4130 308.20 43.22 20 0                         128.40         9.863 7.154 2.707
UPLMET_235 2018-01-17 08:25:00 235 46891.0   6.817 6.966 6.711 6.592   71.730   1.973 0.237 0.679 1.206 4.715 0.424 0.304 0.471 0.609     131.500 0.00 0 1   7.198 7.304 7.010 6.947   2.149 3.4920   6.418 6.579 6.202 6.448   1.823 1.6610 297.90 32.76 20 0                         128.30         9.821 7.043 2.776
UPLMET_235 2018-01-17 08:20:00 235 46891.0   6.484 6.650 6.529 6.452   72.810   2.007 0.237 0.679 1.206 4.715 0.424 0.304 0.471 0.609     131.500 0.00 0 1   6.627 6.778 6.823 6.646   2.373 3.5550   6.301 6.440 5.999 6.326   1.813 1.5660 315.50 76.24 20 0                         128.30         9.699 7.060 2.637
UPLMET_235 2018-01-17 08:15:00 235 46891.0   6.343 6.483 6.438 6.206   73.560   2.063 0.237 0.678 1.206 4.715 0.424 0.304 0.472 0.609     131.500 0.00 0 1   6.575 6.694 6.532 6.560   2.275 2.1560   6.132 6.290 5.914 6.296   1.929 1.0290 331.70 59.74 20 0                         128.20         9.638 7.088 2.548
UPLMET_235 2018-01-17 08:10:00 235 46891.0   6.418 6.558 6.415 6.284   73.280   1.987 0.236 0.678 1.206 4.714 0.424 0.304 0.472 0.609     131.500 0.00 0 1   6.606 6.698 6.615 6.537   2.242 2.7710   6.161 6.357 5.948 6.296   1.885 1.2060 104.90 83.00 20 0                         128.20         9.623 7.050 2.571
UPLMET_235 2018-01-17 08:05:00 235 46891.0   6.311 6.445 6.263 6.314   74.050   1.986 0.236 0.678 1.205 4.715 0.424 0.304 0.472 0.609     131.600 0.00 0 1   6.575 6.678 6.444 6.448   2.055 4.9180   6.002 6.162 6.073 6.022   1.913 1.5920 155.00 53.97 20 0                         128.20         9.522 7.049 2.471
UPLMET_235 2018-01-17 08:00:00 235 46891.0   5.497 5.686 5.739 5.338   77.920   2.191 0.236 0.678 1.206 4.715 0.424 0.304 0.472 0.609     131.500 0.00 0 1   5.951 6.120 5.975 5.988   2.527 2.1740   5.304 5.514 4.957 5.612   1.934 0.9300 276.80 67.64 20 0                         128.10         9.183 7.153 2.028
UPLMET_235 2018-01-17 07:55:00 235 46891.0   5.823 6.051 6.085 5.734   75.870   2.155 0.235 0.678 1.205 4.715 0.424 0.304 0.472 0.609     131.400 0.00 0 1   5.895 6.135 5.890 6.154   2.259 1.7190   5.712 5.885 5.513 5.955   2.075 0.7760 208.90 63.93 20 0                         128.10         9.406 7.135 2.270
UPLMET_235 2018-01-17 07:50:00 235 46891.0   5.972 6.266 6.293 6.091   74.690   2.136 0.235 0.678 1.205 4.715 0.424 0.304 0.472 0.609     131.500 0.00 0 1   6.057 6.333 6.314 6.352   2.224 1.6570   5.880 6.137 5.721 6.157   2.051 0.6390 194.10 79.70 20 0                         128.10         9.542 7.125 2.415
UPLMET_235 2018-01-17 07:45:00 235 46891.0   5.926 6.281 6.331 6.161   74.410   2.122 0.235 0.677 1.205 4.714 0.424 0.304 0.472 0.609     131.400 0.00 0 1   6.031 6.338 6.368 6.369   2.318 1.8170   5.822 6.187 5.926 6.296   1.998 0.5310 284.10 65.18 20 0                         128.10         9.567 7.118 2.448
UPLMET_235 2018-01-17 07:40:00 235 46891.0   5.892 6.269 6.237 6.068   75.690   2.269 0.235 0.677 1.205 4.714 0.424 0.304 0.472 0.609     131.500 0.00 0 1   6.027 6.365 6.466 6.345   2.497 2.4500   5.692 6.160 5.729 6.167   2.074 0.9560 240.30 71.43 20 0                         128.10         9.505 7.193 2.311
UPLMET_235 2018-01-17 07:35:00 235 46891.0   6.029 6.432 6.278 6.341   75.840   2.334 0.234 0.678 1.205 4.714 0.424 0.304 0.472 0.609     131.500 0.00 0 1   6.451 6.791 7.025 6.498   2.643 1.7730   5.670 6.148 5.800 6.111   2.066 0.5910 217.60 63.72 20 0                         128.10         9.532 7.227 2.303
UPLMET_235 2018-01-17 07:30:00 235 46891.0   5.478 5.957 5.989 5.738   77.500   2.360 0.234 0.677 1.204 4.714 0.424 0.304 0.472 0.609     131.500 0.00 0 1   5.727 6.195 6.105 6.164   2.540 2.1650   5.285 5.714 5.304 5.843   2.115 0.7180 234.80 66.08 20 0                         128.20         9.343 7.240 2.102
UPLMET_235 2018-01-17 07:25:00 235 46891.0   5.404 6.026 6.068 5.786   76.780   2.305 0.233 0.677 1.205 4.714 0.424 0.304 0.472 0.609     131.400 0.00 0 1   5.557 6.248 6.240 6.246   2.567 2.2270   5.227 5.850 5.391 5.962   2.052 1.1690 306.30 61.93 20 0                         128.20         9.395 7.212 2.181
UPLMET_235 2018-01-17 07:20:00 235 46891.0   5.138 5.598 5.685 5.299   78.850   2.305 0.233 0.677 1.204 4.714 0.424 0.304 0.472 0.609     131.500 0.00 0 1   5.419 6.061 5.960 5.929   2.461 2.7620   4.981 5.418 4.729 5.611   2.075 1.4120 251.30 62.77 20 0                         128.20         9.149 7.212 1.935
UPLMET_235 2018-01-17 07:15:00 235 46891.0   5.349 5.833 5.985 5.520   76.900   2.247 0.233 0.677 1.204 4.714 0.424 0.304 0.472 0.609     131.500 0.00 0 1   5.500 5.965 5.824 6.041   2.468 1.2030   5.053 5.504 4.770 5.787   2.179 0.8130 311.10 19.38 20 0                         128.20         9.341 7.182 2.158
UPLMET_235 2018-01-17 07:10:00 235 46891.0   5.312 5.757 5.662 5.820   77.660   2.070 0.233 0.677 1.204 4.714 0.424 0.304 0.472 0.609     131.400 0.00 0 1   5.421 5.990 6.004 5.998   2.165 1.3270   4.911 5.268 5.414 5.225   1.907 0.8720 320.10 13.09 20 0                         128.20         9.134 7.092 2.041
UPLMET_235 2018-01-17 07:05:00 235 46891.0   4.692 5.044 5.153 4.859   81.300   2.215 0.233 0.676 1.204 4.714 0.424 0.304 0.472 0.609     131.600 0.00 0 1   4.881 5.222 5.280 5.288   2.341 2.0850   4.554 4.898 4.622 5.073   2.128 0.9390 261.60 48.20 20 0                         128.20         8.816 7.165 1.649
UPLMET_235 2018-01-17 07:00:00 235 46891.0   5.004 5.333 5.511 4.938   79.220   2.201 0.233 0.677 1.204 4.714 0.424 0.304 0.472 0.609     131.500 0.00 0 1   5.336 5.688 5.485 5.830   2.377 1.1580   4.780 5.088 4.664 5.261   1.964 0.4420 227.00 40.47 20 0                         128.20         9.039 7.158 1.878
UPLMET_235 2018-01-17 06:55:00 235 46891.0   5.567 5.919 6.068 5.484   75.800   2.124 0.233 0.677 1.204 4.714 0.424 0.304 0.472 0.609     131.400 0.00 0 1   5.894 6.284 5.912 6.382   2.268 2.2720   5.329 5.662 5.252 5.843   2.042 0.9470 239.30 46.68 20 0                         128.20         9.395 7.119 2.274
UPLMET_235 2018-01-17 06:50:00 235 46891.0   5.919 6.422 6.467 6.394   72.120   1.815 0.232 0.676 1.204 4.714 0.424 0.304 0.472 0.609     131.500 0.00 0 1   6.184 6.633 6.925 6.620   2.159 1.2560   5.713 6.230 5.843 6.372   1.642 0.6260 250.60 47.96 20 0                         128.20         9.657 6.963 2.692
UPLMET_235 2018-01-17 06:45:00 235 46891.0   5.779 6.291 6.310 6.119   72.520   1.741 0.232 0.676 1.204 4.714 0.424 0.304 0.472 0.609     131.500 0.00 0 1   5.887 6.376 6.344 6.405   1.916 1.2830   5.638 6.174 5.849 6.134   1.613 0.5590 274.40 12.62 20 0                         128.20         9.553 6.926 2.625
UPLMET_235 2018-01-17 06:40:00 235 46891.0   5.707 6.173 6.181 5.937   73.850   1.870 0.231 0.676 1.204 4.714 0.424 0.304 0.472 0.609     131.400 0.00 0 1   5.819 6.283 6.139 6.253   2.192 1.2740   5.581 6.000 5.680 6.074   1.713 0.7100 250.90 37.95 20 0                         128.20         9.468 6.991 2.476
UPLMET_235 2018-01-17 06:35:00 235 46891.0   5.439 6.029 5.969 6.133   73.800   1.655 0.231 0.676 1.203 4.714 0.424 0.304 0.472 0.609     131.500 0.00 0 1   5.682 6.306 6.727 6.206   1.813 2.0490   5.232 5.738 5.851 5.694   1.522 0.4120 300.90 18.40 20 0                         128.20         9.331 6.884 2.445
UPLMET_235 2018-01-17 06:30:00 235 46891.0   4.997 5.377 5.450 5.245   76.630   1.679 0.231 0.675 1.203 4.714 0.424 0.304 0.473 0.609     131.600 0.00 0 1   5.217 5.702 5.821 5.655   1.785 1.2560   4.790 5.167 4.839 5.327   1.589 0.8130 277.30 25.63 20 0                         128.20         9.000 6.896 2.103
UPLMET_235 2018-01-17 06:25:00 235 46891.0   4.974 5.369 5.495 5.150   77.230   1.829 0.231 0.676 1.203 4.714 0.424 0.304 0.473 0.609     131.500 0.00 0 1   5.177 5.580 5.835 5.638   2.208 1.9150   4.764 5.193 4.722 5.367   1.449 0.9080 295.50 60.74 20 0                         128.20         9.029 6.970 2.056
UPLMET_235 2018-01-17 06:20:00 235 46891.0   5.255 5.594 5.786 5.165   76.030   1.891 0.230 0.675 1.203 4.714 0.424 0.304 0.473 0.609     131.500 0.00 0 1   5.599 5.882 5.485 6.084   2.375 1.5230   5.011 5.360 4.809 5.572   1.633 0.6590 274.10 68.95 20 0                         128.20         9.213 7.001 2.208
UPLMET_235 2018-01-17 06:15:00 235 46891.0   5.831 6.131 6.216 5.825   72.560   1.656 0.230 0.675 1.203 4.714 0.424 0.304 0.473 0.610     131.500 0.00 0 1   6.003 6.308 6.243 6.276   1.801 1.3100   5.611 5.887 5.406 6.104   1.428 0.7340 284.10 21.19 20 0                         128.20         9.491 6.884 2.604
UPLMET_235 2018-01-17 06:10:00 235 46891.0   5.855 6.173 6.138 5.911   73.150   1.695 0.230 0.675 1.203 4.714 0.424 0.304 0.473 0.610     131.600 0.00 0 1   5.994 6.310 6.308 6.243   2.084 0.5880   5.713 6.049 5.483 6.071   1.422 0.2020 221.50 68.12 20 0                         128.20         9.440 6.904 2.535
UPLMET_235 2018-01-17 06:05:00 235 46891.0   5.611 5.987 5.935 5.979   73.940   1.645 0.230 0.675 1.203 4.714 0.424 0.304 0.473 0.610     131.500 0.00 0 1   5.987 6.376 6.658 6.196   2.213 1.9150   5.314 5.682 5.375 5.787   1.227 0.8250 293.60 74.71 20 0                         128.20         9.309 6.879 2.426
UPLMET_235 2018-01-17 06:00:00 235 46891.0   5.498 5.872 5.945 5.558   74.710   1.803 0.229 0.675 1.202 4.714 0.424 0.304 0.473 0.610     131.400 0.00 0 1   5.676 6.008 5.867 6.015   2.041 1.0160   5.388 5.770 5.307 5.843   1.525 0.1350 198.90 5.35 20 0                         128.20         9.315 6.957 2.356
UPLMET_235 2018-01-17 05:55:00 235 46891.0   5.589 5.890 5.862 5.670   74.890   1.757 0.229 0.675 1.202 4.714 0.424 0.304 0.473 0.610     131.500 0.00 0 1   5.680 5.983 5.957 5.936   2.121 1.0600   5.485 5.757 5.394 5.757   1.451 0.4250 238.00 9.08 20 0                         128.20         9.262 6.934 2.326
UPLMET_235 2018-01-17 05:50:00 235 46891.0   5.602 5.861 5.813 5.575   75.070   1.743 0.228 0.675 1.202 4.714 0.424 0.304 0.473 0.610     131.500 0.00 0 1   5.659 5.903 5.708 5.853   1.910 0.5430   5.475 5.756 5.369 5.754   1.585 0.1920 239.70 2.38 20 0                         128.20         9.230 6.927 2.301
UPLMET_235 2018-01-17 05:45:00 235 46891.0   5.521 5.839 5.802 5.568   74.840   1.688 0.228 0.674 1.202 4.714 0.424 0.304 0.473 0.610     131.400 0.00 0 1   5.652 6.006 5.987 5.962   2.056 1.1400   5.381 5.643 5.214 5.635   1.203 0.3980 228.60 17.58 20 0                         128.20         9.223 6.900 2.321
UPLMET_235 2018-01-17 05:40:00 235 46891.0   5.200 5.502 5.550 5.263   76.390   1.730 0.228 0.675 1.202 4.714 0.424 0.304 0.473 0.610     131.500 0.00 0 1   5.377 5.642 5.682 5.638   2.160 1.1580   4.976 5.326 4.755 5.436   1.432 0.3340 205.50 12.09 20 0                         128.20         9.063 6.921 2.140
UPLMET_235 2018-01-17 05:35:00 235 46891.0   5.267 5.633 5.682 5.393   74.850   1.573 0.228 0.674 1.202 4.714 0.425 0.304 0.473 0.610     131.400 0.00 0 1   5.384 5.757 5.742 5.797   2.218 1.1050   5.113 5.454 4.962 5.549   1.268 0.3430 250.40 20.52 20 0                         128.20         9.147 6.843 2.300
UPLMET_235 2018-01-17 05:30:00 235 46891.0   5.222 5.465 5.453 5.191   76.010   1.566 0.227 0.674 1.202 4.714 0.425 0.304 0.473 0.610     131.500 0.00 0 1   5.277 5.532 5.320 5.545   2.032 1.5150   5.122 5.351 4.944 5.373   1.277 0.8330 218.70 18.13 20 0                         128.20         9.002 6.840 2.160
UPLMET_235 2018-01-17 05:25:00 235 46891.0   5.332 5.568 5.547 5.297   76.010   1.659 0.228 0.674 1.202 4.713 0.425 0.304 0.473 0.610     131.600 0.00 0 1   5.412 5.609 5.428 5.582   1.900 1.3990   5.245 5.481 5.112 5.502   1.350 0.8300 228.80 20.84 20 0                         128.20         9.061 6.886 2.174
UPLMET_235 2018-01-17 05:20:00 235 46891.0   5.314 5.576 5.546 5.466   74.970   1.465 0.227 0.674 1.202 4.714 0.425 0.304 0.473 0.610     131.600 0.00 0 1   5.400 5.656 5.923 5.608   1.777 1.5320   5.121 5.379 5.136 5.394   1.077 0.3370 203.50 2.89 20 0                         128.20         9.061 6.791 2.268
UPLMET_235 2018-01-17 05:15:00 235 46891.0   5.060 5.393 5.435 5.240   74.920   1.349 0.226 0.674 1.202 4.713 0.425 0.304 0.473 0.610     131.400 0.00 0 1   5.137 5.438 5.536 5.463   1.630 1.7020   5.015 5.343 5.092 5.397   1.076 0.4120 274.70 40.60 20 0                         128.20         8.991 6.734 2.255
UPLMET_235 2018-01-17 05:10:00 235 46891.0   5.110 5.379 5.403 5.207   75.300   1.387 0.226 0.674 1.202 4.713 0.425 0.304 0.473 0.610     131.500 0.00 0 1   5.217 5.440 5.369 5.466   1.824 0.9620   4.977 5.264 4.851 5.328   1.139 0.4560 220.80 28.70 20 0                         128.20         8.971 6.753 2.216
UPLMET_235 2018-01-17 05:05:00 235 46891.0   5.166 5.383 5.379 5.029   77.060   1.687 0.226 0.673 1.202 4.713 0.425 0.304 0.473 0.610     131.500 0.00 0 1   5.360 5.599 5.250 5.576   2.061 1.6480   5.052 5.290 4.858 5.301   1.279 0.5890 181.50 17.24 20 0                         128.20         8.956 6.900 2.055
UPLMET_235 2018-01-17 05:00:00 235 46891.0   5.482 5.650 5.471 5.643   73.700   1.155 0.225 0.673 1.202 4.714 0.425 0.304 0.473 0.610     131.500 0.00 0 1   5.666 5.779 6.011 5.595   1.468 0.5610   5.249 5.421 5.300 5.216   0.906 0.0660 154.60 11.72 20 0                         128.20         9.014 6.641 2.371
UPLMET_235 2018-01-17 04:55:00 235 46891.0   4.966 5.196 5.190 4.915   78.000   1.672 0.225 0.673 1.202 4.713 0.425 0.304 0.473 0.610     131.600 0.00 0 1   5.155 5.349 5.449 5.278   1.929 0.6680   4.907 5.154 4.767 5.146   1.057 0.1730 225.00 22.19 20 0                         128.20         8.839 6.892 1.945
UPLMET_235 2018-01-17 04:50:00 235 46891.0   5.136 5.398 5.353 5.234   74.890   1.263 0.225 0.673 1.202 4.713 0.425 0.304 0.473 0.610     131.500 0.00 0 1   5.184 5.460 5.482 5.400   1.852 1.5680   5.034 5.293 4.976 5.281   0.955 0.3710 290.20 28.23 20 0                         128.20         8.940 6.693 2.245
UPLMET_235 2018-01-17 04:45:00 235 46891.0   5.253 5.392 5.412 5.107   75.360   1.403 0.224 0.673 1.202 4.713 0.425 0.304 0.473 0.610     131.400 0.00 0 1   5.520 5.653 5.646 5.596   1.910 1.0510   4.985 5.143 4.598 5.222   0.969 0.2420 168.80 5.59 20 0                         128.20         8.977 6.760 2.212
UPLMET_235 2018-01-17 04:40:00 235 46891.0   5.449 5.592 5.506 5.544   73.540   1.159 0.224 0.673 1.202 4.713 0.425 0.304 0.473 0.610     131.500 0.00 0 1   5.629 5.695 5.848 5.655   1.425 1.7550   5.305 5.450 5.185 5.328   0.786 0.6860 19.86 35.31 20 0                         128.20         9.036 6.643 2.391
UPLMET_235 2018-01-17 04:35:00 235 46891.0   5.169 5.356 5.342 5.316   75.670   1.394 0.224 0.673 1.201 4.713 0.425 0.304 0.473 0.610     131.500 0.00 0 1   5.371 5.506 5.819 5.447   1.992 1.2120   5.035 5.210 4.917 5.243   0.888 0.3460 155.10 61.26 20 0                         128.20         8.933 6.756 2.173
UPLMET_235 2018-01-17 04:30:00 235 46891.0   5.246 5.432 5.474 5.054   75.960   1.580 0.224 0.673 1.201 4.713 0.425 0.304 0.473 0.610     131.500 0.00 0 1   5.431 5.590 5.238 5.607   1.713 0.2140   5.107 5.334 4.958 5.378   1.447 0.0170 244.30 1.67 20 0                         128.20         9.015 6.847 2.167
UPLMET_235 2018-01-17 04:25:00 235 46891.0   5.526 5.724 5.731 5.341   74.010   1.462 0.223 0.672 1.201 4.713 0.425 0.304 0.474 0.610     131.500 0.00 0 1   5.746 5.933 5.537 5.951   1.768 1.0160   5.443 5.604 5.209 5.613   1.073 0.4360 254.00 17.06 20 0                         128.20         9.178 6.789 2.385
UPLMET_235 2018-01-17 04:20:00 235 46891.0   5.921 6.043 6.013 5.769   70.050   0.972 0.222 0.672 1.201 4.713 0.425 0.304 0.474 0.610     131.600 0.00 0 1   6.077 6.117 5.844 6.077   1.113 0.8910   5.785 5.957 5.616 5.957   0.854 0.2980 276.20 27.16 20 0                         128.20         9.359 6.554 2.803
UPLMET_235 2018-01-17 04:15:00 235 46891.0   6.033 6.113 6.043 5.897   69.850   0.960 0.222 0.672 1.201 4.713 0.425 0.304 0.474 0.610     131.500 0.00 0 1   6.127 6.172 6.188 6.093   1.192 1.2210   5.900 6.016 5.570 5.984   0.786 0.5910 266.40 60.99 20 0                         128.20         9.378 6.548 2.828
UPLMET_235 2018-01-17 04:10:00 235 46891.0   6.082 6.234 6.114 6.006   69.330   0.925 0.222 0.671 1.201 4.713 0.425 0.305 0.474 0.610     131.400 0.00 0 1   6.190 6.333 6.178 6.186   1.428 2.4680   5.959 6.128 5.785 6.064   0.700 1.1570 235.70 95.80 20 0                         128.20         9.425 6.531 2.891
UPLMET_235 2018-01-17 04:05:00 235 46891.0   6.121 6.230 6.062 6.037   69.370   0.883 0.221 0.671 1.200 4.713 0.425 0.305 0.474 0.610     131.500 0.00 0 1   6.229 6.293 6.184 6.114   1.200 3.1180   5.930 6.066 5.773 5.995   0.708 1.7040 301.10 21.32 20 0                         128.20         9.391 6.512 2.876
UPLMET_235 2018-01-17 04:00:00 235 46891.0   5.999 6.095 5.948 5.847   70.350   0.967 0.221 0.672 1.200 4.713 0.425 0.305 0.474 0.610     131.400 0.00 0 1   6.096 6.233 6.117 6.038   1.319 3.2610   5.878 5.968 5.620 5.856   0.706 1.4030 300.60 40.16 20 0                         128.20         9.317 6.551 2.762
UPLMET_235 2018-01-17 03:55:00 235 46891.0   6.130 6.202 6.011 5.945   69.470   0.855 0.220 0.671 1.200 4.713 0.425 0.305 0.474 0.610     131.500 0.00 0 1   6.189 6.238 6.040 6.052   1.107 2.2540   6.057 6.143 5.802 5.963   0.748 1.4280 329.50 61.68 20 0                         128.20         9.358 6.498 2.857
UPLMET_235 2018-01-17 03:50:00 235 46891.0   6.077 6.144 5.925 5.889   69.680   0.814 0.220 0.671 1.200 4.713 0.425 0.305 0.474 0.610     131.500 0.00 0 1   6.160 6.219 5.971 5.986   0.897 4.4720   5.993 6.072 5.808 5.860   0.744 1.9990 260.30 56.49 20 0                         128.20         9.302 6.479 2.820
UPLMET_235 2018-01-17 03:45:00 235 46891.0   5.953 6.026 5.840 5.782   70.510   0.896 0.220 0.671 1.200 4.713 0.425 0.305 0.474 0.610     131.500 0.00 0 1   5.985 6.056 5.845 5.857   1.072 3.1980   5.899 5.984 5.677 5.811   0.808 1.2830 95.40 90.80 20 0                         128.20         9.247 6.518 2.727
UPLMET_235 2018-01-17 03:40:00 235 46891.0   5.871 5.944 5.769 5.676   71.050   0.934 0.220 0.671 1.200 4.713 0.425 0.305 0.474 0.610     131.400 0.00 0 1   5.960 6.027 5.822 5.844   1.182 2.5660   5.741 5.839 5.482 5.709   0.836 1.5230 191.30 70.84 20 0                         128.20         9.202 6.536 2.664
UPLMET_235 2018-01-17 03:35:00 235 46891.0   5.923 5.969 5.773 5.751   71.070   0.943 0.219 0.671 1.200 4.713 0.425 0.305 0.474 0.610     131.500 0.00 0 1   6.015 6.036 5.861 5.831   1.135 2.0850   5.863 5.912 5.579 5.736   0.858 0.8600 175.90 66.90 20 0                         128.20         9.205 6.540 2.663
UPLMET_235 2018-01-17 03:30:00 235 46891.0   5.846 5.930 5.747 5.698   71.480   0.997 0.218 0.670 1.200 4.713 0.425 0.305 0.474 0.610     131.500 0.00 0 1   5.873 5.959 5.761 5.766   1.097 2.1740   5.825 5.893 5.637 5.732   0.898 0.8930 153.00 67.40 20 0                         128.20         9.188 6.565 2.620
UPLMET_235 2018-01-17 03:25:00 235 46891.0   5.797 5.877 5.683 5.634   71.920   1.020 0.218 0.670 1.199 4.712 0.425 0.305 0.474 0.610     131.400 0.00 0 1   5.884 5.949 5.777 5.749   1.165 2.9930   5.686 5.797 5.505 5.640   0.907 1.3850 280.70 79.14 20 0                         128.20         9.147 6.576 2.569
UPLMET_235 2018-01-17 03:20:00 235 46891.0   5.762 5.828 5.601 5.626   72.520   1.055 0.218 0.670 1.199 4.712 0.425 0.305 0.474 0.610     131.500 0.00 0 1   5.882 5.917 5.770 5.673   1.150 2.9670   5.649 5.719 5.527 5.529   0.949 1.3840 37.11 94.60 20 0                         128.20         9.095 6.593 2.499
UPLMET_235 2018-01-17 03:15:00 235 46891.0   5.650 5.730 5.537 5.492   73.540   1.189 0.217 0.670 1.199 4.712 0.426 0.305 0.474 0.611     131.400 0.00 0 1   5.732 5.803 5.595 5.565   1.401 4.0980   5.619 5.704 5.389 5.512   1.078 1.0350 148.00 77.96 20 0                         128.20         9.055 6.657 2.396
UPLMET_235 2018-01-17 03:10:00 235 46891.0   5.535 5.650 5.463 5.431   73.880   1.182 0.217 0.670 1.199 4.712 0.426 0.305 0.474 0.611     131.600 0.00 0 1   5.636 5.739 5.573 5.535   1.383 3.0110   5.419 5.558 5.194 5.400   1.083 1.1690 167.00 53.34 20 0                         128.20         9.009 6.654 2.353
UPLMET_235 2018-01-17 03:05:00 235 46891.0   5.183 5.328 5.209 5.126   75.290   1.197 0.217 0.670 1.199 4.712 0.426 0.305 0.474 0.611     131.500 0.00 0 1   5.515 5.607 5.563 5.400   1.428 3.0380   4.903 5.096 4.659 5.076   1.064 0.9760 301.60 62.57 20 0                         128.20         8.851 6.661 2.187
UPLMET_235 2018-01-17 03:00:00 235 46891.0   5.315 5.410 5.250 5.105   75.940   1.358 0.217 0.670 1.199 4.712 0.426 0.305 0.474 0.611     131.500 0.00 0 1   5.556 5.603 5.494 5.384   1.521 1.9330   5.051 5.217 4.816 5.143   1.103 1.0540 263.40 64.67 20 0                         128.20         8.876 6.738 2.136
UPLMET_235 2018-01-17 02:55:00 235 46891.0   5.356 5.435 5.233 5.245   75.310   1.226 0.217 0.669 1.199 4.712 0.426 0.305 0.474 0.611     131.500 0.00 0 1   5.446 5.518 5.424 5.318   1.452 1.9870   5.236 5.331 5.048 5.107   1.046 1.1900 349.20 62.73 20 0                         128.20         8.866 6.675 2.189
UPLMET_235 2018-01-17 02:50:00 235 46891.0   5.174 5.283 5.103 4.997   76.560   1.329 0.216 0.669 1.199 4.712 0.426 0.305 0.474 0.611     131.500 0.00 0 1   5.328 5.380 5.171 5.166   1.552 1.9780   5.001 5.159 4.752 5.008   1.201 0.9850 27.10 53.15 20 0                         128.20         8.786 6.724 2.059
UPLMET_235 2018-01-17 02:45:00 235 46891.0   5.136 5.247 5.033 5.094   76.430   1.237 0.215 0.669 1.199 4.712 0.426 0.305 0.474 0.611     131.500 0.00 0 1   5.379 5.451 5.375 5.180   1.428 1.7020   4.861 5.000 4.567 4.909   1.130 0.7600 20.47 82.40 20 0                         128.20         8.743 6.680 2.061
UPLMET_235 2018-01-17 02:40:00 235 46891.0   4.971 5.087 4.972 4.824   77.460   1.364 0.215 0.669 1.199 4.712 0.426 0.305 0.475 0.611     131.500 0.00 0 1   5.172 5.253 5.169 5.074   1.611 1.7110   4.751 4.912 4.510 4.852   1.225 0.7780 297.20 78.13 20 0                         128.20         8.706 6.741 1.962
UPLMET_235 2018-01-17 02:35:00 235 46891.0   4.979 5.073 4.876 4.916   77.470   1.273 0.215 0.669 1.198 4.712 0.426 0.305 0.475 0.611     131.400 0.00 0 1   5.161 5.243 5.147 5.028   1.394 1.2830   4.832 4.951 4.710 4.756   1.198 0.5470 307.60 66.84 20 0                         128.20         8.647 6.697 1.948
UPLMET_235 2018-01-17 02:30:00 235 46891.0   4.732 4.849 4.728 4.578   79.440   1.479 0.214 0.669 1.198 4.712 0.426 0.305 0.475 0.611     131.500 0.00 0 1   4.829 4.960 4.863 4.806   1.729 2.3880   4.576 4.705 4.254 4.634   1.312 1.0510 162.20 59.03 20 0                         128.20         8.558 6.797 1.760
UPLMET_235 2018-01-17 02:25:00 235 46891.0   4.665 4.808 4.656 4.774   79.170   1.361 0.214 0.669 1.198 4.712 0.426 0.305 0.475 0.611     131.500 0.00 0 1   4.869 5.003 4.930 4.810   1.483 2.5570   4.488 4.599 4.646 4.480   1.300 1.0520 193.90 53.52 20 0                         128.20         8.515 6.740 1.774
UPLMET_235 2018-01-17 02:20:00 235 46891.0   4.181 4.327 4.351 4.185   81.400   1.451 0.213 0.669 1.198 4.712 0.426 0.305 0.475 0.611     131.400 0.00 0 1   4.453 4.573 4.605 4.453   1.597 1.6570   4.032 4.189 3.870 4.291   1.300 0.5870 269.60 74.23 20 0                         128.10         8.335 6.784 1.550
UPLMET_235 2018-01-17 02:15:00 235 46891.0   4.183 4.377 4.427 4.138   81.100   1.481 0.213 0.668 1.197 4.712 0.426 0.305 0.475 0.611     131.400 0.00 0 1   4.365 4.535 4.557 4.483   1.702 1.2830   4.069 4.267 3.861 4.387   1.273 0.4650 301.80 51.37 20 0                         128.10         8.380 6.798 1.584
UPLMET_235 2018-01-17 02:10:00 235 46891.0   4.350 4.561 4.503 4.397   80.700   1.477 0.213 0.668 1.197 4.712 0.426 0.305 0.475 0.611     131.400 0.00 0 1   4.479 4.672 4.643 4.550   1.648 1.6130   4.220 4.442 4.091 4.470   1.314 0.7370 245.20 74.75 20 0                         128.10         8.425 6.796 1.626
UPLMET_235 2018-01-17 02:05:00 235 46891.0   4.489 4.678 4.555 4.584   80.000   1.410 0.213 0.668 1.197 4.712 0.426 0.305 0.475 0.611     131.400 0.00 0 1   4.727 4.896 5.051 4.685   1.764 1.8260   4.334 4.554 4.235 4.487   1.206 0.7830 109.50 50.56 20 0                         128.10         8.455 6.764 1.691
UPLMET_235 2018-01-17 02:00:00 235 46891.0   4.178 4.476 4.396 4.404   80.300   1.298 0.212 0.667 1.197 4.712 0.426 0.305 0.475 0.611     131.500 0.00 0 1   4.390 4.686 4.730 4.540   1.501 1.3900   3.875 4.139 3.892 4.143   1.195 0.7600 238.40 50.63 20 0                         128.10         8.362 6.709 1.647
UPLMET_235 2018-01-17 01:55:00 235 46891.0   3.993 4.275 4.250 4.034   81.300   1.337 0.211 0.667 1.197 4.711 0.426 0.305 0.475 0.611     131.500 0.00 0 1   4.122 4.419 4.445 4.332   1.418 1.1940   3.863 4.124 3.746 4.146   1.241 0.4820 280.50 35.01 20 0                         128.10         8.276 6.728 1.548
UPLMET_235 2018-01-17 01:50:00 235 46891.0   3.906 4.238 4.271 4.079   81.400   1.375 0.211 0.667 1.197 4.711 0.426 0.305 0.475 0.611     131.400 0.00 0 1   4.097 4.396 4.546 4.391   1.530 2.4590   3.760 4.132 3.573 4.193   1.186 0.9170 180.70 53.58 20 0                         128.10         8.289 6.747 1.542
UPLMET_235 2018-01-17 01:45:00 235 46891.0   4.233 4.531 4.422 4.224   79.630   1.215 0.211 0.667 1.197 4.711 0.426 0.306 0.475 0.611     131.500 0.00 0 1   4.517 4.716 4.622 4.477   1.325 1.5860   3.972 4.332 3.874 4.324   1.139 0.5100 285.00 37.12 20 0                         128.10         8.377 6.669 1.706
UPLMET_235 2018-01-17 01:40:00 235 46891.0   4.232 4.417 4.305 4.128   80.200   1.196 0.210 0.667 1.197 4.711 0.426 0.306 0.475 0.611     131.500 0.00 0 1   4.483 4.567 4.596 4.404   1.367 4.3740   4.060 4.285 3.819 4.225   1.114 1.4030 245.30 62.17 20 0                         128.10         8.308 6.660 1.645
UPLMET_235 2018-01-17 01:35:00 235 46891.0   3.831 4.151 4.045 4.093   81.300   1.141 0.210 0.667 1.197 4.711 0.427 0.306 0.475 0.611     131.500 0.00 0 1   4.445 4.570 4.728 4.344   1.227 1.8800   3.408 3.837 3.562 3.875   1.075 0.6430 341.60 86.20 20 0                         128.00         8.158 6.634 1.526
UPLMET_235 2018-01-17 01:30:00 235 46891.0   3.700 4.013 4.002 3.603   81.700   1.156 0.210 0.666 1.197 4.711 0.427 0.306 0.475 0.611     131.400 0.00 0 1   4.096 4.367 4.058 4.214   1.231 1.7820   3.495 3.816 3.333 3.845   1.095 0.9030 256.10 36.04 20 0                         128.00         8.133 6.641 1.488
UPLMET_235 2018-01-17 01:25:00 235 46891.0   3.976 4.277 4.180 4.010   80.200   1.074 0.209 0.667 1.197 4.711 0.427 0.306 0.475 0.611     131.500 0.00 0 1   4.238 4.537 4.555 4.310   1.190 1.8800   3.647 3.959 3.267 4.045   1.012 1.2540 245.30 40.69 20 0                         128.00         8.236 6.602 1.631
UPLMET_235 2018-01-17 01:20:00 235 46891.0   3.735 4.023 3.937 3.836   81.800   1.114 0.209 0.667 1.196 4.711 0.427 0.306 0.475 0.611     131.400 0.00 0 1   3.889 4.214 4.121 4.065   1.195 2.0940   3.573 3.873 3.527 3.824   1.024 1.1270 283.10 17.78 20 0                         128.00         8.096 6.621 1.474
UPLMET_235 2018-01-17 01:15:00 235 46891.0   3.224 3.502 3.526 3.255   83.800   1.053 0.208 0.666 1.196 4.711 0.427 0.306 0.475 0.611     131.400 0.00 0 1   3.716 3.960 3.967 3.791   1.215 2.5210   2.987 3.272 2.863 3.390   0.936 1.2450 221.60 53.77 20 0                         127.90         7.865 6.592 1.274
UPLMET_235 2018-01-17 01:10:00 235 46891.0   3.497 3.710 3.780 3.302   82.400   1.064 0.208 0.665 1.196 4.711 0.427 0.306 0.475 0.611     131.400 0.00 0 1   4.117 4.271 4.485 4.190   1.182 1.2740   3.111 3.412 2.875 3.513   0.983 0.8370 265.40 47.88 20 0                         127.90         8.007 6.597 1.409
UPLMET_235 2018-01-17 01:05:00 235 46891.0   3.559 3.956 3.885 3.784   82.000   1.103 0.207 0.665 1.196 4.711 0.427 0.306 0.475 0.611     131.400 0.00 0 1   4.085 4.259 4.519 4.140   1.161 2.2180   3.277 3.690 3.289 3.694   1.044 1.1770 223.70 53.07 20 0                         127.90         8.067 6.616 1.452
UPLMET_235 2018-01-17 01:00:00 235 46891.0   3.388 3.747 3.713 3.654   83.100   1.114 0.207 0.665 1.196 4.710 0.427 0.306 0.475 0.611     131.500 0.00 0 1   3.564 3.932 3.940 3.875   1.239 1.2650   3.078 3.506 3.341 3.465   1.011 0.5610 220.70 55.55 20 0                         127.80         7.969 6.621 1.347
UPLMET_235 2018-01-17 00:55:00 235 46891.0   2.923 3.262 3.327 2.922   85.500   1.134 0.207 0.665 1.196 4.710 0.427 0.306 0.475 0.611     131.400 0.00 0 1   3.120 3.480 3.401 3.441   1.242 1.9510   2.771 3.098 2.736 3.200   1.040 1.2440 249.20 39.22 20 0                         127.80         7.755 6.631 1.124
UPLMET_235 2018-01-17 00:50:00 235 46891.0   3.165 3.492 3.431 3.319   84.500   1.061 0.206 0.665 1.195 4.710 0.427 0.306 0.475 0.611     131.400 0.00 0 1   3.437 3.784 3.701 3.636   1.237 1.9870   2.888 3.182 2.750 3.193   0.917 0.9680 250.30 60.26 20 0                         127.80         7.812 6.596 1.211
UPLMET_235 2018-01-17 00:45:00 235 46891.0   2.606 2.940 3.043 2.691   86.300   0.981 0.206 0.665 1.195 4.710 0.427 0.306 0.476 0.611     131.600 0.00 0 1   2.842 3.141 3.042 3.164   1.074 1.3990   2.495 2.862 2.572 2.998   0.937 0.5940 285.80 22.83 20 0                         127.70         7.600 6.558 1.041
UPLMET_235 2018-01-17 00:40:00 235 46891.0   2.782 3.088 3.199 2.742   85.800   1.058 0.206 0.665 1.195 4.710 0.427 0.306 0.476 0.611     131.500 0.00 0 1   2.926 3.205 2.990 3.266   1.218 2.0220   2.602 2.901 2.436 3.061   0.940 0.8040 279.10 34.12 20 0                         127.60         7.685 6.594 1.091
UPLMET_235 2018-01-17 00:35:00 235 46891.0   3.000 3.305 3.413 3.054   84.500   1.049 0.205 0.665 1.195 4.710 0.427 0.306 0.476 0.611     131.400 0.00 0 1   3.125 3.443 3.302 3.488   1.159 2.1650   2.871 3.166 2.783 3.262   0.916 1.1100 250.00 56.47 20 0                         127.60         7.802 6.590 1.209
UPLMET_235 2018-01-17 00:30:00 235 46891.0   3.067 3.336 3.475 3.171   83.200   0.897 0.205 0.665 1.195 4.710 0.427 0.306 0.476 0.611     131.600 0.00 0 1   3.372 3.557 3.769 3.619   0.964 2.2270   2.870 3.191 2.844 3.358   0.836 1.4110 304.90 28.99 20 0                         127.50         7.837 6.518 1.317
UPLMET_235 2018-01-17 00:25:00 235 46891.0   3.047 3.337 3.484 2.963   83.700   0.988 0.205 0.665 1.196 4.710 0.427 0.306 0.476 0.612     131.300 0.00 0 1   3.245 3.523 3.064 3.728   1.091 1.4610   2.919 3.217 2.832 3.371   0.909 0.9380 260.50 25.27 20 0                         127.30         7.842 6.561 1.278
UPLMET_235 2018-01-17 00:20:00 235 46891.0   3.401 3.724 3.779 3.644   82.100   1.009 0.204 0.664 1.196 4.710 0.427 0.306 0.476 0.612     131.400 0.00 0 1   3.642 3.991 4.176 3.893   1.149 2.1030   3.058 3.468 3.152 3.656   0.922 1.4250 312.50 50.87 20 0                         127.20         8.007 6.571 1.433
UPLMET_235 2018-01-17 00:15:00 235 46891.0   3.719 3.978 4.087 3.563   80.900   1.107 0.204 0.664 1.195 4.710 0.427 0.306 0.476 0.612     131.500 0.00 0 1   4.158 4.342 3.984 4.360   1.303 2.3880   3.046 3.369 2.928 3.652   0.966 1.2520 277.00 66.01 20 0                         129.40         8.182 6.618 1.563
UPLMET_235 2018-01-17 00:10:00 235 46891.0   4.419 4.593 4.523 4.252   78.200   1.061 0.204 0.664 1.195 4.710 0.427 0.306 0.476 0.612     131.400 0.00 0 1   4.598 4.746 4.499 4.594   1.119 2.0760   4.190 4.378 3.919 4.360   1.008 0.5960 214.70 53.92 20 0                         129.40         8.436 6.596 1.839
UPLMET_235 2018-01-17 00:05:00 235 46891.0   4.529 4.686 4.474 4.631   78.270   1.025 0.203 0.664 1.195 4.710 0.427 0.306 0.476 0.612     131.400 0.00 0 1   4.737 4.836 4.800 4.614   1.136 2.1650   4.169 4.398 4.451 4.267   0.970 0.9610 280.10 53.08 20 0                         129.40         8.408 6.579 1.827
UPLMET_235 2018-01-17 00:00:00 235 46891.0   3.945 4.178 4.160 4.048   80.100   1.036 0.203 0.664 1.195 4.710 0.428 0.306 0.476 0.612     131.400 0.00 0 1   4.071 4.325 4.304 4.240   1.076 1.9780   3.873 4.112 3.843 4.121   1.014 0.9450 262.40 33.24 20 0                         129.40         8.224 6.584 1.637
UPLMET_235 2018-01-16 23:55:00 235 46891.0   3.969 4.142 4.206 3.810   80.000   1.067 0.203 0.664 1.195 4.709 0.428 0.306 0.476 0.612     131.500 0.00 0 1   4.246 4.374 4.127 4.412   1.219 2.1200   3.769 4.025 3.561 4.085   0.941 0.7400 267.90 89.90 20 0                         129.40         8.251 6.599 1.650
UPLMET_235 2018-01-16 23:50:00 235 46891.0   4.534 4.657 4.639 4.342   77.510   1.049 0.202 0.664 1.195 4.710 0.428 0.306 0.476 0.612     131.500 0.00 0 1   4.658 4.812 4.615 4.713   1.117 1.4610   4.266 4.309 3.760 4.455   0.986 0.7800 312.70 50.91 20 0                         129.40         8.505 6.590 1.913
UPLMET_235 2018-01-16 23:45:00 235 46891.0   4.784 4.928 4.831 4.650   76.460   1.047 0.202 0.664 1.196 4.709 0.428 0.306 0.476 0.612     131.400 0.00 0 1   4.887 5.002 4.854 4.915   1.115 1.8000   4.639 4.817 4.432 4.743   1.011 0.7210 259.70 54.70 20 0                         129.40         8.620 6.589 2.029
UPLMET_235 2018-01-16 23:40:00 235 46891.0   4.800 4.952 4.816 4.804   76.240   0.992 0.202 0.664 1.195 4.709 0.428 0.307 0.476 0.612     131.500 0.00 0 1   4.907 5.027 4.948 4.878   1.042 2.3340   4.664 4.857 4.588 4.742   0.970 1.0880 133.50 51.92 20 0                         129.40         8.611 6.563 2.046
UPLMET_235 2018-01-16 23:35:00 235 46891.0   4.695 4.853 4.764 4.590   76.430   0.977 0.201 0.664 1.195 4.709 0.428 0.307 0.476 0.612     131.500 0.00 0 1   4.931 5.023 5.009 4.825   1.021 2.1380   4.487 4.716 4.314 4.713   0.930 1.0000 213.00 41.16 20 0                         129.40         8.580 6.556 2.022
UPLMET_235 2018-01-16 23:30:00 235 46891.0   4.592 4.737 4.599 4.634   77.230   0.960 0.201 0.664 1.195 4.709 0.428 0.307 0.476 0.612     131.400 0.00 0 1   4.920 5.007 4.999 4.805   1.154 1.6570   4.278 4.453 3.901 4.471   0.881 0.7620 294.20 95.80 20 0                         129.40         8.481 6.548 1.931
UPLMET_235 2018-01-16 23:25:00 235 46891.0   4.696 4.814 4.741 4.530   76.840   1.029 0.201 0.664 1.195 4.709 0.428 0.307 0.476 0.612     131.400 0.00 0 1   4.903 4.980 4.835 4.825   1.211 2.2810   4.422 4.569 4.022 4.590   0.933 1.0690 277.20 52.77 20 0                         129.40         8.566 6.581 1.984
UPLMET_235 2018-01-16 23:20:00 235 46891.0   4.895 4.997 4.864 4.773   76.030   0.999 0.200 0.664 1.195 4.709 0.428 0.307 0.476 0.612     131.500 0.00 0 1   5.159 5.253 5.117 5.053   1.233 2.6550   4.665 4.811 4.339 4.746   0.911 0.9730 212.00 83.30 20 0                         129.50         8.640 6.566 2.071
UPLMET_235 2018-01-16 23:15:00 235 46891.0   5.047 5.132 5.003 4.934   75.360   1.012 0.200 0.663 1.195 4.709 0.428 0.307 0.477 0.612     131.500 0.00 0 1   5.160 5.189 5.099 5.044   1.162 3.1270   4.954 5.056 4.742 4.947   0.919 1.1100 214.60 91.70 20 0                         129.50         8.724 6.573 2.150
UPLMET_235 2018-01-16 23:10:00 235 46891.0   5.143 5.218 5.097 4.981   74.790   0.998 0.200 0.663 1.195 4.708 0.428 0.307 0.477 0.612     131.500 0.00 0 1   5.236 5.291 5.154 5.136   1.068 2.4950   5.048 5.151 4.863 5.044   0.927 1.0180 260.30 61.12 20 0                         129.50         8.782 6.566 2.214
UPLMET_235 2018-01-16 23:05:00 235 46891.0   5.152 5.245 5.109 4.965   75.050   1.057 0.199 0.663 1.195 4.709 0.428 0.307 0.477 0.612     131.400 0.00 0 1   5.293 5.357 5.113 5.212   1.180 1.6930   5.052 5.165 4.735 5.053   0.962 0.8820 286.60 85.00 20 0                         129.50         8.789 6.594 2.193
UPLMET_235 2018-01-16 23:00:00 235 46891.0   5.293 5.371 5.195 5.132   74.520   1.042 0.199 0.663 1.195 4.709 0.428 0.307 0.477 0.612     131.500 0.00 0 1   5.332 5.412 5.216 5.219   1.139 1.8980   5.199 5.300 4.991 5.163   0.994 0.8290 85.80 65.98 20 0                         129.50         8.842 6.587 2.253
UPLMET_235 2018-01-16 22:55:00 235 46891.0   5.256 5.320 5.143 5.140   74.650   1.016 0.198 0.663 1.195 4.709 0.428 0.307 0.477 0.612     131.500 0.00 0 1   5.390 5.441 5.280 5.219   1.087 2.4050   5.158 5.234 4.966 5.090   0.950 1.1590 15.27 83.70 20 0                         129.50         8.810 6.574 2.233
UPLMET_235 2018-01-16 22:50:00 235 46891.0   5.262 5.325 5.169 5.050   74.860   1.080 0.198 0.663 1.195 4.708 0.428 0.307 0.477 0.612     131.400 0.00 0 1   5.368 5.408 5.225 5.222   1.174 2.0670   5.102 5.196 4.792 5.097   0.988 0.6940 323.60 38.22 20 0                         129.50         8.826 6.605 2.219
UPLMET_235 2018-01-16 22:45:00 235 46891.0   5.179 5.283 5.130 5.005   75.240   1.113 0.198 0.663 1.195 4.709 0.429 0.307 0.477 0.612     131.400 0.00 0 1   5.292 5.355 5.126 5.200   1.202 2.4410   5.109 5.217 4.884 5.087   0.977 1.3270 346.90 34.72 20 0                         129.50         8.802 6.621 2.179
UPLMET_235 2018-01-16 22:40:00 235 46891.0   5.354 5.418 5.236 5.161   74.440   1.067 0.197 0.662 1.195 4.709 0.429 0.307 0.477 0.612     131.400 0.00 0 1   5.386 5.444 5.229 5.259   1.126 3.2870   5.286 5.357 5.037 5.203   1.017 1.3920 27.81 78.86 20 0                         129.50         8.867 6.599 2.267
UPLMET_235 2018-01-16 22:35:00 235 46891.0   5.389 5.477 5.272 5.231   73.920   1.004 0.197 0.662 1.195 4.708 0.429 0.307 0.477 0.612     131.500 0.00 0 1   5.470 5.559 5.367 5.335   1.141 3.6710   5.296 5.408 5.092 5.213   0.848 1.9070 287.10 67.19 20 0                         129.50         8.890 6.569 2.318
UPLMET_235 2018-01-16 22:30:00 235 46891.0   5.245 5.354 5.213 5.092   74.740   1.100 0.197 0.662 1.195 4.708 0.429 0.307 0.477 0.612     131.500 0.00 0 1   5.383 5.470 5.219 5.302   1.180 3.3050   5.113 5.253 4.898 5.134   1.020 2.0110 284.00 77.77 20 0                         129.60         8.853 6.614 2.236
UPLMET_235 2018-01-16 22:25:00 235 46891.0   5.401 5.477 5.314 5.238   74.000   1.061 0.196 0.662 1.195 4.708 0.429 0.307 0.477 0.612     131.400 0.00 0 1   5.490 5.544 5.339 5.345   1.133 3.0910   5.336 5.445 5.176 5.286   1.003 1.3440 291.50 61.13 20 0                         129.60         8.916 6.596 2.318
UPLMET_235 2018-01-16 22:20:00 235 46891.0   5.354 5.450 5.261 5.196   74.260   1.057 0.196 0.662 1.195 4.708 0.429 0.307 0.477 0.612     131.500 0.00 0 1   5.436 5.511 5.321 5.316   1.213 4.6860   5.219 5.323 5.000 5.190   0.994 2.0990 324.80 57.36 20 0                         129.60         8.883 6.594 2.286
UPLMET_235 2018-01-16 22:15:00 235 46891.0   5.321 5.441 5.308 5.139   73.930   1.040 0.196 0.662 1.194 4.708 0.429 0.307 0.477 0.612     131.500 0.00 0 1   5.400 5.501 5.257 5.346   1.198 1.9960   5.196 5.313 4.913 5.190   0.952 1.2180 341.50 86.00 20 0                         129.60         8.912 6.586 2.323
UPLMET_235 2018-01-16 22:10:00 235 46891.0   5.434 5.523 5.383 5.243   73.220   0.979 0.195 0.662 1.195 4.708 0.429 0.307 0.477 0.612     131.500 0.00 0 1   5.527 5.587 5.345 5.446   1.095 2.2270   5.312 5.449 5.106 5.343   0.915 1.3520 344.20 61.23 20 0                         129.60         8.959 6.557 2.399
UPLMET_235 2018-01-16 22:05:00 235 46891.0   5.515 5.588 5.416 5.404   72.730   0.919 0.195 0.663 1.195 4.708 0.429 0.307 0.477 0.612     131.600 0.00 0 1   5.580 5.633 5.446 5.452   1.039 1.9600   5.408 5.492 5.293 5.363   0.893 0.9860 356.40 93.00 20 0                         129.60         8.979 6.529 2.449
UPLMET_235 2018-01-16 22:00:00 235 46891.0   5.444 5.491 5.354 5.296   72.910   0.893 0.195 0.662 1.195 4.708 0.429 0.307 0.477 0.612     131.500 0.00 0 1   5.506 5.542 5.378 5.396   0.979 2.6280   5.379 5.422 5.150 5.324   0.824 1.1020 281.70 54.78 20 0                         129.60         8.941 6.516 2.422
UPLMET_235 2018-01-16 21:55:00 235 46891.0   5.348 5.427 5.304 5.208   73.340   0.926 0.194 0.662 1.194 4.708 0.429 0.308 0.477 0.612     131.600 0.00 0 1   5.502 5.523 5.460 5.341   1.114 2.6460   5.219 5.316 5.030 5.245   0.657 1.2030 330.00 81.30 20 0                         129.60         8.909 6.532 2.375
UPLMET_235 2018-01-16 21:50:00 235 46891.0   5.442 5.510 5.350 5.306   72.830   0.874 0.194 0.662 1.194 4.709 0.429 0.308 0.477 0.612     131.400 0.00 0 1   5.575 5.602 5.475 5.407   1.120 2.5660   5.297 5.391 5.026 5.292   0.761 1.5080 335.20 47.60 20 0                         129.60         8.938 6.507 2.428
UPLMET_235 2018-01-16 21:45:00 235 46891.0   5.207 5.306 5.196 5.112   73.720   0.893 0.194 0.662 1.194 4.708 0.429 0.308 0.478 0.612     131.500 0.00 0 1   5.396 5.442 5.325 5.292   1.217 2.3160   4.938 5.141 4.815 5.100   0.783 1.4070 340.50 66.21 20 0                         129.60         8.843 6.516 2.324
UPLMET_235 2018-01-16 21:40:00 235 46891.0   5.197 5.316 5.126 5.170   73.650   0.812 0.193 0.662 1.194 4.708 0.430 0.308 0.478 0.612     131.400 0.00 0 1   5.424 5.528 5.391 5.282   1.102 2.5750   4.944 5.102 4.719 4.928   0.713 1.7580 306.60 42.26 20 0                         129.60         8.800 6.478 2.319
UPLMET_235 2018-01-16 21:35:00 235 46891.0   4.592 4.796 4.723 4.540   76.250   0.902 0.192 0.662 1.194 4.708 0.430 0.308 0.478 0.612     131.400 0.00 0 1   4.954 5.085 5.121 4.892   1.281 3.4920   4.288 4.549 4.132 4.624   0.709 1.9630 334.80 34.21 20 0                         129.60         8.555 6.521 2.032
UPLMET_235 2018-01-16 21:30:00 235 46891.0   4.750 4.956 4.912 4.585   75.460   0.941 0.192 0.661 1.194 4.708 0.430 0.308 0.478 0.612     131.500 0.00 0 1   5.017 5.193 5.049 5.031   1.267 2.9130   4.421 4.649 4.022 4.730   0.757 1.4530 322.80 56.47 20 0                         129.70         8.669 6.539 2.127
UPLMET_235 2018-01-16 21:25:00 235 46891.0   4.849 5.018 4.906 4.771   74.640   0.785 0.192 0.661 1.194 4.707 0.430 0.308 0.478 0.612     131.500 0.00 0 1   5.055 5.213 5.131 5.024   1.134 3.6440   4.597 4.752 4.335 4.787   0.612 1.6760 297.70 42.62 20 0                         129.70         8.666 6.466 2.198
UPLMET_235 2018-01-16 21:20:00 235 46891.0   4.950 5.042 4.906 4.770   74.290   0.720 0.192 0.661 1.194 4.707 0.430 0.308 0.478 0.612     131.500 0.00 0 1   5.098 5.151 5.015 4.962   0.975 4.0090   4.731 4.877 4.503 4.823   0.561 1.5650 294.30 44.75 20 0                         129.70         8.666 6.435 2.228
UPLMET_235 2018-01-16 21:15:00 235 46891.0   4.868 5.006 4.840 4.752   74.100   0.621 0.191 0.660 1.193 4.707 0.430 0.308 0.478 0.612     131.400 0.00 0 1   5.114 5.164 5.035 4.953   0.801 3.6880   4.751 4.919 4.624 4.810   0.483 1.9220 328.50 31.51 20 0                         129.70         8.626 6.389 2.234
UPLMET_235 2018-01-16 21:10:00 235 46891.0   4.968 5.067 4.874 4.905   73.780   0.593 0.190 0.660 1.193 4.707 0.430 0.308 0.478 0.612     131.500 0.00 0 1   5.071 5.142 5.052 4.940   0.864 2.2720   4.773 4.970 4.618 4.742   0.463 1.1150 5.67 70.51 20 0                         129.70         8.646 6.376 2.267
UPLMET_235 2018-01-16 21:05:00 235 46891.0   4.737 4.842 4.755 4.627   74.420   0.598 0.190 0.660 1.194 4.707 0.430 0.308 0.478 0.612     131.400 0.00 0 1   4.885 4.969 4.839 4.855   0.744 2.3430   4.609 4.751 4.428 4.692   0.487 1.0510 14.60 52.99 20 0                         129.70         8.575 6.379 2.193
UPLMET_235 2018-01-16 21:00:00 235 46891.0   4.890 4.970 4.845 4.747   73.710   0.551 0.190 0.660 1.193 4.707 0.430 0.308 0.478 0.612     131.500 0.00 0 1   5.066 5.128 4.911 4.941   0.732 3.1270   4.704 4.786 4.529 4.736   0.393 1.7470 282.40 67.38 20 0                         129.70         8.629 6.357 2.268
UPLMET_235 2018-01-16 20:55:00 235 46891.0   4.969 5.045 4.909 4.769   73.220   0.521 0.189 0.660 1.193 4.707 0.430 0.308 0.478 0.612     131.500 0.00 0 1   5.117 5.167 4.977 4.980   0.956 2.7260   4.765 4.875 4.525 4.818   0.310 1.4790 340.30 70.14 20 0                         129.70         8.667 6.343 2.321
UPLMET_235 2018-01-16 20:50:00 235 46891.0   5.144 5.203 5.007 4.950   72.440   0.468 0.189 0.660 1.193 4.707 0.430 0.308 0.478 0.612     131.500 0.00 0 1   5.211 5.260 5.048 5.043   0.583 2.2720   5.047 5.125 4.810 4.967   0.360 1.0900 276.90 64.44 20 0                         129.70         8.727 6.319 2.405
UPLMET_235 2018-01-16 20:45:00 235 46891.0   5.039 5.134 4.873 4.949   73.520   0.544 0.188 0.660 1.193 4.707 0.430 0.308 0.478 0.612     131.400 0.00 0 1   5.188 5.250 5.038 4.984   0.634 4.2320   4.822 4.934 4.783 4.690   0.437 2.0380 321.80 78.37 20 0                         129.70         8.646 6.354 2.289
UPLMET_235 2018-01-16 20:40:00 235 46891.0   4.600 4.709 4.644 4.486   75.600   0.708 0.188 0.660 1.193 4.707 0.431 0.308 0.478 0.612     131.500 0.00 0 1   4.747 4.872 4.697 4.707   0.859 2.9670   4.509 4.649 4.371 4.601   0.579 1.4980 332.30 41.91 20 0                         129.70         8.508 6.430 2.076
UPLMET_235 2018-01-16 20:35:00 235 46891.0   4.579 4.690 4.624 4.444   75.810   0.727 0.188 0.659 1.193 4.707 0.431 0.308 0.478 0.612     131.500 0.00 0 1   4.752 4.782 4.736 4.717   0.954 2.6990   4.449 4.617 4.271 4.571   0.543 0.9310 352.20 37.76 20 0                         129.70         8.496 6.439 2.055
UPLMET_235 2018-01-16 20:30:00 235 46891.0   4.716 4.846 4.752 4.572   74.350   0.582 0.187 0.660 1.193 4.707 0.431 0.308 0.479 0.612     131.500 0.00 0 1   4.891 4.958 4.845 4.833   0.875 5.2120   4.590 4.721 4.347 4.684   0.428 2.0970 353.20 50.74 20 0                         129.70         8.573 6.371 2.199
UPLMET_235 2018-01-16 20:25:00 235 46891.0   4.775 4.925 4.754 4.637   73.880   0.497 0.187 0.659 1.193 4.707 0.431 0.308 0.479 0.612     131.500 0.00 0 1   5.005 5.080 4.824 4.803   0.699 3.8040   4.592 4.786 4.435 4.687   0.338 2.2740 341.90 42.86 20 0                         129.80         8.574 6.332 2.240
UPLMET_235 2018-01-16 20:20:00 235 46891.0   4.740 4.857 4.634 4.668   74.290   0.457 0.186 0.659 1.193 4.707 0.431 0.309 0.479 0.612     131.400 0.00 0 1   4.857 4.941 4.831 4.727   0.753 3.8400   4.522 4.657 4.477 4.476   0.379 1.2410 27.67 48.57 20 0                         129.80         8.502 6.314 2.186
UPLMET_235 2018-01-16 20:15:00 235 46891.0   4.222 4.428 4.427 4.111   76.650   0.687 0.186 0.659 1.193 4.707 0.431 0.309 0.479 0.612     131.500 0.00 0 1   4.604 4.715 4.614 4.601   1.065 3.7420   3.920 4.158 3.752 4.271   0.370 2.0360 339.90 30.56 20 0                         129.80         8.380 6.420 1.957
UPLMET_235 2018-01-16 20:10:00 235 46891.0   4.493 4.631 4.411 4.537   74.960   0.365 0.186 0.659 1.193 4.707 0.431 0.309 0.479 0.612     131.500 0.00 0 1   4.850 4.945 4.884 4.644   0.735 3.2250   3.884 4.103 3.992 3.973   0.244 1.8140 359.30 41.20 20 0                         129.80         8.370 6.272 2.096
UPLMET_235 2018-01-16 20:05:00 235 46891.0   3.575 3.822 3.864 3.402   79.430   0.635 0.185 0.659 1.193 4.706 0.431 0.309 0.479 0.612     131.600 0.00 0 1   3.794 4.061 3.837 3.940   0.926 2.6550   3.410 3.633 2.823 3.768   0.342 1.5770 330.20 18.98 20 0                         129.80         8.055 6.396 1.657
UPLMET_235 2018-01-16 20:00:00 235 46891.0   3.929 4.041 3.970 3.908   77.660   0.427 0.185 0.659 1.193 4.706 0.431 0.309 0.479 0.612     131.400 0.00 0 1   4.255 4.222 4.380 4.151   0.673 2.8330   3.339 3.642 2.974 3.523   0.159 1.5230 352.90 28.70 20 0                         129.80         8.115 6.300 1.813
UPLMET_235 2018-01-16 19:55:00 235 46891.0   2.865 3.172 3.237 3.047   81.800   0.425 0.184 0.659 1.193 4.706 0.431 0.309 0.479 0.612     131.500 0.00 0 1   3.170 3.450 3.490 3.480   0.691 2.9400   2.682 3.055 2.746 3.159   0.280 1.4750 0.68 26.86 20 0                         129.80         7.706 6.299 1.402
UPLMET_235 2018-01-16 19:50:00 235 46891.0   3.115 3.313 3.466 2.947   80.700   0.461 0.184 0.659 1.193 4.706 0.431 0.309 0.479 0.612     131.500 0.00 0 1   3.560 3.721 3.545 3.794   0.637 1.3630   2.814 3.067 2.563 3.232   0.189 0.4830 196.50 47.15 20 0                         129.80         7.832 6.316 1.511
UPLMET_235 2018-01-16 19:45:00 235 46891.0   3.385 3.603 3.722 3.225   79.060   0.431 0.183 0.659 1.193 4.706 0.431 0.309 0.479 0.612     131.400 0.00 0 1   3.618 3.840 3.782 3.896   0.766 2.5660   3.128 3.335 2.722 3.586   0.102 1.4730 351.00 43.76 20 0                         129.80         7.974 6.302 1.670
UPLMET_235 2018-01-16 19:40:00 235 46891.0   3.601 3.882 3.825 3.779   77.190   0.200 0.184 0.659 1.193 4.706 0.432 0.309 0.479 0.613     131.500 0.00 0 1   3.786 4.062 4.268 3.959   0.547 2.3970   3.310 3.617 3.286 3.648   -0.046 0.9940 9.91 32.38 20 0                         129.70         8.033 6.197 1.832
UPLMET_235 2018-01-16 19:35:00 235 46891.0   2.965 3.330 3.405 3.055   80.000   0.287 0.183 0.659 1.192 4.706 0.432 0.309 0.479 0.613     131.600 0.00 0 1   3.440 3.706 4.006 3.658   0.715 1.8620   2.673 3.078 2.381 3.272   -0.105 0.9540 283.00 52.16 20 0                         129.70         7.798 6.237 1.560
UPLMET_235 2018-01-16 19:30:00 235 46891.0   3.049 3.423 3.509 3.146   80.100   0.409 0.183 0.658 1.193 4.706 0.432 0.309 0.479 0.613     131.400 0.00 0 1   3.244 3.631 3.577 3.652   0.796 2.2720   2.761 3.093 2.696 3.298   0.011 1.1570 306.30 34.88 20 0                         129.70         7.855 6.292 1.563
UPLMET_235 2018-01-16 19:25:00 235 46891.0   3.171 3.475 3.577 3.119   79.310   0.333 0.183 0.658 1.193 4.706 0.432 0.309 0.480 0.613     131.400 0.00 0 1   3.465 3.701 3.485 3.708   0.613 2.7530   2.907 3.281 2.834 3.437   0.144 1.1650 309.40 38.51 20 0                         129.70         7.893 6.257 1.633
UPLMET_235 2018-01-16 19:20:00 235 46891.0   3.377 3.659 3.701 3.440   77.780   0.183 0.182 0.658 1.193 4.706 0.432 0.309 0.480 0.613     131.500 0.00 0 1   3.691 3.913 4.142 3.840   0.629 1.3540   3.092 3.447 2.762 3.569   -0.140 0.5790 58.29 67.15 20 0                         129.60         7.963 6.190 1.769
UPLMET_235 2018-01-16 19:15:00 235 46891.0   3.224 3.515 3.559 3.272   78.520   0.174 0.182 0.658 1.193 4.706 0.432 0.309 0.480 0.613     131.400 0.00 0 1   3.707 3.901 4.040 3.810   0.735 2.8330   2.780 3.121 2.648 3.360   -0.255 1.3450 303.50 48.65 20 0                         129.60         7.883 6.186 1.693
UPLMET_235 2018-01-16 19:10:00 235 46891.0   3.556 3.917 3.811 3.717   76.760   0.107 0.182 0.658 1.193 4.706 0.432 0.309 0.480 0.613     131.400 0.00 0 1   4.047 4.316 4.298 4.081   0.694 3.0560   3.105 3.389 2.822 3.463   -0.203 1.7950 324.70 56.44 20 0                         129.40         8.025 6.156 1.865
UPLMET_235 2018-01-16 19:05:00 235 46891.0   3.219 3.565 3.749 3.184   78.190   0.300 0.181 0.658 1.192 4.706 0.432 0.309 0.480 0.613     131.600 0.00 0 1   3.759 4.125 3.891 4.078   0.570 2.3700   2.883 3.209 2.776 3.400   -0.046 1.5110 314.40 17.55 20 0                         131.20         7.990 6.242 1.743
UPLMET_235 2018-01-16 19:00:00 235 46891.0   3.504 3.793 3.895 3.161   76.750   0.188 0.180 0.657 1.192 4.705 0.432 0.309 0.480 0.613     131.400 0.00 0 1   3.934 4.301 4.026 4.107   0.486 3.8040   3.118 3.307 2.469 3.641   -0.205 1.7270 294.00 22.45 20 0                         131.90         8.072 6.192 1.877
UPLMET_235 2018-01-16 18:55:00 235 46891.0   3.977 4.212 4.092 3.946   75.110   0.082 0.180 0.657 1.192 4.705 0.432 0.309 0.480 0.613     131.500 0.00 0 1   4.362 4.556 4.488 4.272   0.378 2.2270   3.476 3.883 3.494 3.833   -0.143 1.2250 300.50 19.74 20 0                         131.90         8.185 6.144 2.037
UPLMET_235 2018-01-16 18:50:00 235 46891.0   3.265 3.583 3.616 3.164   78.670   0.257 0.179 0.658 1.192 4.705 0.432 0.310 0.480 0.613     131.500 0.00 0 1   3.833 4.071 4.165 3.855   0.681 2.8510   2.717 3.033 2.325 3.343   -0.149 1.1370 283.30 16.78 20 0                         131.90         7.915 6.223 1.688
UPLMET_235 2018-01-16 18:45:00 235 46891.0   2.890 3.338 3.442 3.040   80.600   0.419 0.179 0.657 1.192 4.705 0.432 0.310 0.480 0.613     131.500 0.00 0 1   3.816 4.043 4.081 3.746   0.674 2.5480   2.674 3.141 2.682 3.352   -0.074 1.3920 333.00 27.49 20 0                         132.00         7.818 6.297 1.517
UPLMET_235 2018-01-16 18:40:00 235 46891.0   3.022 3.504 3.607 3.286   79.430   0.383 0.179 0.657 1.192 4.705 0.433 0.310 0.480 0.613     131.400 0.00 0 1   3.134 3.590 3.531 3.669   0.480 1.4430   2.814 3.317 2.879 3.530   0.235 0.9890 314.10 30.51 20 0                         132.00         7.910 6.280 1.627
UPLMET_235 2018-01-16 18:35:00 235 46891.0   2.984 3.487 3.506 3.153   80.400   0.449 0.178 0.657 1.192 4.705 0.433 0.310 0.480 0.613     131.500 0.00 0 1   3.112 3.607 3.528 3.557   0.669 2.2630   2.840 3.338 2.617 3.431   0.257 1.3650 316.70 11.63 20 0                         132.00         7.854 6.310 1.539
UPLMET_235 2018-01-16 18:30:00 235 46891.0   2.866 3.319 3.250 3.212   82.100   0.491 0.178 0.657 1.192 4.705 0.433 0.310 0.480 0.613     131.400 0.00 0 1   2.987 3.435 3.456 3.411   0.660 2.2010   2.703 3.213 2.925 3.099   0.328 0.8690 327.60 51.06 20 0                         132.00         7.713 6.330 1.381
UPLMET_235 2018-01-16 18:25:00 235 46891.0   2.261 2.677 2.676 2.572   85.700   0.529 0.178 0.657 1.192 4.705 0.433 0.310 0.481 0.613     131.500 0.00 0 1   2.936 3.387 3.860 3.089   0.653 3.0560   2.013 2.391 2.125 2.524   0.196 1.2050 255.40 45.97 20 0                         132.00         7.405 6.347 1.059
UPLMET_235 2018-01-16 18:20:00 235 46891.0   2.216 2.517 2.632 2.347   86.600   0.626 0.177 0.657 1.192 4.705 0.433 0.310 0.481 0.613     131.400 0.00 0 1   2.576 2.792 3.057 2.797   0.767 1.3720   2.067 2.387 1.990 2.543   0.254 0.7410 277.70 45.59 20 0                         132.10         7.382 6.392 0.989
UPLMET_235 2018-01-16 18:15:00 235 46891.0   1.982 2.367 2.596 2.145   87.000   0.645 0.177 0.657 1.192 4.705 0.433 0.310 0.481 0.613     131.300 0.00 0 1   2.398 2.702 2.897 2.691   0.821 1.7190   1.806 2.204 1.760 2.533   0.263 0.6210 314.40 56.75 20 0                         132.10         7.363 6.401 0.957
UPLMET_235 2018-01-16 18:10:00 235 46891.0   2.201 2.640 2.826 2.377   85.400   0.626 0.176 0.657 1.191 4.705 0.433 0.310 0.481 0.613     131.300 0.00 0 1   2.477 2.870 2.941 3.018   0.971 1.3100   1.964 2.378 1.873 2.711   0.331 0.8570 304.00 47.02 20 0                         132.10         7.484 6.392 1.093
UPLMET_235 2018-01-16 18:05:00 235 46891.0   2.271 2.681 2.758 2.429   87.600   0.899 0.176 0.657 1.192 4.704 0.433 0.310 0.481 0.613     131.500 0.00 0 1   2.326 2.780 2.650 2.819   1.184 1.4250   2.216 2.621 2.214 2.683   0.659 0.7580 272.40 48.45 20 0                         132.10         7.448 6.519 0.924
UPLMET_235 2018-01-16 18:00:00 235 46891.0   2.436 2.857 2.971 2.588   86.000   0.870 0.176 0.656 1.192 4.704 0.433 0.310 0.481 0.613     131.500 0.00 0 1   2.503 2.956 2.892 3.024   1.050 1.0870   2.275 2.706 2.295 2.852   0.714 0.5530 266.60 20.88 20 0                         132.10         7.562 6.505 1.059
UPLMET_235 2018-01-16 17:55:00 235 46891.0   2.552 3.029 3.184 2.754   85.300   0.966 0.175 0.656 1.192 4.704 0.433 0.310 0.481 0.613     131.500 0.00 0 1   2.684 3.163 2.984 3.265   1.069 1.6570   2.458 2.871 2.514 3.011   0.801 0.4250 234.90 12.03 20 0                         132.00         7.677 6.551 1.128
UPLMET_235 2018-01-16 17:50:00 235 46891.0   2.627 3.169 3.349 2.951   83.200   0.782 0.175 0.656 1.191 4.704 0.433 0.310 0.481 0.613     131.400 0.00 0 1   2.699 3.275 3.176 3.483   1.037 1.1580   2.522 3.060 2.752 3.262   0.569 0.7230 285.00 25.62 20 0                         133.50         7.767 6.464 1.305
UPLMET_235 2018-01-16 17:45:00 235 46891.0   2.870 3.374 3.473 3.153   83.200   0.900 0.174 0.656 1.191 4.704 0.433 0.310 0.481 0.613     131.400 0.00 0 1   3.080 3.518 3.643 3.515   1.216 0.8290   2.706 3.255 2.905 3.360   0.762 0.4000 249.10 35.42 20 0                         134.60         7.835 6.520 1.316
UPLMET_235 2018-01-16 17:40:00 235 46891.0   3.103 3.574 3.680 3.281   82.800   1.019 0.174 0.656 1.192 4.704 0.433 0.310 0.481 0.613     131.300 0.00 0 1   3.392 3.929 4.013 3.925   1.313 1.9960   2.769 3.190 2.701 3.343   0.571 1.0820 224.00 40.94 20 0                         134.70         7.951 6.576 1.368
UPLMET_235 2018-01-16 17:35:00 235 46891.0   3.204 3.684 3.757 3.384   82.000   0.974 0.174 0.657 1.192 4.704 0.434 0.310 0.481 0.614     131.400 0.00 0 1   3.389 3.922 3.842 3.914   1.300 1.6040   3.040 3.514 3.050 3.637   0.629 0.8170 250.10 24.00 20 0                         134.70         7.994 6.555 1.439
UPLMET_235 2018-01-16 17:30:00 235 46891.0   3.198 3.640 3.642 3.510   81.400   0.755 0.174 0.656 1.192 4.703 0.434 0.310 0.481 0.614     131.300 0.00 0 1   3.386 3.916 3.866 3.855   0.984 0.4540   2.992 3.424 2.948 3.467   0.551 0.0820 271.60 10.77 20 0                         134.80         7.930 6.452 1.475
UPLMET_235 2018-01-16 17:25:00 235 46891.0   2.991 3.372 3.350 3.188   83.500   0.828 0.173 0.657 1.192 4.703 0.434 0.310 0.481 0.614     131.500 0.00 0 1   3.145 3.597 3.551 3.533   1.068 1.6930   2.805 3.168 2.738 3.226   0.583 0.5940 236.40 28.53 20 0                         135.00         7.768 6.486 1.282
UPLMET_235 2018-01-16 17:20:00 235 46891.0   3.081 3.441 3.398 3.361   83.100   0.799 0.173 0.657 1.192 4.703 0.434 0.310 0.481 0.614     131.400 0.00 0 1   3.340 3.650 4.160 3.522   1.045 1.6660   2.834 3.188 2.839 3.185   0.425 0.7940 190.50 44.39 20 0                         135.10         7.794 6.472 1.317
UPLMET_235 2018-01-16 17:15:00 235 46891.0   2.663 3.117 3.043 2.934   84.700   0.715 0.173 0.657 1.192 4.703 0.434 0.311 0.481 0.614     131.400 0.00 0 1   3.174 3.521 3.661 3.400   0.995 1.4790   2.449 2.755 2.418 2.784   0.353 0.6680 190.20 30.05 20 0                         135.20         7.600 6.433 1.163
UPLMET_235 2018-01-16 17:10:00 235 46891.0   2.643 2.869 2.850 2.512   86.200   0.776 0.172 0.657 1.192 4.703 0.434 0.311 0.481 0.614     131.500 0.00 0 1   2.867 2.993 2.818 2.940   1.032 1.9070   2.458 2.755 2.298 2.771   0.366 0.8900 187.60 62.54 20 0                         135.30         7.497 6.461 1.035
UPLMET_235 2018-01-16 17:05:00 235 46891.0   2.590 2.778 2.604 2.612   87.200   0.692 0.172 0.657 1.192 4.703 0.434 0.311 0.481 0.614     131.500 0.00 0 1   3.487 3.509 3.968 3.078   1.119 2.4860   2.082 2.301 2.072 2.313   -0.164 0.9790 328.40 83.80 20 0                         135.50         7.367 6.422 0.943
UPLMET_235 2018-01-16 17:00:00 235 46891.0   2.142 2.318 2.293 2.030   91.300   1.018 0.172 0.657 1.192 4.703 0.434 0.311 0.481 0.614     131.400 0.00 0 1   2.175 2.356 2.117 2.366   1.148 1.9150   2.097 2.261 1.926 2.240   0.842 1.3830 247.70 47.37 20 0                         135.60         7.205 6.575 0.627
UPLMET_235 2018-01-16 16:55:00 235 46891.0   2.270 2.424 2.384 2.116   91.000   1.071 0.172 0.657 1.192 4.703 0.434 0.311 0.481 0.614     131.400 0.00 0 1   2.375 2.522 2.199 2.468   1.185 1.8800   2.186 2.353 1.983 2.322   0.900 1.0930 239.60 22.76 20 0                         135.80         7.252 6.601 0.653
UPLMET_235 2018-01-16 16:50:00 235 46891.0   2.476 2.640 2.584 2.347   90.700   1.226 0.171 0.656 1.192 4.703 0.434 0.311 0.482 0.614     131.400 0.00 0 1   2.530 2.691 2.431 2.636   1.358 1.3990   2.385 2.534 2.209 2.468   1.158 1.1800 228.00 3.37 20 0                         136.00         7.357 6.675 0.684
UPLMET_235 2018-01-16 16:45:00 235 46891.0   2.561 2.732 2.738 2.440   91.000   1.414 0.171 0.656 1.192 4.703 0.434 0.311 0.482 0.614     131.500 0.00 0 1   2.613 2.771 2.548 2.787   1.499 1.5060   2.514 2.673 2.343 2.655   1.312 1.0200 223.50 14.31 20 0                         136.30         7.438 6.766 0.669
UPLMET_235 2018-01-16 16:40:00 235 46891.0   2.680 2.894 2.984 2.523   86.600   0.968 0.171 0.656 1.192 4.703 0.434 0.311 0.482 0.614     131.400 0.00 0 1   2.779 3.013 2.740 3.111   1.394 1.4430   2.540 2.712 2.284 2.810   0.817 0.6060 258.30 28.31 20 0                         136.60         7.569 6.552 1.014
UPLMET_235 2018-01-16 16:35:00 235 46891.0   2.983 3.248 3.271 2.902   84.800   0.958 0.170 0.656 1.192 4.703 0.434 0.311 0.482 0.614     131.500 0.00 0 1   3.186 3.477 3.471 3.437   1.242 1.4520   2.802 3.043 2.640 3.137   0.319 0.6970 275.40 18.68 20 0                         136.90         7.724 6.547 1.174
UPLMET_235 2018-01-16 16:30:00 235 46891.0   3.089 3.333 3.319 3.092   85.000   1.032 0.170 0.656 1.192 4.703 0.435 0.311 0.482 0.614     131.400 0.00 0 1   3.182 3.477 3.519 3.418   1.681 1.0330   3.044 3.268 2.864 3.285   0.248 0.4910 288.60 17.72 20 0                         137.30         7.751 6.582 1.163
UPLMET_235 2018-01-16 16:25:00 235 46891.0   3.213 3.444 3.470 3.112   86.600   1.440 0.170 0.657 1.192 4.703 0.435 0.311 0.482 0.614     131.400 0.00 0 1   3.374 3.576 3.336 3.559   1.836 1.2740   3.094 3.331 2.921 3.331   0.897 0.7020 245.10 38.90 20 0                         137.70         7.834 6.778 1.050
UPLMET_235 2018-01-16 16:20:00 235 46891.0   3.452 3.625 3.630 3.254   86.700   1.623 0.170 0.656 1.192 4.703 0.435 0.311 0.482 0.614     131.400 0.00 0 1   3.607 3.789 3.602 3.770   1.935 1.0160   3.362 3.529 3.120 3.509   0.815 0.5730 268.50 18.78 20 0                         138.30         7.923 6.868 1.054
UPLMET_235 2018-01-16 16:15:00 235 46891.0   3.663 3.776 3.797 3.254   85.600   1.600 0.169 0.656 1.192 4.702 0.435 0.311 0.482 0.614     131.400 0.00 0 1   3.823 3.927 3.543 3.964   2.076 1.3270   3.578 3.689 3.080 3.687   0.809 0.6730 296.40 7.68 20 0                         138.70         8.017 6.857 1.154
UPLMET_235 2018-01-16 16:10:00 235 46891.0   4.115 4.186 4.225 3.550   83.000   1.588 0.169 0.656 1.193 4.703 0.435 0.311 0.482 0.614     131.400 0.00 0 1   4.318 4.376 3.893 4.383   2.010 1.2920   3.834 3.946 3.247 3.994   0.976 0.6600 301.70 18.74 20 0                         139.50         8.262 6.851 1.405
UPLMET_235 2018-01-16 16:05:00 235 46891.0   4.453 4.535 4.351 4.282   75.190   0.325 0.168 0.656 1.193 4.703 0.435 0.311 0.482 0.614     131.400 0.00 0 1   4.624 4.702 4.815 4.515   1.653 1.7190   4.090 4.315 3.781 3.999   -0.767 0.6470 331.60 35.53 20 0                         140.60         8.335 6.254 2.068
UPLMET_235 2018-01-16 16:00:00 235 46891.0   3.888 4.076 3.999 3.537   84.200   1.571 0.168 0.656 1.193 4.703 0.435 0.311 0.482 0.614     131.400 0.00 0 1   3.920 4.180 3.842 4.038   2.077 1.8170   3.817 3.971 3.262 3.943   -0.257 0.2100 61.12 44.30 20 0                         141.60         8.132 6.842 1.285
UPLMET_235 2018-01-16 15:55:00 235 46891.0   3.707 3.921 3.785 3.720   81.100   0.836 0.168 0.656 1.193 4.702 0.435 0.311 0.482 0.614     131.400 0.00 0 1   3.996 4.154 4.364 3.999   1.427 1.8000   3.438 3.649 3.267 3.611   -0.082 0.9820 301.00 49.87 20 0                         141.90         8.010 6.490 1.514
UPLMET_235 2018-01-16 15:50:00 235 46891.0   3.409 3.652 3.603 3.283   84.300   1.203 0.167 0.656 1.192 4.702 0.435 0.311 0.482 0.614     131.400 0.00 0 1   3.459 3.690 3.520 3.644   1.455 1.5150   3.384 3.622 3.145 3.498   0.669 1.0330 321.60 7.92 20 0                         141.20         7.908 6.664 1.242
UPLMET_235 2018-01-16 15:45:00 235 46891.0   3.303 3.431 3.325 3.152   86.000   1.215 0.167 0.656 1.193 4.702 0.435 0.311 0.482 0.614     131.400 0.00 0 1   3.411 3.622 3.430 3.488   1.540 2.1650   3.175 3.253 2.901 3.177   0.783 1.1550 339.00 27.67 20 0                         140.60         7.754 6.669 1.086
UPLMET_235 2018-01-16 15:40:00 235 46891.0   3.312 3.356 3.277 2.896   88.900   1.631 0.167 0.656 1.193 4.702 0.435 0.312 0.482 0.614     131.400 0.00 0 1   3.399 3.446 2.966 3.352   1.840 1.4880   3.236 3.270 2.761 3.204   1.381 0.8690 291.70 13.82 20 0                         140.40